<?xml version="1.0" encoding="UTF-8" standalone="no" ?>
<gpx xmlns="http://www.topografix.com/GPX/1/1" xmlns:xsi="http://www.w3.org/2001/XMLSchema-instance" xsi:schemaLocation="http://www.topografix.com/GPX/1/1 http://www.topografix.com/GPX/1/1/gpx.xsd" version="1.1" creator="VisuGPX - https://www.visugpx.com">
  <metadata>
    <name>26 septembre 2015</name>
    <desc><![CDATA[club vtt des rochers
www.evdr.org]]></desc>
  </metadata>
  <trk>
    <name><![CDATA[26-SEPT-15 17:16:45]]></name>
    <trkseg>
      <trkpt lat="44.47186" lon="0.93422">
        <ele>86.18</ele>
        <time>2015-09-26T12:10:13Z</time>
      </trkpt>
      <trkpt lat="44.47193" lon="0.93429">
        <ele>67.91</ele>
        <time>2015-09-26T12:10:42Z</time>
      </trkpt>
      <trkpt lat="44.47195" lon="0.93429">
        <ele>69.83</ele>
        <time>2015-09-26T12:11:07Z</time>
      </trkpt>
      <trkpt lat="44.47195" lon="0.93432">
        <ele>70.31</ele>
        <time>2015-09-26T12:11:33Z</time>
      </trkpt>
      <trkpt lat="44.47194" lon="0.93432">
        <ele>67.91</ele>
        <time>2015-09-26T12:12:20Z</time>
      </trkpt>
      <trkpt lat="44.47194" lon="0.9343">
        <ele>67.43</ele>
        <time>2015-09-26T12:13:10Z</time>
      </trkpt>
      <trkpt lat="44.47193" lon="0.93431">
        <ele>67.91</ele>
        <time>2015-09-26T12:13:50Z</time>
      </trkpt>
      <trkpt lat="44.47184" lon="0.93431">
        <ele>67.91</ele>
        <time>2015-09-26T12:13:55Z</time>
      </trkpt>
      <trkpt lat="44.47183" lon="0.93429">
        <ele>68.87</ele>
        <time>2015-09-26T12:14:05Z</time>
      </trkpt>
      <trkpt lat="44.47186" lon="0.9343">
        <ele>68.39</ele>
        <time>2015-09-26T12:14:18Z</time>
      </trkpt>
      <trkpt lat="44.47186" lon="0.9343">
        <ele>68.39</ele>
        <time>2015-09-26T12:14:21Z</time>
      </trkpt>
      <trkpt lat="44.47192" lon="0.93432">
        <ele>68.39</ele>
        <time>2015-09-26T12:14:26Z</time>
      </trkpt>
      <trkpt lat="44.47224" lon="0.93459">
        <ele>69.83</ele>
        <time>2015-09-26T12:14:41Z</time>
      </trkpt>
      <trkpt lat="44.47235" lon="0.93469">
        <ele>69.83</ele>
        <time>2015-09-26T12:14:46Z</time>
      </trkpt>
      <trkpt lat="44.47235" lon="0.93456">
        <ele>69.35</ele>
        <time>2015-09-26T12:14:55Z</time>
      </trkpt>
      <trkpt lat="44.47199" lon="0.93439">
        <ele>69.35</ele>
        <time>2015-09-26T12:15:09Z</time>
      </trkpt>
      <trkpt lat="44.47188" lon="0.93424">
        <ele>69.83</ele>
        <time>2015-09-26T12:15:20Z</time>
      </trkpt>
      <trkpt lat="44.47188" lon="0.93424">
        <ele>69.83</ele>
        <time>2015-09-26T12:15:53Z</time>
      </trkpt>
      <trkpt lat="44.47185" lon="0.93422">
        <ele>69.83</ele>
        <time>2015-09-26T12:15:55Z</time>
      </trkpt>
      <trkpt lat="44.4718" lon="0.93421">
        <ele>69.83</ele>
        <time>2015-09-26T12:15:58Z</time>
      </trkpt>
      <trkpt lat="44.47178" lon="0.93415">
        <ele>69.83</ele>
        <time>2015-09-26T12:16:07Z</time>
      </trkpt>
      <trkpt lat="44.4718" lon="0.93412">
        <ele>70.31</ele>
        <time>2015-09-26T12:16:20Z</time>
      </trkpt>
      <trkpt lat="44.47179" lon="0.93413">
        <ele>71.27</ele>
        <time>2015-09-26T12:16:56Z</time>
      </trkpt>
      <trkpt lat="44.47181" lon="0.93423">
        <ele>71.27</ele>
        <time>2015-09-26T12:17:03Z</time>
      </trkpt>
      <trkpt lat="44.4718" lon="0.93429">
        <ele>70.79</ele>
        <time>2015-09-26T12:17:06Z</time>
      </trkpt>
      <trkpt lat="44.47187" lon="0.9344">
        <ele>69.83</ele>
        <time>2015-09-26T12:17:15Z</time>
      </trkpt>
      <trkpt lat="44.47188" lon="0.93441">
        <ele>69.35</ele>
        <time>2015-09-26T12:17:36Z</time>
      </trkpt>
      <trkpt lat="44.47187" lon="0.93441">
        <ele>69.35</ele>
        <time>2015-09-26T12:17:58Z</time>
      </trkpt>
      <trkpt lat="44.47187" lon="0.93441">
        <ele>68.87</ele>
        <time>2015-09-26T12:18:20Z</time>
      </trkpt>
      <trkpt lat="44.47186" lon="0.93441">
        <ele>69.35</ele>
        <time>2015-09-26T12:18:27Z</time>
      </trkpt>
      <trkpt lat="44.47185" lon="0.93445">
        <ele>69.35</ele>
        <time>2015-09-26T12:18:41Z</time>
      </trkpt>
      <trkpt lat="44.47185" lon="0.93446">
        <ele>69.35</ele>
        <time>2015-09-26T12:18:44Z</time>
      </trkpt>
      <trkpt lat="44.47189" lon="0.93454">
        <ele>68.87</ele>
        <time>2015-09-26T12:18:51Z</time>
      </trkpt>
      <trkpt lat="44.47188" lon="0.93459">
        <ele>69.35</ele>
        <time>2015-09-26T12:18:54Z</time>
      </trkpt>
      <trkpt lat="44.47186" lon="0.93461">
        <ele>69.83</ele>
        <time>2015-09-26T12:18:55Z</time>
      </trkpt>
      <trkpt lat="44.47183" lon="0.93462">
        <ele>69.83</ele>
        <time>2015-09-26T12:18:56Z</time>
      </trkpt>
      <trkpt lat="44.47181" lon="0.93463">
        <ele>69.83</ele>
        <time>2015-09-26T12:18:57Z</time>
      </trkpt>
      <trkpt lat="44.47178" lon="0.93463">
        <ele>69.83</ele>
        <time>2015-09-26T12:18:58Z</time>
      </trkpt>
      <trkpt lat="44.47137" lon="0.93481">
        <ele>69.35</ele>
        <time>2015-09-26T12:19:13Z</time>
      </trkpt>
      <trkpt lat="44.4711" lon="0.93491">
        <ele>69.35</ele>
        <time>2015-09-26T12:19:27Z</time>
      </trkpt>
      <trkpt lat="44.47108" lon="0.9349">
        <ele>69.35</ele>
        <time>2015-09-26T12:19:32Z</time>
      </trkpt>
      <trkpt lat="44.47107" lon="0.93489">
        <ele>69.35</ele>
        <time>2015-09-26T12:19:33Z</time>
      </trkpt>
      <trkpt lat="44.47099" lon="0.93476">
        <ele>68.87</ele>
        <time>2015-09-26T12:19:38Z</time>
      </trkpt>
      <trkpt lat="44.47097" lon="0.93474">
        <ele>69.35</ele>
        <time>2015-09-26T12:19:39Z</time>
      </trkpt>
      <trkpt lat="44.47093" lon="0.93474">
        <ele>69.35</ele>
        <time>2015-09-26T12:19:40Z</time>
      </trkpt>
      <trkpt lat="44.4709" lon="0.93476">
        <ele>69.35</ele>
        <time>2015-09-26T12:19:41Z</time>
      </trkpt>
      <trkpt lat="44.47086" lon="0.93478">
        <ele>68.87</ele>
        <time>2015-09-26T12:19:42Z</time>
      </trkpt>
      <trkpt lat="44.47039" lon="0.93521">
        <ele>69.83</ele>
        <time>2015-09-26T12:19:57Z</time>
      </trkpt>
      <trkpt lat="44.46979" lon="0.93579">
        <ele>69.83</ele>
        <time>2015-09-26T12:20:15Z</time>
      </trkpt>
      <trkpt lat="44.46952" lon="0.93591">
        <ele>70.31</ele>
        <time>2015-09-26T12:20:22Z</time>
      </trkpt>
      <trkpt lat="44.46948" lon="0.93591">
        <ele>70.31</ele>
        <time>2015-09-26T12:20:23Z</time>
      </trkpt>
      <trkpt lat="44.46882" lon="0.93565">
        <ele>70.31</ele>
        <time>2015-09-26T12:20:40Z</time>
      </trkpt>
      <trkpt lat="44.46808" lon="0.93539">
        <ele>70.31</ele>
        <time>2015-09-26T12:21:00Z</time>
      </trkpt>
      <trkpt lat="44.46806" lon="0.93542">
        <ele>70.31</ele>
        <time>2015-09-26T12:21:01Z</time>
      </trkpt>
      <trkpt lat="44.46794" lon="0.93591">
        <ele>74.16</ele>
        <time>2015-09-26T12:21:12Z</time>
      </trkpt>
      <trkpt lat="44.46795" lon="0.93594">
        <ele>74.16</ele>
        <time>2015-09-26T12:21:13Z</time>
      </trkpt>
      <trkpt lat="44.46798" lon="0.93596">
        <ele>74.16</ele>
        <time>2015-09-26T12:21:14Z</time>
      </trkpt>
      <trkpt lat="44.46801" lon="0.93597">
        <ele>73.68</ele>
        <time>2015-09-26T12:21:15Z</time>
      </trkpt>
      <trkpt lat="44.46805" lon="0.93598">
        <ele>73.68</ele>
        <time>2015-09-26T12:21:16Z</time>
      </trkpt>
      <trkpt lat="44.46809" lon="0.936">
        <ele>73.68</ele>
        <time>2015-09-26T12:21:17Z</time>
      </trkpt>
      <trkpt lat="44.46846" lon="0.93615">
        <ele>75.6</ele>
        <time>2015-09-26T12:21:30Z</time>
      </trkpt>
      <trkpt lat="44.46858" lon="0.93624">
        <ele>77.04</ele>
        <time>2015-09-26T12:21:42Z</time>
      </trkpt>
      <trkpt lat="44.46858" lon="0.93624">
        <ele>77.04</ele>
        <time>2015-09-26T12:21:46Z</time>
      </trkpt>
      <trkpt lat="44.46858" lon="0.93627">
        <ele>77.04</ele>
        <time>2015-09-26T12:21:47Z</time>
      </trkpt>
      <trkpt lat="44.46846" lon="0.93674">
        <ele>78.48</ele>
        <time>2015-09-26T12:21:58Z</time>
      </trkpt>
      <trkpt lat="44.46821" lon="0.93751">
        <ele>79.93</ele>
        <time>2015-09-26T12:22:15Z</time>
      </trkpt>
      <trkpt lat="44.46805" lon="0.938">
        <ele>81.37</ele>
        <time>2015-09-26T12:22:25Z</time>
      </trkpt>
      <trkpt lat="44.46765" lon="0.93919">
        <ele>81.85</ele>
        <time>2015-09-26T12:22:47Z</time>
      </trkpt>
      <trkpt lat="44.46752" lon="0.93955">
        <ele>81.85</ele>
        <time>2015-09-26T12:22:54Z</time>
      </trkpt>
      <trkpt lat="44.4675" lon="0.9396">
        <ele>81.37</ele>
        <time>2015-09-26T12:22:55Z</time>
      </trkpt>
      <trkpt lat="44.46731" lon="0.94021">
        <ele>81.37</ele>
        <time>2015-09-26T12:23:07Z</time>
      </trkpt>
      <trkpt lat="44.46728" lon="0.94023">
        <ele>81.37</ele>
        <time>2015-09-26T12:23:08Z</time>
      </trkpt>
      <trkpt lat="44.46725" lon="0.94025">
        <ele>81.37</ele>
        <time>2015-09-26T12:23:09Z</time>
      </trkpt>
      <trkpt lat="44.46721" lon="0.94026">
        <ele>81.37</ele>
        <time>2015-09-26T12:23:10Z</time>
      </trkpt>
      <trkpt lat="44.46718" lon="0.94026">
        <ele>81.37</ele>
        <time>2015-09-26T12:23:11Z</time>
      </trkpt>
      <trkpt lat="44.46714" lon="0.94025">
        <ele>81.37</ele>
        <time>2015-09-26T12:23:12Z</time>
      </trkpt>
      <trkpt lat="44.46652" lon="0.94003">
        <ele>80.41</ele>
        <time>2015-09-26T12:23:28Z</time>
      </trkpt>
      <trkpt lat="44.46644" lon="0.94">
        <ele>80.41</ele>
        <time>2015-09-26T12:23:30Z</time>
      </trkpt>
      <trkpt lat="44.46627" lon="0.93997">
        <ele>79.93</ele>
        <time>2015-09-26T12:23:34Z</time>
      </trkpt>
      <trkpt lat="44.46623" lon="0.93998">
        <ele>79.93</ele>
        <time>2015-09-26T12:23:35Z</time>
      </trkpt>
      <trkpt lat="44.46619" lon="0.93999">
        <ele>79.93</ele>
        <time>2015-09-26T12:23:36Z</time>
      </trkpt>
      <trkpt lat="44.46557" lon="0.94028">
        <ele>79.45</ele>
        <time>2015-09-26T12:23:52Z</time>
      </trkpt>
      <trkpt lat="44.46517" lon="0.94048">
        <ele>78.97</ele>
        <time>2015-09-26T12:24:02Z</time>
      </trkpt>
      <trkpt lat="44.46462" lon="0.94104">
        <ele>79.45</ele>
        <time>2015-09-26T12:24:18Z</time>
      </trkpt>
      <trkpt lat="44.46406" lon="0.94165">
        <ele>79.45</ele>
        <time>2015-09-26T12:24:36Z</time>
      </trkpt>
      <trkpt lat="44.46354" lon="0.94223">
        <ele>79.45</ele>
        <time>2015-09-26T12:24:53Z</time>
      </trkpt>
      <trkpt lat="44.46341" lon="0.94237">
        <ele>79.93</ele>
        <time>2015-09-26T12:24:57Z</time>
      </trkpt>
      <trkpt lat="44.46338" lon="0.9424">
        <ele>79.93</ele>
        <time>2015-09-26T12:24:58Z</time>
      </trkpt>
      <trkpt lat="44.46284" lon="0.94297">
        <ele>80.41</ele>
        <time>2015-09-26T12:25:15Z</time>
      </trkpt>
      <trkpt lat="44.46234" lon="0.94352">
        <ele>81.37</ele>
        <time>2015-09-26T12:25:31Z</time>
      </trkpt>
      <trkpt lat="44.46227" lon="0.94362">
        <ele>81.37</ele>
        <time>2015-09-26T12:25:34Z</time>
      </trkpt>
      <trkpt lat="44.46226" lon="0.94367">
        <ele>81.85</ele>
        <time>2015-09-26T12:25:35Z</time>
      </trkpt>
      <trkpt lat="44.46225" lon="0.94371">
        <ele>81.85</ele>
        <time>2015-09-26T12:25:36Z</time>
      </trkpt>
      <trkpt lat="44.46224" lon="0.94376">
        <ele>81.85</ele>
        <time>2015-09-26T12:25:37Z</time>
      </trkpt>
      <trkpt lat="44.46223" lon="0.94381">
        <ele>81.85</ele>
        <time>2015-09-26T12:25:38Z</time>
      </trkpt>
      <trkpt lat="44.46222" lon="0.94385">
        <ele>82.33</ele>
        <time>2015-09-26T12:25:39Z</time>
      </trkpt>
      <trkpt lat="44.4622" lon="0.9439">
        <ele>82.33</ele>
        <time>2015-09-26T12:25:40Z</time>
      </trkpt>
      <trkpt lat="44.46219" lon="0.94394">
        <ele>82.33</ele>
        <time>2015-09-26T12:25:41Z</time>
      </trkpt>
      <trkpt lat="44.46197" lon="0.94451">
        <ele>84.25</ele>
        <time>2015-09-26T12:25:54Z</time>
      </trkpt>
      <trkpt lat="44.46205" lon="0.94467">
        <ele>84.73</ele>
        <time>2015-09-26T12:25:58Z</time>
      </trkpt>
      <trkpt lat="44.46257" lon="0.94536">
        <ele>84.73</ele>
        <time>2015-09-26T12:26:17Z</time>
      </trkpt>
      <trkpt lat="44.463" lon="0.94594">
        <ele>84.73</ele>
        <time>2015-09-26T12:26:33Z</time>
      </trkpt>
      <trkpt lat="44.46342" lon="0.94649">
        <ele>85.69</ele>
        <time>2015-09-26T12:26:48Z</time>
      </trkpt>
      <trkpt lat="44.46375" lon="0.94694">
        <ele>88.58</ele>
        <time>2015-09-26T12:27:02Z</time>
      </trkpt>
      <trkpt lat="44.46381" lon="0.94706">
        <ele>88.1</ele>
        <time>2015-09-26T12:27:09Z</time>
      </trkpt>
      <trkpt lat="44.46379" lon="0.94712">
        <ele>88.58</ele>
        <time>2015-09-26T12:27:12Z</time>
      </trkpt>
      <trkpt lat="44.46378" lon="0.94715">
        <ele>88.58</ele>
        <time>2015-09-26T12:27:13Z</time>
      </trkpt>
      <trkpt lat="44.46376" lon="0.94717">
        <ele>88.58</ele>
        <time>2015-09-26T12:27:14Z</time>
      </trkpt>
      <trkpt lat="44.46374" lon="0.94719">
        <ele>88.58</ele>
        <time>2015-09-26T12:27:15Z</time>
      </trkpt>
      <trkpt lat="44.46349" lon="0.94767">
        <ele>90.5</ele>
        <time>2015-09-26T12:27:27Z</time>
      </trkpt>
      <trkpt lat="44.46326" lon="0.94818">
        <ele>90.98</ele>
        <time>2015-09-26T12:27:38Z</time>
      </trkpt>
      <trkpt lat="44.46322" lon="0.94828">
        <ele>90.5</ele>
        <time>2015-09-26T12:27:40Z</time>
      </trkpt>
      <trkpt lat="44.4632" lon="0.94833">
        <ele>90.5</ele>
        <time>2015-09-26T12:27:41Z</time>
      </trkpt>
      <trkpt lat="44.46284" lon="0.94931">
        <ele>86.66</ele>
        <time>2015-09-26T12:27:54Z</time>
      </trkpt>
      <trkpt lat="44.46247" lon="0.95028">
        <ele>86.18</ele>
        <time>2015-09-26T12:28:07Z</time>
      </trkpt>
      <trkpt lat="44.46198" lon="0.95076">
        <ele>87.14</ele>
        <time>2015-09-26T12:28:19Z</time>
      </trkpt>
      <trkpt lat="44.46176" lon="0.95088">
        <ele>87.14</ele>
        <time>2015-09-26T12:28:24Z</time>
      </trkpt>
      <trkpt lat="44.46109" lon="0.95125">
        <ele>86.66</ele>
        <time>2015-09-26T12:28:40Z</time>
      </trkpt>
      <trkpt lat="44.46069" lon="0.95166">
        <ele>87.62</ele>
        <time>2015-09-26T12:28:51Z</time>
      </trkpt>
      <trkpt lat="44.46066" lon="0.9517">
        <ele>87.62</ele>
        <time>2015-09-26T12:28:52Z</time>
      </trkpt>
      <trkpt lat="44.46062" lon="0.95174">
        <ele>88.1</ele>
        <time>2015-09-26T12:28:53Z</time>
      </trkpt>
      <trkpt lat="44.46016" lon="0.95228">
        <ele>88.1</ele>
        <time>2015-09-26T12:29:06Z</time>
      </trkpt>
      <trkpt lat="44.46012" lon="0.95233">
        <ele>88.1</ele>
        <time>2015-09-26T12:29:07Z</time>
      </trkpt>
      <trkpt lat="44.46009" lon="0.95238">
        <ele>88.1</ele>
        <time>2015-09-26T12:29:08Z</time>
      </trkpt>
      <trkpt lat="44.46005" lon="0.95242">
        <ele>88.1</ele>
        <time>2015-09-26T12:29:09Z</time>
      </trkpt>
      <trkpt lat="44.45998" lon="0.95248">
        <ele>88.58</ele>
        <time>2015-09-26T12:29:11Z</time>
      </trkpt>
      <trkpt lat="44.45942" lon="0.95295">
        <ele>89.06</ele>
        <time>2015-09-26T12:29:26Z</time>
      </trkpt>
      <trkpt lat="44.45934" lon="0.95299">
        <ele>89.54</ele>
        <time>2015-09-26T12:29:28Z</time>
      </trkpt>
      <trkpt lat="44.45913" lon="0.95295">
        <ele>89.06</ele>
        <time>2015-09-26T12:29:33Z</time>
      </trkpt>
      <trkpt lat="44.45893" lon="0.95291">
        <ele>90.02</ele>
        <time>2015-09-26T12:29:38Z</time>
      </trkpt>
      <trkpt lat="44.45852" lon="0.95317">
        <ele>91.94</ele>
        <time>2015-09-26T12:29:49Z</time>
      </trkpt>
      <trkpt lat="44.4583" lon="0.95332">
        <ele>92.9</ele>
        <time>2015-09-26T12:29:55Z</time>
      </trkpt>
      <trkpt lat="44.45752" lon="0.95385">
        <ele>94.83</ele>
        <time>2015-09-26T12:30:15Z</time>
      </trkpt>
      <trkpt lat="44.45728" lon="0.95401">
        <ele>95.79</ele>
        <time>2015-09-26T12:30:21Z</time>
      </trkpt>
      <trkpt lat="44.45721" lon="0.95408">
        <ele>95.79</ele>
        <time>2015-09-26T12:30:23Z</time>
      </trkpt>
      <trkpt lat="44.45709" lon="0.95415">
        <ele>95.79</ele>
        <time>2015-09-26T12:30:26Z</time>
      </trkpt>
      <trkpt lat="44.45698" lon="0.95423">
        <ele>95.31</ele>
        <time>2015-09-26T12:30:29Z</time>
      </trkpt>
      <trkpt lat="44.45638" lon="0.95473">
        <ele>96.75</ele>
        <time>2015-09-26T12:30:46Z</time>
      </trkpt>
      <trkpt lat="44.45634" lon="0.95477">
        <ele>96.75</ele>
        <time>2015-09-26T12:30:47Z</time>
      </trkpt>
      <trkpt lat="44.45593" lon="0.95515">
        <ele>97.71</ele>
        <time>2015-09-26T12:30:58Z</time>
      </trkpt>
      <trkpt lat="44.45567" lon="0.9554">
        <ele>97.71</ele>
        <time>2015-09-26T12:31:05Z</time>
      </trkpt>
      <trkpt lat="44.45532" lon="0.95583">
        <ele>98.67</ele>
        <time>2015-09-26T12:31:15Z</time>
      </trkpt>
      <trkpt lat="44.45529" lon="0.95587">
        <ele>98.67</ele>
        <time>2015-09-26T12:31:16Z</time>
      </trkpt>
      <trkpt lat="44.45466" lon="0.95676">
        <ele>100.11</ele>
        <time>2015-09-26T12:31:35Z</time>
      </trkpt>
      <trkpt lat="44.4543" lon="0.95744">
        <ele>99.15</ele>
        <time>2015-09-26T12:31:48Z</time>
      </trkpt>
      <trkpt lat="44.45412" lon="0.95774">
        <ele>99.63</ele>
        <time>2015-09-26T12:31:54Z</time>
      </trkpt>
      <trkpt lat="44.45406" lon="0.95784">
        <ele>99.15</ele>
        <time>2015-09-26T12:31:56Z</time>
      </trkpt>
      <trkpt lat="44.45401" lon="0.95794">
        <ele>99.15</ele>
        <time>2015-09-26T12:31:58Z</time>
      </trkpt>
      <trkpt lat="44.45382" lon="0.95825">
        <ele>99.15</ele>
        <time>2015-09-26T12:32:09Z</time>
      </trkpt>
      <trkpt lat="44.45379" lon="0.9583">
        <ele>98.67</ele>
        <time>2015-09-26T12:32:25Z</time>
      </trkpt>
      <trkpt lat="44.45379" lon="0.95829">
        <ele>98.67</ele>
        <time>2015-09-26T12:32:44Z</time>
      </trkpt>
      <trkpt lat="44.45378" lon="0.95831">
        <ele>98.67</ele>
        <time>2015-09-26T12:32:59Z</time>
      </trkpt>
      <trkpt lat="44.45377" lon="0.95833">
        <ele>98.19</ele>
        <time>2015-09-26T12:33:00Z</time>
      </trkpt>
      <trkpt lat="44.45378" lon="0.95841">
        <ele>97.71</ele>
        <time>2015-09-26T12:33:02Z</time>
      </trkpt>
      <trkpt lat="44.45379" lon="0.95847">
        <ele>97.71</ele>
        <time>2015-09-26T12:33:03Z</time>
      </trkpt>
      <trkpt lat="44.45391" lon="0.95878">
        <ele>96.27</ele>
        <time>2015-09-26T12:33:08Z</time>
      </trkpt>
      <trkpt lat="44.45391" lon="0.95884">
        <ele>95.79</ele>
        <time>2015-09-26T12:33:09Z</time>
      </trkpt>
      <trkpt lat="44.4539" lon="0.9589">
        <ele>95.79</ele>
        <time>2015-09-26T12:33:10Z</time>
      </trkpt>
      <trkpt lat="44.45388" lon="0.95895">
        <ele>95.79</ele>
        <time>2015-09-26T12:33:11Z</time>
      </trkpt>
      <trkpt lat="44.45385" lon="0.95899">
        <ele>96.27</ele>
        <time>2015-09-26T12:33:12Z</time>
      </trkpt>
      <trkpt lat="44.45371" lon="0.95923">
        <ele>96.75</ele>
        <time>2015-09-26T12:33:17Z</time>
      </trkpt>
      <trkpt lat="44.45359" lon="0.9594">
        <ele>97.23</ele>
        <time>2015-09-26T12:33:21Z</time>
      </trkpt>
      <trkpt lat="44.45355" lon="0.95943">
        <ele>97.23</ele>
        <time>2015-09-26T12:33:22Z</time>
      </trkpt>
      <trkpt lat="44.45351" lon="0.95946">
        <ele>97.23</ele>
        <time>2015-09-26T12:33:23Z</time>
      </trkpt>
      <trkpt lat="44.45329" lon="0.95957">
        <ele>97.71</ele>
        <time>2015-09-26T12:33:28Z</time>
      </trkpt>
      <trkpt lat="44.45304" lon="0.95967">
        <ele>98.67</ele>
        <time>2015-09-26T12:33:34Z</time>
      </trkpt>
      <trkpt lat="44.453" lon="0.95968">
        <ele>98.67</ele>
        <time>2015-09-26T12:33:35Z</time>
      </trkpt>
      <trkpt lat="44.45255" lon="0.95994">
        <ele>100.11</ele>
        <time>2015-09-26T12:33:46Z</time>
      </trkpt>
      <trkpt lat="44.45205" lon="0.9604">
        <ele>103</ele>
        <time>2015-09-26T12:34:00Z</time>
      </trkpt>
      <trkpt lat="44.45202" lon="0.96044">
        <ele>103</ele>
        <time>2015-09-26T12:34:01Z</time>
      </trkpt>
      <trkpt lat="44.45127" lon="0.96115">
        <ele>104.92</ele>
        <time>2015-09-26T12:34:21Z</time>
      </trkpt>
      <trkpt lat="44.45064" lon="0.96183">
        <ele>108.77</ele>
        <time>2015-09-26T12:34:38Z</time>
      </trkpt>
      <trkpt lat="44.45023" lon="0.96225">
        <ele>109.73</ele>
        <time>2015-09-26T12:34:48Z</time>
      </trkpt>
      <trkpt lat="44.44978" lon="0.96298">
        <ele>104.92</ele>
        <time>2015-09-26T12:34:58Z</time>
      </trkpt>
      <trkpt lat="44.44974" lon="0.96309">
        <ele>104.44</ele>
        <time>2015-09-26T12:34:59Z</time>
      </trkpt>
      <trkpt lat="44.44959" lon="0.96353">
        <ele>102.52</ele>
        <time>2015-09-26T12:35:03Z</time>
      </trkpt>
      <trkpt lat="44.44941" lon="0.96413">
        <ele>103.48</ele>
        <time>2015-09-26T12:35:12Z</time>
      </trkpt>
      <trkpt lat="44.44941" lon="0.96415">
        <ele>103.96</ele>
        <time>2015-09-26T12:35:20Z</time>
      </trkpt>
      <trkpt lat="44.44941" lon="0.96418">
        <ele>103.96</ele>
        <time>2015-09-26T12:35:21Z</time>
      </trkpt>
      <trkpt lat="44.44942" lon="0.96421">
        <ele>103.48</ele>
        <time>2015-09-26T12:35:22Z</time>
      </trkpt>
      <trkpt lat="44.44944" lon="0.96425">
        <ele>103</ele>
        <time>2015-09-26T12:35:23Z</time>
      </trkpt>
      <trkpt lat="44.44948" lon="0.96429">
        <ele>102.52</ele>
        <time>2015-09-26T12:35:24Z</time>
      </trkpt>
      <trkpt lat="44.44951" lon="0.96433">
        <ele>102.04</ele>
        <time>2015-09-26T12:35:25Z</time>
      </trkpt>
      <trkpt lat="44.45014" lon="0.96501">
        <ele>98.19</ele>
        <time>2015-09-26T12:35:37Z</time>
      </trkpt>
      <trkpt lat="44.45018" lon="0.96506">
        <ele>98.19</ele>
        <time>2015-09-26T12:35:38Z</time>
      </trkpt>
      <trkpt lat="44.45021" lon="0.96511">
        <ele>97.71</ele>
        <time>2015-09-26T12:35:39Z</time>
      </trkpt>
      <trkpt lat="44.45023" lon="0.96516">
        <ele>98.19</ele>
        <time>2015-09-26T12:35:40Z</time>
      </trkpt>
      <trkpt lat="44.45024" lon="0.9652">
        <ele>97.71</ele>
        <time>2015-09-26T12:35:41Z</time>
      </trkpt>
      <trkpt lat="44.45026" lon="0.96524">
        <ele>97.71</ele>
        <time>2015-09-26T12:35:42Z</time>
      </trkpt>
      <trkpt lat="44.45028" lon="0.96528">
        <ele>98.19</ele>
        <time>2015-09-26T12:35:52Z</time>
      </trkpt>
      <trkpt lat="44.45032" lon="0.96533">
        <ele>97.71</ele>
        <time>2015-09-26T12:35:54Z</time>
      </trkpt>
      <trkpt lat="44.45035" lon="0.96535">
        <ele>97.71</ele>
        <time>2015-09-26T12:35:55Z</time>
      </trkpt>
      <trkpt lat="44.45039" lon="0.96537">
        <ele>97.71</ele>
        <time>2015-09-26T12:35:56Z</time>
      </trkpt>
      <trkpt lat="44.45043" lon="0.96539">
        <ele>97.71</ele>
        <time>2015-09-26T12:35:57Z</time>
      </trkpt>
      <trkpt lat="44.45048" lon="0.96539">
        <ele>97.71</ele>
        <time>2015-09-26T12:35:58Z</time>
      </trkpt>
      <trkpt lat="44.45053" lon="0.96539">
        <ele>98.19</ele>
        <time>2015-09-26T12:35:59Z</time>
      </trkpt>
      <trkpt lat="44.45121" lon="0.96533">
        <ele>100.6</ele>
        <time>2015-09-26T12:36:13Z</time>
      </trkpt>
      <trkpt lat="44.45125" lon="0.96535">
        <ele>100.11</ele>
        <time>2015-09-26T12:36:14Z</time>
      </trkpt>
      <trkpt lat="44.45127" lon="0.96539">
        <ele>100.11</ele>
        <time>2015-09-26T12:36:15Z</time>
      </trkpt>
      <trkpt lat="44.45126" lon="0.96544">
        <ele>99.63</ele>
        <time>2015-09-26T12:36:16Z</time>
      </trkpt>
      <trkpt lat="44.45123" lon="0.96549">
        <ele>99.63</ele>
        <time>2015-09-26T12:36:17Z</time>
      </trkpt>
      <trkpt lat="44.451" lon="0.9661">
        <ele>99.15</ele>
        <time>2015-09-26T12:36:29Z</time>
      </trkpt>
      <trkpt lat="44.45067" lon="0.96697">
        <ele>101.56</ele>
        <time>2015-09-26T12:36:45Z</time>
      </trkpt>
      <trkpt lat="44.45055" lon="0.96721">
        <ele>102.52</ele>
        <time>2015-09-26T12:36:49Z</time>
      </trkpt>
      <trkpt lat="44.45052" lon="0.96727">
        <ele>102.52</ele>
        <time>2015-09-26T12:36:50Z</time>
      </trkpt>
      <trkpt lat="44.45049" lon="0.96732">
        <ele>102.52</ele>
        <time>2015-09-26T12:36:51Z</time>
      </trkpt>
      <trkpt lat="44.45023" lon="0.96784">
        <ele>104.44</ele>
        <time>2015-09-26T12:37:00Z</time>
      </trkpt>
      <trkpt lat="44.4502" lon="0.9679">
        <ele>104.92</ele>
        <time>2015-09-26T12:37:01Z</time>
      </trkpt>
      <trkpt lat="44.45017" lon="0.96795">
        <ele>105.4</ele>
        <time>2015-09-26T12:37:02Z</time>
      </trkpt>
      <trkpt lat="44.44973" lon="0.96882">
        <ele>108.77</ele>
        <time>2015-09-26T12:37:18Z</time>
      </trkpt>
      <trkpt lat="44.44965" lon="0.96898">
        <ele>108.77</ele>
        <time>2015-09-26T12:37:21Z</time>
      </trkpt>
      <trkpt lat="44.44919" lon="0.96988">
        <ele>108.29</ele>
        <time>2015-09-26T12:37:38Z</time>
      </trkpt>
      <trkpt lat="44.44878" lon="0.97065">
        <ele>109.73</ele>
        <time>2015-09-26T12:37:53Z</time>
      </trkpt>
      <trkpt lat="44.44822" lon="0.97167">
        <ele>111.17</ele>
        <time>2015-09-26T12:38:12Z</time>
      </trkpt>
      <trkpt lat="44.44795" lon="0.97216">
        <ele>111.65</ele>
        <time>2015-09-26T12:38:21Z</time>
      </trkpt>
      <trkpt lat="44.44734" lon="0.9731">
        <ele>111.17</ele>
        <time>2015-09-26T12:38:38Z</time>
      </trkpt>
      <trkpt lat="44.44672" lon="0.97411">
        <ele>108.29</ele>
        <time>2015-09-26T12:38:53Z</time>
      </trkpt>
      <trkpt lat="44.44669" lon="0.97419">
        <ele>107.81</ele>
        <time>2015-09-26T12:38:54Z</time>
      </trkpt>
      <trkpt lat="44.44636" lon="0.97536">
        <ele>107.32</ele>
        <time>2015-09-26T12:39:09Z</time>
      </trkpt>
      <trkpt lat="44.44623" lon="0.97582">
        <ele>107.32</ele>
        <time>2015-09-26T12:39:16Z</time>
      </trkpt>
      <trkpt lat="44.44603" lon="0.97701">
        <ele>110.69</ele>
        <time>2015-09-26T12:39:34Z</time>
      </trkpt>
      <trkpt lat="44.44592" lon="0.97802">
        <ele>112.61</ele>
        <time>2015-09-26T12:39:49Z</time>
      </trkpt>
      <trkpt lat="44.44583" lon="0.97903">
        <ele>111.17</ele>
        <time>2015-09-26T12:40:03Z</time>
      </trkpt>
      <trkpt lat="44.44582" lon="0.97911">
        <ele>110.69</ele>
        <time>2015-09-26T12:40:04Z</time>
      </trkpt>
      <trkpt lat="44.4458" lon="0.9792">
        <ele>110.69</ele>
        <time>2015-09-26T12:40:05Z</time>
      </trkpt>
      <trkpt lat="44.44577" lon="0.97927">
        <ele>110.69</ele>
        <time>2015-09-26T12:40:06Z</time>
      </trkpt>
      <trkpt lat="44.44575" lon="0.97934">
        <ele>110.69</ele>
        <time>2015-09-26T12:40:07Z</time>
      </trkpt>
      <trkpt lat="44.44572" lon="0.97941">
        <ele>110.21</ele>
        <time>2015-09-26T12:40:08Z</time>
      </trkpt>
      <trkpt lat="44.4455" lon="0.97985">
        <ele>110.21</ele>
        <time>2015-09-26T12:40:15Z</time>
      </trkpt>
      <trkpt lat="44.4454" lon="0.98013">
        <ele>109.73</ele>
        <time>2015-09-26T12:40:19Z</time>
      </trkpt>
      <trkpt lat="44.44516" lon="0.98123">
        <ele>110.21</ele>
        <time>2015-09-26T12:40:34Z</time>
      </trkpt>
      <trkpt lat="44.4449" lon="0.98243">
        <ele>110.21</ele>
        <time>2015-09-26T12:40:51Z</time>
      </trkpt>
      <trkpt lat="44.44487" lon="0.98257">
        <ele>110.21</ele>
        <time>2015-09-26T12:40:53Z</time>
      </trkpt>
      <trkpt lat="44.44486" lon="0.98264">
        <ele>110.21</ele>
        <time>2015-09-26T12:40:54Z</time>
      </trkpt>
      <trkpt lat="44.44472" lon="0.98375">
        <ele>110.21</ele>
        <time>2015-09-26T12:41:10Z</time>
      </trkpt>
      <trkpt lat="44.44472" lon="0.98404">
        <ele>110.21</ele>
        <time>2015-09-26T12:41:14Z</time>
      </trkpt>
      <trkpt lat="44.44473" lon="0.98526">
        <ele>111.17</ele>
        <time>2015-09-26T12:41:31Z</time>
      </trkpt>
      <trkpt lat="44.44483" lon="0.98611">
        <ele>111.65</ele>
        <time>2015-09-26T12:41:43Z</time>
      </trkpt>
      <trkpt lat="44.44505" lon="0.98708">
        <ele>112.61</ele>
        <time>2015-09-26T12:41:58Z</time>
      </trkpt>
      <trkpt lat="44.44508" lon="0.98719">
        <ele>113.09</ele>
        <time>2015-09-26T12:42:00Z</time>
      </trkpt>
      <trkpt lat="44.44508" lon="0.98725">
        <ele>113.09</ele>
        <time>2015-09-26T12:42:01Z</time>
      </trkpt>
      <trkpt lat="44.44505" lon="0.9873">
        <ele>112.61</ele>
        <time>2015-09-26T12:42:02Z</time>
      </trkpt>
      <trkpt lat="44.44501" lon="0.98732">
        <ele>112.61</ele>
        <time>2015-09-26T12:42:03Z</time>
      </trkpt>
      <trkpt lat="44.44497" lon="0.98732">
        <ele>112.13</ele>
        <time>2015-09-26T12:42:04Z</time>
      </trkpt>
      <trkpt lat="44.44492" lon="0.9873">
        <ele>112.13</ele>
        <time>2015-09-26T12:42:05Z</time>
      </trkpt>
      <trkpt lat="44.44487" lon="0.98729">
        <ele>111.65</ele>
        <time>2015-09-26T12:42:06Z</time>
      </trkpt>
      <trkpt lat="44.44483" lon="0.98727">
        <ele>111.65</ele>
        <time>2015-09-26T12:42:07Z</time>
      </trkpt>
      <trkpt lat="44.44468" lon="0.98724">
        <ele>111.65</ele>
        <time>2015-09-26T12:42:10Z</time>
      </trkpt>
      <trkpt lat="44.44422" lon="0.98725">
        <ele>111.65</ele>
        <time>2015-09-26T12:42:20Z</time>
      </trkpt>
      <trkpt lat="44.44413" lon="0.98727">
        <ele>112.13</ele>
        <time>2015-09-26T12:42:22Z</time>
      </trkpt>
      <trkpt lat="44.44409" lon="0.98728">
        <ele>112.61</ele>
        <time>2015-09-26T12:42:23Z</time>
      </trkpt>
      <trkpt lat="44.44404" lon="0.98728">
        <ele>112.61</ele>
        <time>2015-09-26T12:42:24Z</time>
      </trkpt>
      <trkpt lat="44.44345" lon="0.98732">
        <ele>116.94</ele>
        <time>2015-09-26T12:42:38Z</time>
      </trkpt>
      <trkpt lat="44.44336" lon="0.98735">
        <ele>117.42</ele>
        <time>2015-09-26T12:42:40Z</time>
      </trkpt>
      <trkpt lat="44.44332" lon="0.98739">
        <ele>117.9</ele>
        <time>2015-09-26T12:42:41Z</time>
      </trkpt>
      <trkpt lat="44.4433" lon="0.98743">
        <ele>118.38</ele>
        <time>2015-09-26T12:42:42Z</time>
      </trkpt>
      <trkpt lat="44.44328" lon="0.98748">
        <ele>118.86</ele>
        <time>2015-09-26T12:42:43Z</time>
      </trkpt>
      <trkpt lat="44.44327" lon="0.98754">
        <ele>118.86</ele>
        <time>2015-09-26T12:42:44Z</time>
      </trkpt>
      <trkpt lat="44.44326" lon="0.98759">
        <ele>119.34</ele>
        <time>2015-09-26T12:42:45Z</time>
      </trkpt>
      <trkpt lat="44.44324" lon="0.9877">
        <ele>119.82</ele>
        <time>2015-09-26T12:42:47Z</time>
      </trkpt>
      <trkpt lat="44.44313" lon="0.98842">
        <ele>122.71</ele>
        <time>2015-09-26T12:43:00Z</time>
      </trkpt>
      <trkpt lat="44.44311" lon="0.98854">
        <ele>122.71</ele>
        <time>2015-09-26T12:43:02Z</time>
      </trkpt>
      <trkpt lat="44.4431" lon="0.98865">
        <ele>123.19</ele>
        <time>2015-09-26T12:43:04Z</time>
      </trkpt>
      <trkpt lat="44.44297" lon="0.98977">
        <ele>126.07</ele>
        <time>2015-09-26T12:43:23Z</time>
      </trkpt>
      <trkpt lat="44.44293" lon="0.99008">
        <ele>126.07</ele>
        <time>2015-09-26T12:43:28Z</time>
      </trkpt>
      <trkpt lat="44.44289" lon="0.99035">
        <ele>126.55</ele>
        <time>2015-09-26T12:43:33Z</time>
      </trkpt>
      <trkpt lat="44.44285" lon="0.99068">
        <ele>128.95</ele>
        <time>2015-09-26T12:43:40Z</time>
      </trkpt>
      <trkpt lat="44.44288" lon="0.99073">
        <ele>128.47</ele>
        <time>2015-09-26T12:43:41Z</time>
      </trkpt>
      <trkpt lat="44.44299" lon="0.99095">
        <ele>126.55</ele>
        <time>2015-09-26T12:43:44Z</time>
      </trkpt>
      <trkpt lat="44.4436" lon="0.99197">
        <ele>120.3</ele>
        <time>2015-09-26T12:43:55Z</time>
      </trkpt>
      <trkpt lat="44.44419" lon="0.99293">
        <ele>118.38</ele>
        <time>2015-09-26T12:44:07Z</time>
      </trkpt>
      <trkpt lat="44.44433" lon="0.99314">
        <ele>118.86</ele>
        <time>2015-09-26T12:44:11Z</time>
      </trkpt>
      <trkpt lat="44.44434" lon="0.99318">
        <ele>118.86</ele>
        <time>2015-09-26T12:44:12Z</time>
      </trkpt>
      <trkpt lat="44.44434" lon="0.99321">
        <ele>119.34</ele>
        <time>2015-09-26T12:44:21Z</time>
      </trkpt>
      <trkpt lat="44.44434" lon="0.99322">
        <ele>118.86</ele>
        <time>2015-09-26T12:44:41Z</time>
      </trkpt>
      <trkpt lat="44.44433" lon="0.99324">
        <ele>118.86</ele>
        <time>2015-09-26T12:44:42Z</time>
      </trkpt>
      <trkpt lat="44.44431" lon="0.99325">
        <ele>118.86</ele>
        <time>2015-09-26T12:44:43Z</time>
      </trkpt>
      <trkpt lat="44.44429" lon="0.99327">
        <ele>119.34</ele>
        <time>2015-09-26T12:44:44Z</time>
      </trkpt>
      <trkpt lat="44.44427" lon="0.99329">
        <ele>119.34</ele>
        <time>2015-09-26T12:44:45Z</time>
      </trkpt>
      <trkpt lat="44.44401" lon="0.99358">
        <ele>119.82</ele>
        <time>2015-09-26T12:44:55Z</time>
      </trkpt>
      <trkpt lat="44.44354" lon="0.99414">
        <ele>120.78</ele>
        <time>2015-09-26T12:45:10Z</time>
      </trkpt>
      <trkpt lat="44.44351" lon="0.99417">
        <ele>120.78</ele>
        <time>2015-09-26T12:45:11Z</time>
      </trkpt>
      <trkpt lat="44.44328" lon="0.99445">
        <ele>121.74</ele>
        <time>2015-09-26T12:45:18Z</time>
      </trkpt>
      <trkpt lat="44.44268" lon="0.99513">
        <ele>122.71</ele>
        <time>2015-09-26T12:45:36Z</time>
      </trkpt>
      <trkpt lat="44.44242" lon="0.9954">
        <ele>123.19</ele>
        <time>2015-09-26T12:45:44Z</time>
      </trkpt>
      <trkpt lat="44.44239" lon="0.99543">
        <ele>123.19</ele>
        <time>2015-09-26T12:45:45Z</time>
      </trkpt>
      <trkpt lat="44.44234" lon="0.99547">
        <ele>123.19</ele>
        <time>2015-09-26T12:45:46Z</time>
      </trkpt>
      <trkpt lat="44.4423" lon="0.99549">
        <ele>122.71</ele>
        <time>2015-09-26T12:45:47Z</time>
      </trkpt>
      <trkpt lat="44.44225" lon="0.99551">
        <ele>122.71</ele>
        <time>2015-09-26T12:45:48Z</time>
      </trkpt>
      <trkpt lat="44.4422" lon="0.99552">
        <ele>122.71</ele>
        <time>2015-09-26T12:45:49Z</time>
      </trkpt>
      <trkpt lat="44.44215" lon="0.99552">
        <ele>122.71</ele>
        <time>2015-09-26T12:45:50Z</time>
      </trkpt>
      <trkpt lat="44.44151" lon="0.99559">
        <ele>121.74</ele>
        <time>2015-09-26T12:46:05Z</time>
      </trkpt>
      <trkpt lat="44.44146" lon="0.99557">
        <ele>121.74</ele>
        <time>2015-09-26T12:46:14Z</time>
      </trkpt>
      <trkpt lat="44.44136" lon="0.99555">
        <ele>121.26</ele>
        <time>2015-09-26T12:46:22Z</time>
      </trkpt>
      <trkpt lat="44.44112" lon="0.99555">
        <ele>120.78</ele>
        <time>2015-09-26T12:46:33Z</time>
      </trkpt>
      <trkpt lat="44.44072" lon="0.99564">
        <ele>122.22</ele>
        <time>2015-09-26T12:46:46Z</time>
      </trkpt>
      <trkpt lat="44.44047" lon="0.99569">
        <ele>122.71</ele>
        <time>2015-09-26T12:46:57Z</time>
      </trkpt>
      <trkpt lat="44.44027" lon="0.99574">
        <ele>123.67</ele>
        <time>2015-09-26T12:47:07Z</time>
      </trkpt>
      <trkpt lat="44.44003" lon="0.99582">
        <ele>124.15</ele>
        <time>2015-09-26T12:47:17Z</time>
      </trkpt>
      <trkpt lat="44.43961" lon="0.99602">
        <ele>126.07</ele>
        <time>2015-09-26T12:47:31Z</time>
      </trkpt>
      <trkpt lat="44.4393" lon="0.99615">
        <ele>127.99</ele>
        <time>2015-09-26T12:47:42Z</time>
      </trkpt>
      <trkpt lat="44.439" lon="0.99618">
        <ele>130.4</ele>
        <time>2015-09-26T12:47:53Z</time>
      </trkpt>
      <trkpt lat="44.43877" lon="0.99611">
        <ele>130.88</ele>
        <time>2015-09-26T12:48:02Z</time>
      </trkpt>
      <trkpt lat="44.43843" lon="0.99595">
        <ele>128.95</ele>
        <time>2015-09-26T12:48:13Z</time>
      </trkpt>
      <trkpt lat="44.438" lon="0.99578">
        <ele>127.51</ele>
        <time>2015-09-26T12:48:26Z</time>
      </trkpt>
      <trkpt lat="44.43765" lon="0.99573">
        <ele>129.92</ele>
        <time>2015-09-26T12:48:37Z</time>
      </trkpt>
      <trkpt lat="44.43736" lon="0.99569">
        <ele>130.88</ele>
        <time>2015-09-26T12:48:47Z</time>
      </trkpt>
      <trkpt lat="44.43703" lon="0.99563">
        <ele>131.84</ele>
        <time>2015-09-26T12:48:59Z</time>
      </trkpt>
      <trkpt lat="44.4366" lon="0.99552">
        <ele>133.28</ele>
        <time>2015-09-26T12:49:13Z</time>
      </trkpt>
      <trkpt lat="44.43619" lon="0.9954">
        <ele>133.76</ele>
        <time>2015-09-26T12:49:26Z</time>
      </trkpt>
      <trkpt lat="44.43576" lon="0.99532">
        <ele>133.76</ele>
        <time>2015-09-26T12:49:39Z</time>
      </trkpt>
      <trkpt lat="44.43529" lon="0.99532">
        <ele>137.13</ele>
        <time>2015-09-26T12:49:50Z</time>
      </trkpt>
      <trkpt lat="44.43515" lon="0.99534">
        <ele>137.61</ele>
        <time>2015-09-26T12:49:53Z</time>
      </trkpt>
      <trkpt lat="44.43456" lon="0.99526">
        <ele>138.57</ele>
        <time>2015-09-26T12:50:05Z</time>
      </trkpt>
      <trkpt lat="44.43451" lon="0.99524">
        <ele>138.09</ele>
        <time>2015-09-26T12:50:06Z</time>
      </trkpt>
      <trkpt lat="44.43404" lon="0.99504">
        <ele>136.64</ele>
        <time>2015-09-26T12:50:18Z</time>
      </trkpt>
      <trkpt lat="44.43365" lon="0.9947">
        <ele>135.2</ele>
        <time>2015-09-26T12:50:30Z</time>
      </trkpt>
      <trkpt lat="44.43338" lon="0.99431">
        <ele>139.05</ele>
        <time>2015-09-26T12:50:42Z</time>
      </trkpt>
      <trkpt lat="44.4331" lon="0.99395">
        <ele>142.89</ele>
        <time>2015-09-26T12:50:56Z</time>
      </trkpt>
      <trkpt lat="44.43292" lon="0.99369">
        <ele>146.74</ele>
        <time>2015-09-26T12:51:10Z</time>
      </trkpt>
      <trkpt lat="44.43274" lon="0.9935">
        <ele>148.66</ele>
        <time>2015-09-26T12:51:21Z</time>
      </trkpt>
      <trkpt lat="44.43268" lon="0.99346">
        <ele>149.62</ele>
        <time>2015-09-26T12:51:25Z</time>
      </trkpt>
      <trkpt lat="44.43259" lon="0.99342">
        <ele>150.58</ele>
        <time>2015-09-26T12:51:37Z</time>
      </trkpt>
      <trkpt lat="44.43258" lon="0.9934">
        <ele>150.58</ele>
        <time>2015-09-26T12:51:40Z</time>
      </trkpt>
      <trkpt lat="44.43251" lon="0.9933">
        <ele>149.62</ele>
        <time>2015-09-26T12:51:52Z</time>
      </trkpt>
      <trkpt lat="44.43251" lon="0.9933">
        <ele>150.1</ele>
        <time>2015-09-26T12:51:56Z</time>
      </trkpt>
      <trkpt lat="44.43241" lon="0.99322">
        <ele>149.14</ele>
        <time>2015-09-26T12:52:01Z</time>
      </trkpt>
      <trkpt lat="44.43223" lon="0.99309">
        <ele>148.18</ele>
        <time>2015-09-26T12:52:06Z</time>
      </trkpt>
      <trkpt lat="44.4317" lon="0.99284">
        <ele>147.22</ele>
        <time>2015-09-26T12:52:19Z</time>
      </trkpt>
      <trkpt lat="44.43142" lon="0.99252">
        <ele>147.22</ele>
        <time>2015-09-26T12:52:28Z</time>
      </trkpt>
      <trkpt lat="44.43115" lon="0.99216">
        <ele>149.14</ele>
        <time>2015-09-26T12:52:39Z</time>
      </trkpt>
      <trkpt lat="44.43078" lon="0.99185">
        <ele>148.18</ele>
        <time>2015-09-26T12:52:51Z</time>
      </trkpt>
      <trkpt lat="44.43026" lon="0.99173">
        <ele>147.22</ele>
        <time>2015-09-26T12:53:05Z</time>
      </trkpt>
      <trkpt lat="44.42982" lon="0.99173">
        <ele>147.22</ele>
        <time>2015-09-26T12:53:19Z</time>
      </trkpt>
      <trkpt lat="44.42946" lon="0.99186">
        <ele>149.62</ele>
        <time>2015-09-26T12:53:31Z</time>
      </trkpt>
      <trkpt lat="44.42916" lon="0.99203">
        <ele>150.58</ele>
        <time>2015-09-26T12:53:42Z</time>
      </trkpt>
      <trkpt lat="44.42886" lon="0.99227">
        <ele>150.1</ele>
        <time>2015-09-26T12:53:55Z</time>
      </trkpt>
      <trkpt lat="44.42849" lon="0.99265">
        <ele>153.95</ele>
        <time>2015-09-26T12:54:10Z</time>
      </trkpt>
      <trkpt lat="44.42812" lon="0.99297">
        <ele>154.91</ele>
        <time>2015-09-26T12:54:23Z</time>
      </trkpt>
      <trkpt lat="44.42776" lon="0.99319">
        <ele>158.75</ele>
        <time>2015-09-26T12:54:35Z</time>
      </trkpt>
      <trkpt lat="44.4274" lon="0.99337">
        <ele>163.08</ele>
        <time>2015-09-26T12:54:47Z</time>
      </trkpt>
      <trkpt lat="44.42709" lon="0.99358">
        <ele>164.04</ele>
        <time>2015-09-26T12:54:57Z</time>
      </trkpt>
      <trkpt lat="44.42677" lon="0.99402">
        <ele>163.08</ele>
        <time>2015-09-26T12:55:11Z</time>
      </trkpt>
      <trkpt lat="44.42656" lon="0.99442">
        <ele>159.72</ele>
        <time>2015-09-26T12:55:22Z</time>
      </trkpt>
      <trkpt lat="44.42627" lon="0.99485">
        <ele>160.2</ele>
        <time>2015-09-26T12:55:35Z</time>
      </trkpt>
      <trkpt lat="44.42607" lon="0.99507">
        <ele>163.08</ele>
        <time>2015-09-26T12:55:48Z</time>
      </trkpt>
      <trkpt lat="44.42605" lon="0.99509">
        <ele>164.04</ele>
        <time>2015-09-26T12:56:01Z</time>
      </trkpt>
      <trkpt lat="44.42603" lon="0.99511">
        <ele>164.52</ele>
        <time>2015-09-26T12:56:03Z</time>
      </trkpt>
      <trkpt lat="44.42599" lon="0.99513">
        <ele>163.56</ele>
        <time>2015-09-26T12:56:18Z</time>
      </trkpt>
      <trkpt lat="44.42589" lon="0.99521">
        <ele>163.08</ele>
        <time>2015-09-26T12:56:26Z</time>
      </trkpt>
      <trkpt lat="44.42587" lon="0.99523">
        <ele>163.08</ele>
        <time>2015-09-26T12:56:27Z</time>
      </trkpt>
      <trkpt lat="44.42584" lon="0.9954">
        <ele>161.64</ele>
        <time>2015-09-26T12:56:31Z</time>
      </trkpt>
      <trkpt lat="44.42583" lon="0.99545">
        <ele>161.16</ele>
        <time>2015-09-26T12:56:32Z</time>
      </trkpt>
      <trkpt lat="44.42582" lon="0.9955">
        <ele>160.2</ele>
        <time>2015-09-26T12:56:33Z</time>
      </trkpt>
      <trkpt lat="44.42581" lon="0.99554">
        <ele>159.72</ele>
        <time>2015-09-26T12:56:34Z</time>
      </trkpt>
      <trkpt lat="44.4258" lon="0.99559">
        <ele>159.24</ele>
        <time>2015-09-26T12:56:35Z</time>
      </trkpt>
      <trkpt lat="44.4258" lon="0.99563">
        <ele>158.75</ele>
        <time>2015-09-26T12:56:36Z</time>
      </trkpt>
      <trkpt lat="44.42579" lon="0.99578">
        <ele>156.83</ele>
        <time>2015-09-26T12:56:40Z</time>
      </trkpt>
      <trkpt lat="44.42577" lon="0.99587">
        <ele>155.87</ele>
        <time>2015-09-26T12:56:43Z</time>
      </trkpt>
      <trkpt lat="44.42577" lon="0.99591">
        <ele>155.87</ele>
        <time>2015-09-26T12:56:44Z</time>
      </trkpt>
      <trkpt lat="44.42577" lon="0.99596">
        <ele>155.39</ele>
        <time>2015-09-26T12:56:45Z</time>
      </trkpt>
      <trkpt lat="44.42575" lon="0.996">
        <ele>154.91</ele>
        <time>2015-09-26T12:56:46Z</time>
      </trkpt>
      <trkpt lat="44.42573" lon="0.99602">
        <ele>154.43</ele>
        <time>2015-09-26T12:56:47Z</time>
      </trkpt>
      <trkpt lat="44.42571" lon="0.99605">
        <ele>153.95</ele>
        <time>2015-09-26T12:56:48Z</time>
      </trkpt>
      <trkpt lat="44.4257" lon="0.9961">
        <ele>153.95</ele>
        <time>2015-09-26T12:56:49Z</time>
      </trkpt>
      <trkpt lat="44.42554" lon="0.99659">
        <ele>148.66</ele>
        <time>2015-09-26T12:57:00Z</time>
      </trkpt>
      <trkpt lat="44.42538" lon="0.99703">
        <ele>143.85</ele>
        <time>2015-09-26T12:57:11Z</time>
      </trkpt>
      <trkpt lat="44.42524" lon="0.99734">
        <ele>140.97</ele>
        <time>2015-09-26T12:57:21Z</time>
      </trkpt>
      <trkpt lat="44.42524" lon="0.99736">
        <ele>140.97</ele>
        <time>2015-09-26T12:57:22Z</time>
      </trkpt>
      <trkpt lat="44.42523" lon="0.9974">
        <ele>140.97</ele>
        <time>2015-09-26T12:57:23Z</time>
      </trkpt>
      <trkpt lat="44.42521" lon="0.99743">
        <ele>140.97</ele>
        <time>2015-09-26T12:57:24Z</time>
      </trkpt>
      <trkpt lat="44.4252" lon="0.99746">
        <ele>140.97</ele>
        <time>2015-09-26T12:57:25Z</time>
      </trkpt>
      <trkpt lat="44.42518" lon="0.99749">
        <ele>140.97</ele>
        <time>2015-09-26T12:57:26Z</time>
      </trkpt>
      <trkpt lat="44.42506" lon="0.99774">
        <ele>138.57</ele>
        <time>2015-09-26T12:57:33Z</time>
      </trkpt>
      <trkpt lat="44.42503" lon="0.99777">
        <ele>138.57</ele>
        <time>2015-09-26T12:57:34Z</time>
      </trkpt>
      <trkpt lat="44.42501" lon="0.9978">
        <ele>138.57</ele>
        <time>2015-09-26T12:57:35Z</time>
      </trkpt>
      <trkpt lat="44.42499" lon="0.99783">
        <ele>138.57</ele>
        <time>2015-09-26T12:57:36Z</time>
      </trkpt>
      <trkpt lat="44.42496" lon="0.99787">
        <ele>139.05</ele>
        <time>2015-09-26T12:57:37Z</time>
      </trkpt>
      <trkpt lat="44.42494" lon="0.99791">
        <ele>139.05</ele>
        <time>2015-09-26T12:57:38Z</time>
      </trkpt>
      <trkpt lat="44.42491" lon="0.99794">
        <ele>139.05</ele>
        <time>2015-09-26T12:57:39Z</time>
      </trkpt>
      <trkpt lat="44.42454" lon="0.99833">
        <ele>142.41</ele>
        <time>2015-09-26T12:57:51Z</time>
      </trkpt>
      <trkpt lat="44.42402" lon="0.99895">
        <ele>157.31</ele>
        <time>2015-09-26T12:58:06Z</time>
      </trkpt>
      <trkpt lat="44.42376" lon="0.99949">
        <ele>161.16</ele>
        <time>2015-09-26T12:58:19Z</time>
      </trkpt>
      <trkpt lat="44.42357" lon="0.99994">
        <ele>164.52</ele>
        <time>2015-09-26T12:58:32Z</time>
      </trkpt>
      <trkpt lat="44.42351" lon="1.00036">
        <ele>167.41</ele>
        <time>2015-09-26T12:58:42Z</time>
      </trkpt>
      <trkpt lat="44.42342" lon="1.00097">
        <ele>169.33</ele>
        <time>2015-09-26T12:58:56Z</time>
      </trkpt>
      <trkpt lat="44.4234" lon="1.00097">
        <ele>168.85</ele>
        <time>2015-09-26T12:58:57Z</time>
      </trkpt>
      <trkpt lat="44.42337" lon="1.00096">
        <ele>168.85</ele>
        <time>2015-09-26T12:58:58Z</time>
      </trkpt>
      <trkpt lat="44.42334" lon="1.00095">
        <ele>168.85</ele>
        <time>2015-09-26T12:58:59Z</time>
      </trkpt>
      <trkpt lat="44.42332" lon="1.00092">
        <ele>168.37</ele>
        <time>2015-09-26T12:59:00Z</time>
      </trkpt>
      <trkpt lat="44.42329" lon="1.00089">
        <ele>168.37</ele>
        <time>2015-09-26T12:59:01Z</time>
      </trkpt>
      <trkpt lat="44.4229" lon="1.00053">
        <ele>169.81</ele>
        <time>2015-09-26T12:59:15Z</time>
      </trkpt>
      <trkpt lat="44.42261" lon="1.00053">
        <ele>171.25</ele>
        <time>2015-09-26T12:59:26Z</time>
      </trkpt>
      <trkpt lat="44.4222" lon="1.00076">
        <ele>174.14</ele>
        <time>2015-09-26T12:59:39Z</time>
      </trkpt>
      <trkpt lat="44.42182" lon="1.00102">
        <ele>176.54</ele>
        <time>2015-09-26T12:59:52Z</time>
      </trkpt>
      <trkpt lat="44.42136" lon="1.00119">
        <ele>181.35</ele>
        <time>2015-09-26T13:00:06Z</time>
      </trkpt>
      <trkpt lat="44.42121" lon="1.00135">
        <ele>185.67</ele>
        <time>2015-09-26T13:00:14Z</time>
      </trkpt>
      <trkpt lat="44.42111" lon="1.00151">
        <ele>186.15</ele>
        <time>2015-09-26T13:00:22Z</time>
      </trkpt>
      <trkpt lat="44.4209" lon="1.00182">
        <ele>187.11</ele>
        <time>2015-09-26T13:00:35Z</time>
      </trkpt>
      <trkpt lat="44.42068" lon="1.00212">
        <ele>189.52</ele>
        <time>2015-09-26T13:00:47Z</time>
      </trkpt>
      <trkpt lat="44.42039" lon="1.00243">
        <ele>191.44</ele>
        <time>2015-09-26T13:01:00Z</time>
      </trkpt>
      <trkpt lat="44.42004" lon="1.00271">
        <ele>193.84</ele>
        <time>2015-09-26T13:01:15Z</time>
      </trkpt>
      <trkpt lat="44.41977" lon="1.00296">
        <ele>195.77</ele>
        <time>2015-09-26T13:01:27Z</time>
      </trkpt>
      <trkpt lat="44.41945" lon="1.0032">
        <ele>195.28</ele>
        <time>2015-09-26T13:01:38Z</time>
      </trkpt>
      <trkpt lat="44.41929" lon="1.00327">
        <ele>193.84</ele>
        <time>2015-09-26T13:01:42Z</time>
      </trkpt>
      <trkpt lat="44.4187" lon="1.00354">
        <ele>193.84</ele>
        <time>2015-09-26T13:01:59Z</time>
      </trkpt>
      <trkpt lat="44.41868" lon="1.00355">
        <ele>193.84</ele>
        <time>2015-09-26T13:02:09Z</time>
      </trkpt>
      <trkpt lat="44.41869" lon="1.00355">
        <ele>193.36</ele>
        <time>2015-09-26T13:02:29Z</time>
      </trkpt>
      <trkpt lat="44.4187" lon="1.00355">
        <ele>193.84</ele>
        <time>2015-09-26T13:02:50Z</time>
      </trkpt>
      <trkpt lat="44.4187" lon="1.00355">
        <ele>193.84</ele>
        <time>2015-09-26T13:03:18Z</time>
      </trkpt>
      <trkpt lat="44.4187" lon="1.00355">
        <ele>193.36</ele>
        <time>2015-09-26T13:03:48Z</time>
      </trkpt>
      <trkpt lat="44.4187" lon="1.00355">
        <ele>193.36</ele>
        <time>2015-09-26T13:03:55Z</time>
      </trkpt>
      <trkpt lat="44.41866" lon="1.00359">
        <ele>193.84</ele>
        <time>2015-09-26T13:04:02Z</time>
      </trkpt>
      <trkpt lat="44.41848" lon="1.00391">
        <ele>194.8</ele>
        <time>2015-09-26T13:04:15Z</time>
      </trkpt>
      <trkpt lat="44.41815" lon="1.00453">
        <ele>198.17</ele>
        <time>2015-09-26T13:04:32Z</time>
      </trkpt>
      <trkpt lat="44.41806" lon="1.00503">
        <ele>201.05</ele>
        <time>2015-09-26T13:04:44Z</time>
      </trkpt>
      <trkpt lat="44.41802" lon="1.00542">
        <ele>203.94</ele>
        <time>2015-09-26T13:04:55Z</time>
      </trkpt>
      <trkpt lat="44.41803" lon="1.00543">
        <ele>204.42</ele>
        <time>2015-09-26T13:04:56Z</time>
      </trkpt>
      <trkpt lat="44.41805" lon="1.00543">
        <ele>204.9</ele>
        <time>2015-09-26T13:04:57Z</time>
      </trkpt>
      <trkpt lat="44.41807" lon="1.00543">
        <ele>204.9</ele>
        <time>2015-09-26T13:04:58Z</time>
      </trkpt>
      <trkpt lat="44.4181" lon="1.00543">
        <ele>205.38</ele>
        <time>2015-09-26T13:04:59Z</time>
      </trkpt>
      <trkpt lat="44.41839" lon="1.00549">
        <ele>208.74</ele>
        <time>2015-09-26T13:05:10Z</time>
      </trkpt>
      <trkpt lat="44.41869" lon="1.00566">
        <ele>211.15</ele>
        <time>2015-09-26T13:05:23Z</time>
      </trkpt>
      <trkpt lat="44.41872" lon="1.00568">
        <ele>211.15</ele>
        <time>2015-09-26T13:05:25Z</time>
      </trkpt>
      <trkpt lat="44.41873" lon="1.00568">
        <ele>210.67</ele>
        <time>2015-09-26T13:05:26Z</time>
      </trkpt>
      <trkpt lat="44.41874" lon="1.00567">
        <ele>211.15</ele>
        <time>2015-09-26T13:05:27Z</time>
      </trkpt>
      <trkpt lat="44.41876" lon="1.00567">
        <ele>210.67</ele>
        <time>2015-09-26T13:05:28Z</time>
      </trkpt>
      <trkpt lat="44.41877" lon="1.00568">
        <ele>210.67</ele>
        <time>2015-09-26T13:05:29Z</time>
      </trkpt>
      <trkpt lat="44.41879" lon="1.0057">
        <ele>210.19</ele>
        <time>2015-09-26T13:05:30Z</time>
      </trkpt>
      <trkpt lat="44.41884" lon="1.00573">
        <ele>210.19</ele>
        <time>2015-09-26T13:05:32Z</time>
      </trkpt>
      <trkpt lat="44.41886" lon="1.00573">
        <ele>209.7</ele>
        <time>2015-09-26T13:05:33Z</time>
      </trkpt>
      <trkpt lat="44.41889" lon="1.00574">
        <ele>209.7</ele>
        <time>2015-09-26T13:05:34Z</time>
      </trkpt>
      <trkpt lat="44.41908" lon="1.00592">
        <ele>207.3</ele>
        <time>2015-09-26T13:05:42Z</time>
      </trkpt>
      <trkpt lat="44.41912" lon="1.00596">
        <ele>206.82</ele>
        <time>2015-09-26T13:05:43Z</time>
      </trkpt>
      <trkpt lat="44.41916" lon="1.006">
        <ele>205.86</ele>
        <time>2015-09-26T13:05:44Z</time>
      </trkpt>
      <trkpt lat="44.4192" lon="1.00606">
        <ele>205.38</ele>
        <time>2015-09-26T13:05:45Z</time>
      </trkpt>
      <trkpt lat="44.41924" lon="1.00613">
        <ele>204.42</ele>
        <time>2015-09-26T13:05:46Z</time>
      </trkpt>
      <trkpt lat="44.41928" lon="1.0062">
        <ele>203.94</ele>
        <time>2015-09-26T13:05:47Z</time>
      </trkpt>
      <trkpt lat="44.4193" lon="1.00628">
        <ele>203.46</ele>
        <time>2015-09-26T13:05:48Z</time>
      </trkpt>
      <trkpt lat="44.41932" lon="1.00636">
        <ele>202.98</ele>
        <time>2015-09-26T13:05:49Z</time>
      </trkpt>
      <trkpt lat="44.41934" lon="1.00645">
        <ele>202.49</ele>
        <time>2015-09-26T13:05:50Z</time>
      </trkpt>
      <trkpt lat="44.41951" lon="1.00733">
        <ele>201.05</ele>
        <time>2015-09-26T13:06:01Z</time>
      </trkpt>
      <trkpt lat="44.41974" lon="1.00799">
        <ele>201.53</ele>
        <time>2015-09-26T13:06:11Z</time>
      </trkpt>
      <trkpt lat="44.41976" lon="1.00804">
        <ele>201.53</ele>
        <time>2015-09-26T13:06:12Z</time>
      </trkpt>
      <trkpt lat="44.41978" lon="1.00808">
        <ele>202.01</ele>
        <time>2015-09-26T13:06:13Z</time>
      </trkpt>
      <trkpt lat="44.41986" lon="1.00839">
        <ele>202.98</ele>
        <time>2015-09-26T13:06:23Z</time>
      </trkpt>
      <trkpt lat="44.41985" lon="1.00842">
        <ele>202.98</ele>
        <time>2015-09-26T13:06:24Z</time>
      </trkpt>
      <trkpt lat="44.41982" lon="1.00851">
        <ele>202.98</ele>
        <time>2015-09-26T13:06:27Z</time>
      </trkpt>
      <trkpt lat="44.4198" lon="1.00853">
        <ele>203.46</ele>
        <time>2015-09-26T13:06:28Z</time>
      </trkpt>
      <trkpt lat="44.41942" lon="1.00888">
        <ele>207.3</ele>
        <time>2015-09-26T13:06:43Z</time>
      </trkpt>
      <trkpt lat="44.41908" lon="1.00923">
        <ele>209.7</ele>
        <time>2015-09-26T13:06:56Z</time>
      </trkpt>
      <trkpt lat="44.41857" lon="1.00974">
        <ele>211.63</ele>
        <time>2015-09-26T13:07:12Z</time>
      </trkpt>
      <trkpt lat="44.418" lon="1.01017">
        <ele>212.11</ele>
        <time>2015-09-26T13:07:29Z</time>
      </trkpt>
      <trkpt lat="44.41773" lon="1.01033">
        <ele>211.63</ele>
        <time>2015-09-26T13:07:37Z</time>
      </trkpt>
      <trkpt lat="44.41768" lon="1.01035">
        <ele>211.63</ele>
        <time>2015-09-26T13:07:38Z</time>
      </trkpt>
      <trkpt lat="44.4172" lon="1.0106">
        <ele>208.74</ele>
        <time>2015-09-26T13:07:47Z</time>
      </trkpt>
      <trkpt lat="44.41637" lon="1.01105">
        <ele>200.57</ele>
        <time>2015-09-26T13:07:57Z</time>
      </trkpt>
      <trkpt lat="44.4157" lon="1.01145">
        <ele>196.73</ele>
        <time>2015-09-26T13:08:04Z</time>
      </trkpt>
      <trkpt lat="44.41561" lon="1.01154">
        <ele>196.25</ele>
        <time>2015-09-26T13:08:05Z</time>
      </trkpt>
      <trkpt lat="44.41553" lon="1.01163">
        <ele>195.77</ele>
        <time>2015-09-26T13:08:06Z</time>
      </trkpt>
      <trkpt lat="44.41509" lon="1.01214">
        <ele>192.88</ele>
        <time>2015-09-26T13:08:14Z</time>
      </trkpt>
      <trkpt lat="44.41509" lon="1.01215">
        <ele>193.36</ele>
        <time>2015-09-26T13:08:24Z</time>
      </trkpt>
      <trkpt lat="44.41508" lon="1.01216">
        <ele>193.36</ele>
        <time>2015-09-26T13:08:47Z</time>
      </trkpt>
      <trkpt lat="44.41509" lon="1.01216">
        <ele>193.36</ele>
        <time>2015-09-26T13:08:53Z</time>
      </trkpt>
      <trkpt lat="44.41508" lon="1.01219">
        <ele>193.36</ele>
        <time>2015-09-26T13:08:54Z</time>
      </trkpt>
      <trkpt lat="44.41507" lon="1.01222">
        <ele>193.36</ele>
        <time>2015-09-26T13:08:55Z</time>
      </trkpt>
      <trkpt lat="44.41508" lon="1.01226">
        <ele>193.84</ele>
        <time>2015-09-26T13:08:56Z</time>
      </trkpt>
      <trkpt lat="44.41509" lon="1.0123">
        <ele>193.84</ele>
        <time>2015-09-26T13:08:57Z</time>
      </trkpt>
      <trkpt lat="44.4151" lon="1.01234">
        <ele>194.32</ele>
        <time>2015-09-26T13:08:58Z</time>
      </trkpt>
      <trkpt lat="44.41511" lon="1.01238">
        <ele>194.32</ele>
        <time>2015-09-26T13:08:59Z</time>
      </trkpt>
      <trkpt lat="44.4151" lon="1.01242">
        <ele>194.32</ele>
        <time>2015-09-26T13:09:00Z</time>
      </trkpt>
      <trkpt lat="44.41509" lon="1.01246">
        <ele>193.84</ele>
        <time>2015-09-26T13:09:01Z</time>
      </trkpt>
      <trkpt lat="44.41507" lon="1.01248">
        <ele>193.84</ele>
        <time>2015-09-26T13:09:02Z</time>
      </trkpt>
      <trkpt lat="44.41487" lon="1.0127">
        <ele>192.4</ele>
        <time>2015-09-26T13:09:08Z</time>
      </trkpt>
      <trkpt lat="44.41466" lon="1.01298">
        <ele>190.96</ele>
        <time>2015-09-26T13:09:15Z</time>
      </trkpt>
      <trkpt lat="44.41452" lon="1.01314">
        <ele>189.52</ele>
        <time>2015-09-26T13:09:19Z</time>
      </trkpt>
      <trkpt lat="44.41414" lon="1.01347">
        <ele>185.67</ele>
        <time>2015-09-26T13:09:29Z</time>
      </trkpt>
      <trkpt lat="44.41386" lon="1.01366">
        <ele>182.31</ele>
        <time>2015-09-26T13:09:36Z</time>
      </trkpt>
      <trkpt lat="44.41371" lon="1.0137">
        <ele>180.87</ele>
        <time>2015-09-26T13:09:39Z</time>
      </trkpt>
      <trkpt lat="44.41334" lon="1.01368">
        <ele>175.58</ele>
        <time>2015-09-26T13:09:47Z</time>
      </trkpt>
      <trkpt lat="44.41315" lon="1.0135">
        <ele>171.25</ele>
        <time>2015-09-26T13:09:54Z</time>
      </trkpt>
      <trkpt lat="44.41297" lon="1.01337">
        <ele>166.93</ele>
        <time>2015-09-26T13:10:01Z</time>
      </trkpt>
      <trkpt lat="44.41293" lon="1.01338">
        <ele>166.45</ele>
        <time>2015-09-26T13:10:02Z</time>
      </trkpt>
      <trkpt lat="44.41264" lon="1.01337">
        <ele>161.64</ele>
        <time>2015-09-26T13:10:08Z</time>
      </trkpt>
      <trkpt lat="44.4125" lon="1.01338">
        <ele>159.72</ele>
        <time>2015-09-26T13:10:11Z</time>
      </trkpt>
      <trkpt lat="44.41238" lon="1.01316">
        <ele>158.27</ele>
        <time>2015-09-26T13:10:20Z</time>
      </trkpt>
      <trkpt lat="44.41228" lon="1.01292">
        <ele>158.75</ele>
        <time>2015-09-26T13:10:35Z</time>
      </trkpt>
      <trkpt lat="44.41215" lon="1.01264">
        <ele>159.72</ele>
        <time>2015-09-26T13:10:45Z</time>
      </trkpt>
      <trkpt lat="44.41193" lon="1.01236">
        <ele>161.64</ele>
        <time>2015-09-26T13:10:57Z</time>
      </trkpt>
      <trkpt lat="44.41188" lon="1.01235">
        <ele>159.72</ele>
        <time>2015-09-26T13:11:19Z</time>
      </trkpt>
      <trkpt lat="44.41188" lon="1.01235">
        <ele>159.72</ele>
        <time>2015-09-26T13:11:28Z</time>
      </trkpt>
      <trkpt lat="44.41181" lon="1.01234">
        <ele>159.24</ele>
        <time>2015-09-26T13:11:32Z</time>
      </trkpt>
      <trkpt lat="44.41152" lon="1.01239">
        <ele>158.75</ele>
        <time>2015-09-26T13:11:38Z</time>
      </trkpt>
      <trkpt lat="44.41102" lon="1.01275">
        <ele>156.83</ele>
        <time>2015-09-26T13:11:49Z</time>
      </trkpt>
      <trkpt lat="44.41058" lon="1.01283">
        <ele>156.83</ele>
        <time>2015-09-26T13:11:58Z</time>
      </trkpt>
      <trkpt lat="44.41046" lon="1.01284">
        <ele>156.83</ele>
        <time>2015-09-26T13:12:00Z</time>
      </trkpt>
      <trkpt lat="44.41035" lon="1.01283">
        <ele>156.83</ele>
        <time>2015-09-26T13:12:02Z</time>
      </trkpt>
      <trkpt lat="44.40975" lon="1.01267">
        <ele>156.35</ele>
        <time>2015-09-26T13:12:15Z</time>
      </trkpt>
      <trkpt lat="44.40953" lon="1.01265">
        <ele>156.35</ele>
        <time>2015-09-26T13:12:19Z</time>
      </trkpt>
      <trkpt lat="44.4088" lon="1.01263">
        <ele>153.47</ele>
        <time>2015-09-26T13:12:32Z</time>
      </trkpt>
      <trkpt lat="44.40823" lon="1.01255">
        <ele>153.47</ele>
        <time>2015-09-26T13:12:45Z</time>
      </trkpt>
      <trkpt lat="44.40764" lon="1.01238">
        <ele>151.54</ele>
        <time>2015-09-26T13:12:58Z</time>
      </trkpt>
      <trkpt lat="44.40752" lon="1.01247">
        <ele>149.62</ele>
        <time>2015-09-26T13:13:04Z</time>
      </trkpt>
      <trkpt lat="44.40763" lon="1.01318">
        <ele>149.62</ele>
        <time>2015-09-26T13:13:18Z</time>
      </trkpt>
      <trkpt lat="44.40774" lon="1.01393">
        <ele>151.06</ele>
        <time>2015-09-26T13:13:32Z</time>
      </trkpt>
      <trkpt lat="44.40779" lon="1.0144">
        <ele>156.35</ele>
        <time>2015-09-26T13:13:43Z</time>
      </trkpt>
      <trkpt lat="44.40788" lon="1.01478">
        <ele>161.64</ele>
        <time>2015-09-26T13:13:54Z</time>
      </trkpt>
      <trkpt lat="44.408" lon="1.01512">
        <ele>164.52</ele>
        <time>2015-09-26T13:14:06Z</time>
      </trkpt>
      <trkpt lat="44.40813" lon="1.01546">
        <ele>166.93</ele>
        <time>2015-09-26T13:14:18Z</time>
      </trkpt>
      <trkpt lat="44.40833" lon="1.01578">
        <ele>166.93</ele>
        <time>2015-09-26T13:14:29Z</time>
      </trkpt>
      <trkpt lat="44.40859" lon="1.01615">
        <ele>169.33</ele>
        <time>2015-09-26T13:14:42Z</time>
      </trkpt>
      <trkpt lat="44.40891" lon="1.01657">
        <ele>170.77</ele>
        <time>2015-09-26T13:14:56Z</time>
      </trkpt>
      <trkpt lat="44.40924" lon="1.01681">
        <ele>172.21</ele>
        <time>2015-09-26T13:15:10Z</time>
      </trkpt>
      <trkpt lat="44.40945" lon="1.01689">
        <ele>176.54</ele>
        <time>2015-09-26T13:15:21Z</time>
      </trkpt>
      <trkpt lat="44.40947" lon="1.01689">
        <ele>177.5</ele>
        <time>2015-09-26T13:15:34Z</time>
      </trkpt>
      <trkpt lat="44.40948" lon="1.0169">
        <ele>177.98</ele>
        <time>2015-09-26T13:15:55Z</time>
      </trkpt>
      <trkpt lat="44.40948" lon="1.01689">
        <ele>178.94</ele>
        <time>2015-09-26T13:16:17Z</time>
      </trkpt>
      <trkpt lat="44.40948" lon="1.01688">
        <ele>178.94</ele>
        <time>2015-09-26T13:16:42Z</time>
      </trkpt>
      <trkpt lat="44.4095" lon="1.01689">
        <ele>178.46</ele>
        <time>2015-09-26T13:16:55Z</time>
      </trkpt>
      <trkpt lat="44.40951" lon="1.0169">
        <ele>177.98</ele>
        <time>2015-09-26T13:16:56Z</time>
      </trkpt>
      <trkpt lat="44.40953" lon="1.01691">
        <ele>177.98</ele>
        <time>2015-09-26T13:16:57Z</time>
      </trkpt>
      <trkpt lat="44.40954" lon="1.01692">
        <ele>177.5</ele>
        <time>2015-09-26T13:16:58Z</time>
      </trkpt>
      <trkpt lat="44.40957" lon="1.01695">
        <ele>176.54</ele>
        <time>2015-09-26T13:16:59Z</time>
      </trkpt>
      <trkpt lat="44.40959" lon="1.01697">
        <ele>176.06</ele>
        <time>2015-09-26T13:17:00Z</time>
      </trkpt>
      <trkpt lat="44.40988" lon="1.01725">
        <ele>172.21</ele>
        <time>2015-09-26T13:17:08Z</time>
      </trkpt>
      <trkpt lat="44.41027" lon="1.01755">
        <ele>172.21</ele>
        <time>2015-09-26T13:17:20Z</time>
      </trkpt>
      <trkpt lat="44.41048" lon="1.01761">
        <ele>172.21</ele>
        <time>2015-09-26T13:17:30Z</time>
      </trkpt>
      <trkpt lat="44.4105" lon="1.01762">
        <ele>172.21</ele>
        <time>2015-09-26T13:17:31Z</time>
      </trkpt>
      <trkpt lat="44.41059" lon="1.01767">
        <ele>173.66</ele>
        <time>2015-09-26T13:17:35Z</time>
      </trkpt>
      <trkpt lat="44.41068" lon="1.01771">
        <ele>175.1</ele>
        <time>2015-09-26T13:17:39Z</time>
      </trkpt>
      <trkpt lat="44.41078" lon="1.01774">
        <ele>176.54</ele>
        <time>2015-09-26T13:17:44Z</time>
      </trkpt>
      <trkpt lat="44.41103" lon="1.01793">
        <ele>179.42</ele>
        <time>2015-09-26T13:17:57Z</time>
      </trkpt>
      <trkpt lat="44.41119" lon="1.01808">
        <ele>181.35</ele>
        <time>2015-09-26T13:18:07Z</time>
      </trkpt>
      <trkpt lat="44.41147" lon="1.01835">
        <ele>183.27</ele>
        <time>2015-09-26T13:18:19Z</time>
      </trkpt>
      <trkpt lat="44.41153" lon="1.01839">
        <ele>183.27</ele>
        <time>2015-09-26T13:18:21Z</time>
      </trkpt>
      <trkpt lat="44.41188" lon="1.01857">
        <ele>182.79</ele>
        <time>2015-09-26T13:18:32Z</time>
      </trkpt>
      <trkpt lat="44.41216" lon="1.0188">
        <ele>183.27</ele>
        <time>2015-09-26T13:18:42Z</time>
      </trkpt>
      <trkpt lat="44.41246" lon="1.01889">
        <ele>184.71</ele>
        <time>2015-09-26T13:18:52Z</time>
      </trkpt>
      <trkpt lat="44.4128" lon="1.01905">
        <ele>184.71</ele>
        <time>2015-09-26T13:19:02Z</time>
      </trkpt>
      <trkpt lat="44.41297" lon="1.01907">
        <ele>184.71</ele>
        <time>2015-09-26T13:19:06Z</time>
      </trkpt>
      <trkpt lat="44.41321" lon="1.01908">
        <ele>184.23</ele>
        <time>2015-09-26T13:19:11Z</time>
      </trkpt>
      <trkpt lat="44.41366" lon="1.01932">
        <ele>176.54</ele>
        <time>2015-09-26T13:19:24Z</time>
      </trkpt>
      <trkpt lat="44.41367" lon="1.01934">
        <ele>176.06</ele>
        <time>2015-09-26T13:19:25Z</time>
      </trkpt>
      <trkpt lat="44.41368" lon="1.0194">
        <ele>173.66</ele>
        <time>2015-09-26T13:19:38Z</time>
      </trkpt>
      <trkpt lat="44.41366" lon="1.01951">
        <ele>170.29</ele>
        <time>2015-09-26T13:19:54Z</time>
      </trkpt>
      <trkpt lat="44.41363" lon="1.01962">
        <ele>169.33</ele>
        <time>2015-09-26T13:19:56Z</time>
      </trkpt>
      <trkpt lat="44.41355" lon="1.0199">
        <ele>166.93</ele>
        <time>2015-09-26T13:20:00Z</time>
      </trkpt>
      <trkpt lat="44.41346" lon="1.02016">
        <ele>164.52</ele>
        <time>2015-09-26T13:20:04Z</time>
      </trkpt>
      <trkpt lat="44.41314" lon="1.02075">
        <ele>164.04</ele>
        <time>2015-09-26T13:20:17Z</time>
      </trkpt>
      <trkpt lat="44.41292" lon="1.02105">
        <ele>161.64</ele>
        <time>2015-09-26T13:20:28Z</time>
      </trkpt>
      <trkpt lat="44.41268" lon="1.02126">
        <ele>162.12</ele>
        <time>2015-09-26T13:20:38Z</time>
      </trkpt>
      <trkpt lat="44.41234" lon="1.02159">
        <ele>165.48</ele>
        <time>2015-09-26T13:20:50Z</time>
      </trkpt>
      <trkpt lat="44.41206" lon="1.02191">
        <ele>168.37</ele>
        <time>2015-09-26T13:21:01Z</time>
      </trkpt>
      <trkpt lat="44.4118" lon="1.02226">
        <ele>167.41</ele>
        <time>2015-09-26T13:21:12Z</time>
      </trkpt>
      <trkpt lat="44.41178" lon="1.02228">
        <ele>167.41</ele>
        <time>2015-09-26T13:21:13Z</time>
      </trkpt>
      <trkpt lat="44.41164" lon="1.02262">
        <ele>170.29</ele>
        <time>2015-09-26T13:21:22Z</time>
      </trkpt>
      <trkpt lat="44.41152" lon="1.02289">
        <ele>174.62</ele>
        <time>2015-09-26T13:21:32Z</time>
      </trkpt>
      <trkpt lat="44.41153" lon="1.02295">
        <ele>174.62</ele>
        <time>2015-09-26T13:21:35Z</time>
      </trkpt>
      <trkpt lat="44.41154" lon="1.02302">
        <ele>175.1</ele>
        <time>2015-09-26T13:21:39Z</time>
      </trkpt>
      <trkpt lat="44.41155" lon="1.02314">
        <ele>175.58</ele>
        <time>2015-09-26T13:21:51Z</time>
      </trkpt>
      <trkpt lat="44.41155" lon="1.02317">
        <ele>175.58</ele>
        <time>2015-09-26T13:22:06Z</time>
      </trkpt>
      <trkpt lat="44.41154" lon="1.02317">
        <ele>173.66</ele>
        <time>2015-09-26T13:22:28Z</time>
      </trkpt>
      <trkpt lat="44.41153" lon="1.02316">
        <ele>173.66</ele>
        <time>2015-09-26T13:22:47Z</time>
      </trkpt>
      <trkpt lat="44.41154" lon="1.02315">
        <ele>172.21</ele>
        <time>2015-09-26T13:23:05Z</time>
      </trkpt>
      <trkpt lat="44.41154" lon="1.02314">
        <ele>172.21</ele>
        <time>2015-09-26T13:23:07Z</time>
      </trkpt>
      <trkpt lat="44.4116" lon="1.02321">
        <ele>172.69</ele>
        <time>2015-09-26T13:23:13Z</time>
      </trkpt>
      <trkpt lat="44.4117" lon="1.02332">
        <ele>173.17</ele>
        <time>2015-09-26T13:23:19Z</time>
      </trkpt>
      <trkpt lat="44.41174" lon="1.02358">
        <ele>174.14</ele>
        <time>2015-09-26T13:23:30Z</time>
      </trkpt>
      <trkpt lat="44.41177" lon="1.02366">
        <ele>174.62</ele>
        <time>2015-09-26T13:23:32Z</time>
      </trkpt>
      <trkpt lat="44.41192" lon="1.02409">
        <ele>172.69</ele>
        <time>2015-09-26T13:23:45Z</time>
      </trkpt>
      <trkpt lat="44.41208" lon="1.02445">
        <ele>172.21</ele>
        <time>2015-09-26T13:23:55Z</time>
      </trkpt>
      <trkpt lat="44.41223" lon="1.02498">
        <ele>173.17</ele>
        <time>2015-09-26T13:24:07Z</time>
      </trkpt>
      <trkpt lat="44.41225" lon="1.02552">
        <ele>173.66</ele>
        <time>2015-09-26T13:24:19Z</time>
      </trkpt>
      <trkpt lat="44.41216" lon="1.02598">
        <ele>173.17</ele>
        <time>2015-09-26T13:24:29Z</time>
      </trkpt>
      <trkpt lat="44.41191" lon="1.02649">
        <ele>174.14</ele>
        <time>2015-09-26T13:24:42Z</time>
      </trkpt>
      <trkpt lat="44.41183" lon="1.02688">
        <ele>175.1</ele>
        <time>2015-09-26T13:24:51Z</time>
      </trkpt>
      <trkpt lat="44.41187" lon="1.02705">
        <ele>176.54</ele>
        <time>2015-09-26T13:24:55Z</time>
      </trkpt>
      <trkpt lat="44.41208" lon="1.02728">
        <ele>177.5</ele>
        <time>2015-09-26T13:25:06Z</time>
      </trkpt>
      <trkpt lat="44.4123" lon="1.02737">
        <ele>175.58</ele>
        <time>2015-09-26T13:25:14Z</time>
      </trkpt>
      <trkpt lat="44.41254" lon="1.02747">
        <ele>174.14</ele>
        <time>2015-09-26T13:25:24Z</time>
      </trkpt>
      <trkpt lat="44.41279" lon="1.02768">
        <ele>173.17</ele>
        <time>2015-09-26T13:25:33Z</time>
      </trkpt>
      <trkpt lat="44.41298" lon="1.02789">
        <ele>172.21</ele>
        <time>2015-09-26T13:25:42Z</time>
      </trkpt>
      <trkpt lat="44.41313" lon="1.02833">
        <ele>162.12</ele>
        <time>2015-09-26T13:25:53Z</time>
      </trkpt>
      <trkpt lat="44.41315" lon="1.02846">
        <ele>162.12</ele>
        <time>2015-09-26T13:25:56Z</time>
      </trkpt>
      <trkpt lat="44.41317" lon="1.02864">
        <ele>162.12</ele>
        <time>2015-09-26T13:26:00Z</time>
      </trkpt>
      <trkpt lat="44.4132" lon="1.02905">
        <ele>162.6</ele>
        <time>2015-09-26T13:26:10Z</time>
      </trkpt>
      <trkpt lat="44.41311" lon="1.02944">
        <ele>165.96</ele>
        <time>2015-09-26T13:26:22Z</time>
      </trkpt>
      <trkpt lat="44.41307" lon="1.02958">
        <ele>166.93</ele>
        <time>2015-09-26T13:26:35Z</time>
      </trkpt>
      <trkpt lat="44.41293" lon="1.02979">
        <ele>169.81</ele>
        <time>2015-09-26T13:26:51Z</time>
      </trkpt>
      <trkpt lat="44.41271" lon="1.0301">
        <ele>172.69</ele>
        <time>2015-09-26T13:27:02Z</time>
      </trkpt>
      <trkpt lat="44.41265" lon="1.03016">
        <ele>172.69</ele>
        <time>2015-09-26T13:27:05Z</time>
      </trkpt>
      <trkpt lat="44.41245" lon="1.0304">
        <ele>175.58</ele>
        <time>2015-09-26T13:27:16Z</time>
      </trkpt>
      <trkpt lat="44.41223" lon="1.03062">
        <ele>177.02</ele>
        <time>2015-09-26T13:27:26Z</time>
      </trkpt>
      <trkpt lat="44.41215" lon="1.03069">
        <ele>177.5</ele>
        <time>2015-09-26T13:27:30Z</time>
      </trkpt>
      <trkpt lat="44.41187" lon="1.03096">
        <ele>178.94</ele>
        <time>2015-09-26T13:27:42Z</time>
      </trkpt>
      <trkpt lat="44.41164" lon="1.03116">
        <ele>178.94</ele>
        <time>2015-09-26T13:27:51Z</time>
      </trkpt>
      <trkpt lat="44.4114" lon="1.03135">
        <ele>178.46</ele>
        <time>2015-09-26T13:28:01Z</time>
      </trkpt>
      <trkpt lat="44.41129" lon="1.03157">
        <ele>179.42</ele>
        <time>2015-09-26T13:28:10Z</time>
      </trkpt>
      <trkpt lat="44.41133" lon="1.03166">
        <ele>179.42</ele>
        <time>2015-09-26T13:28:14Z</time>
      </trkpt>
      <trkpt lat="44.41143" lon="1.03177">
        <ele>177.98</ele>
        <time>2015-09-26T13:28:21Z</time>
      </trkpt>
      <trkpt lat="44.41154" lon="1.03185">
        <ele>177.02</ele>
        <time>2015-09-26T13:28:26Z</time>
      </trkpt>
      <trkpt lat="44.41165" lon="1.03188">
        <ele>177.5</ele>
        <time>2015-09-26T13:28:30Z</time>
      </trkpt>
      <trkpt lat="44.41183" lon="1.03195">
        <ele>176.54</ele>
        <time>2015-09-26T13:28:39Z</time>
      </trkpt>
      <trkpt lat="44.41195" lon="1.03208">
        <ele>176.54</ele>
        <time>2015-09-26T13:28:46Z</time>
      </trkpt>
      <trkpt lat="44.41202" lon="1.03211">
        <ele>177.02</ele>
        <time>2015-09-26T13:28:50Z</time>
      </trkpt>
      <trkpt lat="44.41213" lon="1.03215">
        <ele>177.98</ele>
        <time>2015-09-26T13:28:57Z</time>
      </trkpt>
      <trkpt lat="44.4122" lon="1.03233">
        <ele>179.42</ele>
        <time>2015-09-26T13:29:07Z</time>
      </trkpt>
      <trkpt lat="44.41226" lon="1.03235">
        <ele>179.9</ele>
        <time>2015-09-26T13:29:11Z</time>
      </trkpt>
      <trkpt lat="44.41235" lon="1.03232">
        <ele>180.87</ele>
        <time>2015-09-26T13:29:17Z</time>
      </trkpt>
      <trkpt lat="44.41241" lon="1.03232">
        <ele>180.87</ele>
        <time>2015-09-26T13:29:21Z</time>
      </trkpt>
      <trkpt lat="44.41253" lon="1.03238">
        <ele>180.87</ele>
        <time>2015-09-26T13:29:28Z</time>
      </trkpt>
      <trkpt lat="44.41266" lon="1.03242">
        <ele>180.87</ele>
        <time>2015-09-26T13:29:35Z</time>
      </trkpt>
      <trkpt lat="44.41275" lon="1.03258">
        <ele>177.98</ele>
        <time>2015-09-26T13:29:45Z</time>
      </trkpt>
      <trkpt lat="44.4128" lon="1.03274">
        <ele>175.58</ele>
        <time>2015-09-26T13:29:53Z</time>
      </trkpt>
      <trkpt lat="44.41284" lon="1.0331">
        <ele>177.02</ele>
        <time>2015-09-26T13:30:02Z</time>
      </trkpt>
      <trkpt lat="44.41285" lon="1.03324">
        <ele>177.5</ele>
        <time>2015-09-26T13:30:05Z</time>
      </trkpt>
      <trkpt lat="44.41286" lon="1.03341">
        <ele>177.5</ele>
        <time>2015-09-26T13:30:10Z</time>
      </trkpt>
      <trkpt lat="44.41282" lon="1.03358">
        <ele>176.06</ele>
        <time>2015-09-26T13:30:15Z</time>
      </trkpt>
      <trkpt lat="44.41283" lon="1.03397">
        <ele>177.02</ele>
        <time>2015-09-26T13:30:25Z</time>
      </trkpt>
      <trkpt lat="44.41295" lon="1.03436">
        <ele>179.42</ele>
        <time>2015-09-26T13:30:35Z</time>
      </trkpt>
      <trkpt lat="44.41297" lon="1.03442">
        <ele>179.42</ele>
        <time>2015-09-26T13:30:37Z</time>
      </trkpt>
      <trkpt lat="44.41329" lon="1.03452">
        <ele>180.87</ele>
        <time>2015-09-26T13:30:48Z</time>
      </trkpt>
      <trkpt lat="44.41359" lon="1.03435">
        <ele>183.75</ele>
        <time>2015-09-26T13:30:59Z</time>
      </trkpt>
      <trkpt lat="44.41365" lon="1.03425">
        <ele>185.19</ele>
        <time>2015-09-26T13:31:03Z</time>
      </trkpt>
      <trkpt lat="44.41377" lon="1.03402">
        <ele>184.71</ele>
        <time>2015-09-26T13:31:12Z</time>
      </trkpt>
      <trkpt lat="44.41391" lon="1.03391">
        <ele>184.23</ele>
        <time>2015-09-26T13:31:23Z</time>
      </trkpt>
      <trkpt lat="44.41415" lon="1.03378">
        <ele>184.23</ele>
        <time>2015-09-26T13:31:32Z</time>
      </trkpt>
      <trkpt lat="44.41449" lon="1.0338">
        <ele>183.75</ele>
        <time>2015-09-26T13:31:42Z</time>
      </trkpt>
      <trkpt lat="44.41484" lon="1.03401">
        <ele>181.35</ele>
        <time>2015-09-26T13:31:54Z</time>
      </trkpt>
      <trkpt lat="44.41485" lon="1.03404">
        <ele>181.35</ele>
        <time>2015-09-26T13:31:56Z</time>
      </trkpt>
      <trkpt lat="44.41488" lon="1.03412">
        <ele>179.9</ele>
        <time>2015-09-26T13:32:00Z</time>
      </trkpt>
      <trkpt lat="44.41525" lon="1.03441">
        <ele>179.9</ele>
        <time>2015-09-26T13:32:12Z</time>
      </trkpt>
      <trkpt lat="44.41546" lon="1.03471">
        <ele>178.94</ele>
        <time>2015-09-26T13:32:22Z</time>
      </trkpt>
      <trkpt lat="44.4156" lon="1.03501">
        <ele>182.31</ele>
        <time>2015-09-26T13:32:33Z</time>
      </trkpt>
      <trkpt lat="44.41581" lon="1.03516">
        <ele>186.63</ele>
        <time>2015-09-26T13:32:44Z</time>
      </trkpt>
      <trkpt lat="44.41586" lon="1.03516">
        <ele>187.59</ele>
        <time>2015-09-26T13:32:46Z</time>
      </trkpt>
      <trkpt lat="44.41612" lon="1.03521">
        <ele>191.44</ele>
        <time>2015-09-26T13:32:58Z</time>
      </trkpt>
      <trkpt lat="44.41641" lon="1.03524">
        <ele>196.73</ele>
        <time>2015-09-26T13:33:10Z</time>
      </trkpt>
      <trkpt lat="44.41648" lon="1.03524">
        <ele>197.69</ele>
        <time>2015-09-26T13:33:13Z</time>
      </trkpt>
      <trkpt lat="44.41662" lon="1.0353">
        <ele>199.13</ele>
        <time>2015-09-26T13:33:18Z</time>
      </trkpt>
      <trkpt lat="44.41674" lon="1.03536">
        <ele>201.05</ele>
        <time>2015-09-26T13:33:23Z</time>
      </trkpt>
      <trkpt lat="44.41681" lon="1.03542">
        <ele>201.53</ele>
        <time>2015-09-26T13:33:28Z</time>
      </trkpt>
      <trkpt lat="44.41689" lon="1.03548">
        <ele>202.49</ele>
        <time>2015-09-26T13:33:33Z</time>
      </trkpt>
      <trkpt lat="44.41714" lon="1.03561">
        <ele>207.78</ele>
        <time>2015-09-26T13:33:44Z</time>
      </trkpt>
      <trkpt lat="44.41747" lon="1.03568">
        <ele>211.15</ele>
        <time>2015-09-26T13:33:55Z</time>
      </trkpt>
      <trkpt lat="44.41769" lon="1.03574">
        <ele>211.63</ele>
        <time>2015-09-26T13:34:04Z</time>
      </trkpt>
      <trkpt lat="44.41776" lon="1.0358">
        <ele>215.47</ele>
        <time>2015-09-26T13:34:11Z</time>
      </trkpt>
      <trkpt lat="44.41777" lon="1.03583">
        <ele>215.47</ele>
        <time>2015-09-26T13:34:13Z</time>
      </trkpt>
      <trkpt lat="44.41793" lon="1.03611">
        <ele>215.47</ele>
        <time>2015-09-26T13:34:24Z</time>
      </trkpt>
      <trkpt lat="44.41798" lon="1.03636">
        <ele>214.99</ele>
        <time>2015-09-26T13:34:34Z</time>
      </trkpt>
      <trkpt lat="44.418" lon="1.03638">
        <ele>214.99</ele>
        <time>2015-09-26T13:34:35Z</time>
      </trkpt>
      <trkpt lat="44.41826" lon="1.03675">
        <ele>218.84</ele>
        <time>2015-09-26T13:34:46Z</time>
      </trkpt>
      <trkpt lat="44.4183" lon="1.03683">
        <ele>221.24</ele>
        <time>2015-09-26T13:34:49Z</time>
      </trkpt>
      <trkpt lat="44.41838" lon="1.03692">
        <ele>223.64</ele>
        <time>2015-09-26T13:34:54Z</time>
      </trkpt>
      <trkpt lat="44.41842" lon="1.03695">
        <ele>224.12</ele>
        <time>2015-09-26T13:34:56Z</time>
      </trkpt>
      <trkpt lat="44.41854" lon="1.03706">
        <ele>223.64</ele>
        <time>2015-09-26T13:35:02Z</time>
      </trkpt>
      <trkpt lat="44.41871" lon="1.03717">
        <ele>223.64</ele>
        <time>2015-09-26T13:35:10Z</time>
      </trkpt>
      <trkpt lat="44.41884" lon="1.03752">
        <ele>225.09</ele>
        <time>2015-09-26T13:35:22Z</time>
      </trkpt>
      <trkpt lat="44.41892" lon="1.03768">
        <ele>225.57</ele>
        <time>2015-09-26T13:35:28Z</time>
      </trkpt>
      <trkpt lat="44.41913" lon="1.03789">
        <ele>227.49</ele>
        <time>2015-09-26T13:35:41Z</time>
      </trkpt>
      <trkpt lat="44.41915" lon="1.03791">
        <ele>227.97</ele>
        <time>2015-09-26T13:35:42Z</time>
      </trkpt>
      <trkpt lat="44.41918" lon="1.03795">
        <ele>228.45</ele>
        <time>2015-09-26T13:35:44Z</time>
      </trkpt>
      <trkpt lat="44.41933" lon="1.03812">
        <ele>231.81</ele>
        <time>2015-09-26T13:35:53Z</time>
      </trkpt>
      <trkpt lat="44.4195" lon="1.03831">
        <ele>233.74</ele>
        <time>2015-09-26T13:36:02Z</time>
      </trkpt>
      <trkpt lat="44.41971" lon="1.03842">
        <ele>237.1</ele>
        <time>2015-09-26T13:36:14Z</time>
      </trkpt>
      <trkpt lat="44.41992" lon="1.03843">
        <ele>239.51</ele>
        <time>2015-09-26T13:36:28Z</time>
      </trkpt>
      <trkpt lat="44.41993" lon="1.03841">
        <ele>239.02</ele>
        <time>2015-09-26T13:36:41Z</time>
      </trkpt>
      <trkpt lat="44.41993" lon="1.03841">
        <ele>239.51</ele>
        <time>2015-09-26T13:36:54Z</time>
      </trkpt>
      <trkpt lat="44.41995" lon="1.03839">
        <ele>239.02</ele>
        <time>2015-09-26T13:37:20Z</time>
      </trkpt>
      <trkpt lat="44.41995" lon="1.03839">
        <ele>239.02</ele>
        <time>2015-09-26T13:37:40Z</time>
      </trkpt>
      <trkpt lat="44.41995" lon="1.03839">
        <ele>239.51</ele>
        <time>2015-09-26T13:38:01Z</time>
      </trkpt>
      <trkpt lat="44.41995" lon="1.03838">
        <ele>239.02</ele>
        <time>2015-09-26T13:38:26Z</time>
      </trkpt>
      <trkpt lat="44.41996" lon="1.03838">
        <ele>238.54</ele>
        <time>2015-09-26T13:38:50Z</time>
      </trkpt>
      <trkpt lat="44.41996" lon="1.03838">
        <ele>238.54</ele>
        <time>2015-09-26T13:39:13Z</time>
      </trkpt>
      <trkpt lat="44.41996" lon="1.03839">
        <ele>238.06</ele>
        <time>2015-09-26T13:39:23Z</time>
      </trkpt>
      <trkpt lat="44.42" lon="1.03835">
        <ele>238.54</ele>
        <time>2015-09-26T13:39:27Z</time>
      </trkpt>
      <trkpt lat="44.42001" lon="1.03833">
        <ele>238.54</ele>
        <time>2015-09-26T13:39:28Z</time>
      </trkpt>
      <trkpt lat="44.42002" lon="1.03831">
        <ele>238.54</ele>
        <time>2015-09-26T13:39:29Z</time>
      </trkpt>
      <trkpt lat="44.42004" lon="1.03829">
        <ele>238.54</ele>
        <time>2015-09-26T13:39:30Z</time>
      </trkpt>
      <trkpt lat="44.42006" lon="1.03827">
        <ele>238.06</ele>
        <time>2015-09-26T13:39:31Z</time>
      </trkpt>
      <trkpt lat="44.42007" lon="1.03824">
        <ele>238.06</ele>
        <time>2015-09-26T13:39:32Z</time>
      </trkpt>
      <trkpt lat="44.42034" lon="1.03785">
        <ele>239.02</ele>
        <time>2015-09-26T13:39:46Z</time>
      </trkpt>
      <trkpt lat="44.42058" lon="1.03754">
        <ele>239.99</ele>
        <time>2015-09-26T13:39:58Z</time>
      </trkpt>
      <trkpt lat="44.42086" lon="1.0372">
        <ele>241.91</ele>
        <time>2015-09-26T13:40:10Z</time>
      </trkpt>
      <trkpt lat="44.4211" lon="1.03691">
        <ele>245.27</ele>
        <time>2015-09-26T13:40:21Z</time>
      </trkpt>
      <trkpt lat="44.42111" lon="1.0369">
        <ele>245.27</ele>
        <time>2015-09-26T13:40:22Z</time>
      </trkpt>
      <trkpt lat="44.42115" lon="1.0369">
        <ele>243.83</ele>
        <time>2015-09-26T13:40:32Z</time>
      </trkpt>
      <trkpt lat="44.42115" lon="1.0369">
        <ele>243.83</ele>
        <time>2015-09-26T13:40:42Z</time>
      </trkpt>
      <trkpt lat="44.42117" lon="1.0369">
        <ele>243.83</ele>
        <time>2015-09-26T13:40:43Z</time>
      </trkpt>
      <trkpt lat="44.42138" lon="1.03666">
        <ele>244.31</ele>
        <time>2015-09-26T13:40:53Z</time>
      </trkpt>
      <trkpt lat="44.42163" lon="1.03634">
        <ele>242.87</ele>
        <time>2015-09-26T13:41:03Z</time>
      </trkpt>
      <trkpt lat="44.42173" lon="1.03623">
        <ele>242.39</ele>
        <time>2015-09-26T13:41:06Z</time>
      </trkpt>
      <trkpt lat="44.42183" lon="1.03612">
        <ele>241.91</ele>
        <time>2015-09-26T13:41:09Z</time>
      </trkpt>
      <trkpt lat="44.42194" lon="1.03603">
        <ele>241.43</ele>
        <time>2015-09-26T13:41:12Z</time>
      </trkpt>
      <trkpt lat="44.42216" lon="1.03591">
        <ele>240.47</ele>
        <time>2015-09-26T13:41:17Z</time>
      </trkpt>
      <trkpt lat="44.42289" lon="1.03581">
        <ele>238.54</ele>
        <time>2015-09-26T13:41:31Z</time>
      </trkpt>
      <trkpt lat="44.42365" lon="1.03586">
        <ele>239.02</ele>
        <time>2015-09-26T13:41:47Z</time>
      </trkpt>
      <trkpt lat="44.42392" lon="1.03584">
        <ele>239.51</ele>
        <time>2015-09-26T13:41:54Z</time>
      </trkpt>
      <trkpt lat="44.42396" lon="1.03582">
        <ele>239.51</ele>
        <time>2015-09-26T13:41:55Z</time>
      </trkpt>
      <trkpt lat="44.42404" lon="1.03577">
        <ele>239.99</ele>
        <time>2015-09-26T13:41:57Z</time>
      </trkpt>
      <trkpt lat="44.42419" lon="1.03565">
        <ele>239.99</ele>
        <time>2015-09-26T13:42:01Z</time>
      </trkpt>
      <trkpt lat="44.42435" lon="1.0355">
        <ele>239.02</ele>
        <time>2015-09-26T13:42:07Z</time>
      </trkpt>
      <trkpt lat="44.42474" lon="1.03555">
        <ele>238.06</ele>
        <time>2015-09-26T13:42:17Z</time>
      </trkpt>
      <trkpt lat="44.42497" lon="1.03577">
        <ele>237.1</ele>
        <time>2015-09-26T13:42:26Z</time>
      </trkpt>
      <trkpt lat="44.4254" lon="1.03576">
        <ele>240.95</ele>
        <time>2015-09-26T13:42:39Z</time>
      </trkpt>
      <trkpt lat="44.42579" lon="1.0359">
        <ele>242.87</ele>
        <time>2015-09-26T13:42:51Z</time>
      </trkpt>
      <trkpt lat="44.42611" lon="1.03605">
        <ele>241.91</ele>
        <time>2015-09-26T13:43:01Z</time>
      </trkpt>
      <trkpt lat="44.42637" lon="1.03618">
        <ele>240.95</ele>
        <time>2015-09-26T13:43:08Z</time>
      </trkpt>
      <trkpt lat="44.42669" lon="1.03636">
        <ele>239.51</ele>
        <time>2015-09-26T13:43:16Z</time>
      </trkpt>
      <trkpt lat="44.4271" lon="1.03641">
        <ele>240.95</ele>
        <time>2015-09-26T13:43:28Z</time>
      </trkpt>
      <trkpt lat="44.42749" lon="1.03652">
        <ele>242.39</ele>
        <time>2015-09-26T13:43:41Z</time>
      </trkpt>
      <trkpt lat="44.42783" lon="1.03669">
        <ele>243.35</ele>
        <time>2015-09-26T13:43:53Z</time>
      </trkpt>
      <trkpt lat="44.42796" lon="1.03677">
        <ele>245.27</ele>
        <time>2015-09-26T13:43:58Z</time>
      </trkpt>
      <trkpt lat="44.42804" lon="1.03675">
        <ele>246.72</ele>
        <time>2015-09-26T13:44:02Z</time>
      </trkpt>
      <trkpt lat="44.42812" lon="1.03672">
        <ele>247.2</ele>
        <time>2015-09-26T13:44:15Z</time>
      </trkpt>
      <trkpt lat="44.42814" lon="1.03671">
        <ele>247.2</ele>
        <time>2015-09-26T13:44:36Z</time>
      </trkpt>
      <trkpt lat="44.42815" lon="1.03673">
        <ele>245.75</ele>
        <time>2015-09-26T13:44:59Z</time>
      </trkpt>
      <trkpt lat="44.42815" lon="1.03672">
        <ele>245.27</ele>
        <time>2015-09-26T13:45:08Z</time>
      </trkpt>
      <trkpt lat="44.42805" lon="1.03682">
        <ele>246.23</ele>
        <time>2015-09-26T13:45:17Z</time>
      </trkpt>
      <trkpt lat="44.42803" lon="1.03679">
        <ele>244.79</ele>
        <time>2015-09-26T13:45:32Z</time>
      </trkpt>
      <trkpt lat="44.42803" lon="1.03679">
        <ele>244.31</ele>
        <time>2015-09-26T13:45:49Z</time>
      </trkpt>
      <trkpt lat="44.42803" lon="1.0368">
        <ele>244.31</ele>
        <time>2015-09-26T13:46:05Z</time>
      </trkpt>
      <trkpt lat="44.42806" lon="1.03682">
        <ele>245.75</ele>
        <time>2015-09-26T13:46:08Z</time>
      </trkpt>
      <trkpt lat="44.42809" lon="1.03681">
        <ele>246.23</ele>
        <time>2015-09-26T13:46:11Z</time>
      </trkpt>
      <trkpt lat="44.42811" lon="1.03678">
        <ele>246.23</ele>
        <time>2015-09-26T13:46:12Z</time>
      </trkpt>
      <trkpt lat="44.42813" lon="1.03675">
        <ele>246.23</ele>
        <time>2015-09-26T13:46:13Z</time>
      </trkpt>
      <trkpt lat="44.42825" lon="1.03648">
        <ele>244.79</ele>
        <time>2015-09-26T13:46:19Z</time>
      </trkpt>
      <trkpt lat="44.42827" lon="1.03641">
        <ele>244.31</ele>
        <time>2015-09-26T13:46:20Z</time>
      </trkpt>
      <trkpt lat="44.42837" lon="1.03584">
        <ele>241.43</ele>
        <time>2015-09-26T13:46:27Z</time>
      </trkpt>
      <trkpt lat="44.42839" lon="1.03575">
        <ele>240.95</ele>
        <time>2015-09-26T13:46:28Z</time>
      </trkpt>
      <trkpt lat="44.42856" lon="1.03507">
        <ele>239.99</ele>
        <time>2015-09-26T13:46:36Z</time>
      </trkpt>
      <trkpt lat="44.42858" lon="1.03501">
        <ele>239.99</ele>
        <time>2015-09-26T13:46:37Z</time>
      </trkpt>
      <trkpt lat="44.42884" lon="1.03401">
        <ele>239.99</ele>
        <time>2015-09-26T13:46:53Z</time>
      </trkpt>
      <trkpt lat="44.42886" lon="1.03388">
        <ele>239.99</ele>
        <time>2015-09-26T13:46:55Z</time>
      </trkpt>
      <trkpt lat="44.4289" lon="1.03356">
        <ele>241.43</ele>
        <time>2015-09-26T13:47:00Z</time>
      </trkpt>
      <trkpt lat="44.4289" lon="1.0335">
        <ele>241.91</ele>
        <time>2015-09-26T13:47:01Z</time>
      </trkpt>
      <trkpt lat="44.42893" lon="1.03326">
        <ele>243.35</ele>
        <time>2015-09-26T13:47:05Z</time>
      </trkpt>
      <trkpt lat="44.42893" lon="1.0332">
        <ele>243.83</ele>
        <time>2015-09-26T13:47:06Z</time>
      </trkpt>
      <trkpt lat="44.42893" lon="1.03314">
        <ele>244.31</ele>
        <time>2015-09-26T13:47:07Z</time>
      </trkpt>
      <trkpt lat="44.42894" lon="1.03303">
        <ele>244.79</ele>
        <time>2015-09-26T13:47:09Z</time>
      </trkpt>
      <trkpt lat="44.42896" lon="1.03232">
        <ele>244.79</ele>
        <time>2015-09-26T13:47:22Z</time>
      </trkpt>
      <trkpt lat="44.42895" lon="1.03125">
        <ele>243.35</ele>
        <time>2015-09-26T13:47:37Z</time>
      </trkpt>
      <trkpt lat="44.42883" lon="1.03011">
        <ele>243.35</ele>
        <time>2015-09-26T13:47:53Z</time>
      </trkpt>
      <trkpt lat="44.42879" lon="1.0299">
        <ele>242.87</ele>
        <time>2015-09-26T13:47:56Z</time>
      </trkpt>
      <trkpt lat="44.42878" lon="1.02982">
        <ele>242.87</ele>
        <time>2015-09-26T13:47:57Z</time>
      </trkpt>
      <trkpt lat="44.42876" lon="1.02975">
        <ele>242.39</ele>
        <time>2015-09-26T13:47:58Z</time>
      </trkpt>
      <trkpt lat="44.42869" lon="1.02886">
        <ele>241.91</ele>
        <time>2015-09-26T13:48:10Z</time>
      </trkpt>
      <trkpt lat="44.42868" lon="1.02873">
        <ele>242.39</ele>
        <time>2015-09-26T13:48:12Z</time>
      </trkpt>
      <trkpt lat="44.42867" lon="1.0286">
        <ele>242.87</ele>
        <time>2015-09-26T13:48:14Z</time>
      </trkpt>
      <trkpt lat="44.42865" lon="1.02853">
        <ele>243.35</ele>
        <time>2015-09-26T13:48:15Z</time>
      </trkpt>
      <trkpt lat="44.42853" lon="1.0281">
        <ele>242.87</ele>
        <time>2015-09-26T13:48:21Z</time>
      </trkpt>
      <trkpt lat="44.4285" lon="1.02802">
        <ele>242.39</ele>
        <time>2015-09-26T13:48:22Z</time>
      </trkpt>
      <trkpt lat="44.42836" lon="1.02771">
        <ele>240.47</ele>
        <time>2015-09-26T13:48:26Z</time>
      </trkpt>
      <trkpt lat="44.42834" lon="1.02762">
        <ele>239.99</ele>
        <time>2015-09-26T13:48:27Z</time>
      </trkpt>
      <trkpt lat="44.42832" lon="1.02752">
        <ele>239.51</ele>
        <time>2015-09-26T13:48:28Z</time>
      </trkpt>
      <trkpt lat="44.42831" lon="1.02742">
        <ele>239.02</ele>
        <time>2015-09-26T13:48:29Z</time>
      </trkpt>
      <trkpt lat="44.4283" lon="1.02731">
        <ele>238.54</ele>
        <time>2015-09-26T13:48:30Z</time>
      </trkpt>
      <trkpt lat="44.42829" lon="1.02721">
        <ele>238.06</ele>
        <time>2015-09-26T13:48:31Z</time>
      </trkpt>
      <trkpt lat="44.42826" lon="1.0269">
        <ele>236.62</ele>
        <time>2015-09-26T13:48:34Z</time>
      </trkpt>
      <trkpt lat="44.42817" lon="1.02536">
        <ele>233.26</ele>
        <time>2015-09-26T13:48:50Z</time>
      </trkpt>
      <trkpt lat="44.42847" lon="1.02412">
        <ele>229.41</ele>
        <time>2015-09-26T13:49:03Z</time>
      </trkpt>
      <trkpt lat="44.42917" lon="1.02274">
        <ele>223.64</ele>
        <time>2015-09-26T13:49:17Z</time>
      </trkpt>
      <trkpt lat="44.42925" lon="1.02251">
        <ele>222.68</ele>
        <time>2015-09-26T13:49:19Z</time>
      </trkpt>
      <trkpt lat="44.42928" lon="1.02238">
        <ele>222.2</ele>
        <time>2015-09-26T13:49:20Z</time>
      </trkpt>
      <trkpt lat="44.42929" lon="1.02225">
        <ele>221.72</ele>
        <time>2015-09-26T13:49:21Z</time>
      </trkpt>
      <trkpt lat="44.4293" lon="1.02211">
        <ele>221.24</ele>
        <time>2015-09-26T13:49:22Z</time>
      </trkpt>
      <trkpt lat="44.4293" lon="1.02198">
        <ele>220.76</ele>
        <time>2015-09-26T13:49:23Z</time>
      </trkpt>
      <trkpt lat="44.42929" lon="1.02184">
        <ele>220.28</ele>
        <time>2015-09-26T13:49:24Z</time>
      </trkpt>
      <trkpt lat="44.42927" lon="1.02172">
        <ele>219.8</ele>
        <time>2015-09-26T13:49:25Z</time>
      </trkpt>
      <trkpt lat="44.42921" lon="1.02119">
        <ele>217.4</ele>
        <time>2015-09-26T13:49:32Z</time>
      </trkpt>
      <trkpt lat="44.42921" lon="1.02117">
        <ele>217.4</ele>
        <time>2015-09-26T13:49:42Z</time>
      </trkpt>
      <trkpt lat="44.42921" lon="1.02115">
        <ele>217.4</ele>
        <time>2015-09-26T13:49:51Z</time>
      </trkpt>
      <trkpt lat="44.42922" lon="1.02112">
        <ele>217.4</ele>
        <time>2015-09-26T13:49:52Z</time>
      </trkpt>
      <trkpt lat="44.42922" lon="1.02108">
        <ele>217.4</ele>
        <time>2015-09-26T13:49:53Z</time>
      </trkpt>
      <trkpt lat="44.42922" lon="1.02103">
        <ele>217.4</ele>
        <time>2015-09-26T13:49:54Z</time>
      </trkpt>
      <trkpt lat="44.42922" lon="1.02097">
        <ele>217.4</ele>
        <time>2015-09-26T13:49:55Z</time>
      </trkpt>
      <trkpt lat="44.42922" lon="1.0209">
        <ele>216.91</ele>
        <time>2015-09-26T13:49:56Z</time>
      </trkpt>
      <trkpt lat="44.42923" lon="1.02083">
        <ele>216.91</ele>
        <time>2015-09-26T13:49:57Z</time>
      </trkpt>
      <trkpt lat="44.42924" lon="1.02075">
        <ele>216.43</ele>
        <time>2015-09-26T13:49:58Z</time>
      </trkpt>
      <trkpt lat="44.42926" lon="1.02067">
        <ele>215.95</ele>
        <time>2015-09-26T13:49:59Z</time>
      </trkpt>
      <trkpt lat="44.42928" lon="1.02059">
        <ele>215.47</ele>
        <time>2015-09-26T13:50:00Z</time>
      </trkpt>
      <trkpt lat="44.42966" lon="1.01936">
        <ele>211.15</ele>
        <time>2015-09-26T13:50:13Z</time>
      </trkpt>
      <trkpt lat="44.42998" lon="1.01831">
        <ele>212.59</ele>
        <time>2015-09-26T13:50:27Z</time>
      </trkpt>
      <trkpt lat="44.43005" lon="1.01805">
        <ele>213.07</ele>
        <time>2015-09-26T13:50:31Z</time>
      </trkpt>
      <trkpt lat="44.43007" lon="1.01798">
        <ele>213.07</ele>
        <time>2015-09-26T13:50:32Z</time>
      </trkpt>
      <trkpt lat="44.43012" lon="1.01778">
        <ele>214.03</ele>
        <time>2015-09-26T13:50:35Z</time>
      </trkpt>
      <trkpt lat="44.43012" lon="1.01772">
        <ele>214.03</ele>
        <time>2015-09-26T13:50:36Z</time>
      </trkpt>
      <trkpt lat="44.43011" lon="1.01765">
        <ele>214.51</ele>
        <time>2015-09-26T13:50:37Z</time>
      </trkpt>
      <trkpt lat="44.43009" lon="1.01759">
        <ele>214.51</ele>
        <time>2015-09-26T13:50:38Z</time>
      </trkpt>
      <trkpt lat="44.43006" lon="1.01754">
        <ele>214.51</ele>
        <time>2015-09-26T13:50:39Z</time>
      </trkpt>
      <trkpt lat="44.43003" lon="1.01749">
        <ele>214.51</ele>
        <time>2015-09-26T13:50:40Z</time>
      </trkpt>
      <trkpt lat="44.42967" lon="1.0168">
        <ele>215.95</ele>
        <time>2015-09-26T13:50:53Z</time>
      </trkpt>
      <trkpt lat="44.42964" lon="1.01676">
        <ele>215.95</ele>
        <time>2015-09-26T13:50:54Z</time>
      </trkpt>
      <trkpt lat="44.42961" lon="1.01671">
        <ele>215.95</ele>
        <time>2015-09-26T13:50:55Z</time>
      </trkpt>
      <trkpt lat="44.42958" lon="1.01667">
        <ele>216.43</ele>
        <time>2015-09-26T13:50:56Z</time>
      </trkpt>
      <trkpt lat="44.42955" lon="1.01662">
        <ele>216.91</ele>
        <time>2015-09-26T13:50:57Z</time>
      </trkpt>
      <trkpt lat="44.42926" lon="1.01623">
        <ele>220.76</ele>
        <time>2015-09-26T13:51:07Z</time>
      </trkpt>
      <trkpt lat="44.42919" lon="1.01617">
        <ele>221.24</ele>
        <time>2015-09-26T13:51:09Z</time>
      </trkpt>
      <trkpt lat="44.42916" lon="1.01613">
        <ele>221.24</ele>
        <time>2015-09-26T13:51:10Z</time>
      </trkpt>
      <trkpt lat="44.42913" lon="1.01608">
        <ele>221.72</ele>
        <time>2015-09-26T13:51:11Z</time>
      </trkpt>
      <trkpt lat="44.42911" lon="1.01602">
        <ele>222.2</ele>
        <time>2015-09-26T13:51:12Z</time>
      </trkpt>
      <trkpt lat="44.4291" lon="1.01596">
        <ele>222.2</ele>
        <time>2015-09-26T13:51:13Z</time>
      </trkpt>
      <trkpt lat="44.42909" lon="1.01591">
        <ele>222.68</ele>
        <time>2015-09-26T13:51:14Z</time>
      </trkpt>
      <trkpt lat="44.42908" lon="1.01585">
        <ele>222.68</ele>
        <time>2015-09-26T13:51:15Z</time>
      </trkpt>
      <trkpt lat="44.42908" lon="1.01579">
        <ele>223.16</ele>
        <time>2015-09-26T13:51:16Z</time>
      </trkpt>
      <trkpt lat="44.4291" lon="1.01558">
        <ele>224.61</ele>
        <time>2015-09-26T13:51:20Z</time>
      </trkpt>
      <trkpt lat="44.42912" lon="1.01552">
        <ele>224.61</ele>
        <time>2015-09-26T13:51:21Z</time>
      </trkpt>
      <trkpt lat="44.42913" lon="1.01547">
        <ele>225.09</ele>
        <time>2015-09-26T13:51:22Z</time>
      </trkpt>
      <trkpt lat="44.42932" lon="1.01494">
        <ele>226.05</ele>
        <time>2015-09-26T13:51:32Z</time>
      </trkpt>
      <trkpt lat="44.42934" lon="1.0149">
        <ele>226.05</ele>
        <time>2015-09-26T13:51:33Z</time>
      </trkpt>
      <trkpt lat="44.42937" lon="1.01487">
        <ele>226.53</ele>
        <time>2015-09-26T13:51:34Z</time>
      </trkpt>
      <trkpt lat="44.4294" lon="1.01486">
        <ele>226.53</ele>
        <time>2015-09-26T13:51:35Z</time>
      </trkpt>
      <trkpt lat="44.42944" lon="1.01485">
        <ele>226.53</ele>
        <time>2015-09-26T13:51:36Z</time>
      </trkpt>
      <trkpt lat="44.42947" lon="1.01484">
        <ele>226.53</ele>
        <time>2015-09-26T13:51:37Z</time>
      </trkpt>
      <trkpt lat="44.42951" lon="1.01482">
        <ele>226.53</ele>
        <time>2015-09-26T13:51:38Z</time>
      </trkpt>
      <trkpt lat="44.42955" lon="1.0148">
        <ele>226.53</ele>
        <time>2015-09-26T13:51:39Z</time>
      </trkpt>
      <trkpt lat="44.42957" lon="1.01478">
        <ele>226.53</ele>
        <time>2015-09-26T13:51:40Z</time>
      </trkpt>
      <trkpt lat="44.4296" lon="1.01476">
        <ele>226.53</ele>
        <time>2015-09-26T13:51:41Z</time>
      </trkpt>
      <trkpt lat="44.42963" lon="1.01472">
        <ele>227.01</ele>
        <time>2015-09-26T13:51:50Z</time>
      </trkpt>
      <trkpt lat="44.42962" lon="1.0147">
        <ele>227.01</ele>
        <time>2015-09-26T13:51:57Z</time>
      </trkpt>
      <trkpt lat="44.42961" lon="1.01469">
        <ele>227.01</ele>
        <time>2015-09-26T13:51:58Z</time>
      </trkpt>
      <trkpt lat="44.42944" lon="1.01467">
        <ele>227.49</ele>
        <time>2015-09-26T13:52:14Z</time>
      </trkpt>
      <trkpt lat="44.42946" lon="1.0147">
        <ele>225.57</ele>
        <time>2015-09-26T13:52:46Z</time>
      </trkpt>
      <trkpt lat="44.42945" lon="1.01471">
        <ele>226.05</ele>
        <time>2015-09-26T13:53:16Z</time>
      </trkpt>
      <trkpt lat="44.42945" lon="1.0147">
        <ele>225.09</ele>
        <time>2015-09-26T13:53:48Z</time>
      </trkpt>
      <trkpt lat="44.42944" lon="1.01468">
        <ele>223.64</ele>
        <time>2015-09-26T13:54:21Z</time>
      </trkpt>
      <trkpt lat="44.42945" lon="1.01468">
        <ele>224.61</ele>
        <time>2015-09-26T13:55:09Z</time>
      </trkpt>
      <trkpt lat="44.42944" lon="1.01468">
        <ele>224.61</ele>
        <time>2015-09-26T13:55:50Z</time>
      </trkpt>
      <trkpt lat="44.42944" lon="1.01471">
        <ele>227.01</ele>
        <time>2015-09-26T13:56:36Z</time>
      </trkpt>
      <trkpt lat="44.42945" lon="1.01471">
        <ele>227.01</ele>
        <time>2015-09-26T13:57:18Z</time>
      </trkpt>
      <trkpt lat="44.42945" lon="1.0147">
        <ele>227.01</ele>
        <time>2015-09-26T13:58:08Z</time>
      </trkpt>
      <trkpt lat="44.42946" lon="1.0147">
        <ele>227.49</ele>
        <time>2015-09-26T13:58:53Z</time>
      </trkpt>
      <trkpt lat="44.42946" lon="1.0147">
        <ele>227.01</ele>
        <time>2015-09-26T13:59:21Z</time>
      </trkpt>
      <trkpt lat="44.42946" lon="1.01469">
        <ele>225.09</ele>
        <time>2015-09-26T14:00:01Z</time>
      </trkpt>
      <trkpt lat="44.42945" lon="1.0147">
        <ele>224.61</ele>
        <time>2015-09-26T14:00:39Z</time>
      </trkpt>
      <trkpt lat="44.42943" lon="1.01469">
        <ele>226.53</ele>
        <time>2015-09-26T14:01:15Z</time>
      </trkpt>
      <trkpt lat="44.42945" lon="1.01469">
        <ele>226.53</ele>
        <time>2015-09-26T14:01:58Z</time>
      </trkpt>
      <trkpt lat="44.42945" lon="1.01469">
        <ele>227.01</ele>
        <time>2015-09-26T14:02:45Z</time>
      </trkpt>
      <trkpt lat="44.42945" lon="1.01467">
        <ele>224.12</ele>
        <time>2015-09-26T14:03:22Z</time>
      </trkpt>
      <trkpt lat="44.42946" lon="1.01469">
        <ele>225.57</ele>
        <time>2015-09-26T14:04:06Z</time>
      </trkpt>
      <trkpt lat="44.42947" lon="1.01467">
        <ele>226.05</ele>
        <time>2015-09-26T14:04:33Z</time>
      </trkpt>
      <trkpt lat="44.42947" lon="1.01468">
        <ele>226.53</ele>
        <time>2015-09-26T14:04:50Z</time>
      </trkpt>
      <trkpt lat="44.42947" lon="1.01469">
        <ele>226.53</ele>
        <time>2015-09-26T14:05:15Z</time>
      </trkpt>
      <trkpt lat="44.42947" lon="1.01469">
        <ele>227.01</ele>
        <time>2015-09-26T14:05:33Z</time>
      </trkpt>
      <trkpt lat="44.42948" lon="1.01471">
        <ele>227.01</ele>
        <time>2015-09-26T14:05:34Z</time>
      </trkpt>
      <trkpt lat="44.42949" lon="1.01472">
        <ele>227.01</ele>
        <time>2015-09-26T14:05:35Z</time>
      </trkpt>
      <trkpt lat="44.42951" lon="1.01473">
        <ele>227.01</ele>
        <time>2015-09-26T14:05:36Z</time>
      </trkpt>
      <trkpt lat="44.42953" lon="1.01472">
        <ele>227.01</ele>
        <time>2015-09-26T14:05:37Z</time>
      </trkpt>
      <trkpt lat="44.42955" lon="1.01471">
        <ele>227.01</ele>
        <time>2015-09-26T14:05:38Z</time>
      </trkpt>
      <trkpt lat="44.42957" lon="1.01469">
        <ele>227.49</ele>
        <time>2015-09-26T14:05:39Z</time>
      </trkpt>
      <trkpt lat="44.42957" lon="1.01467">
        <ele>227.49</ele>
        <time>2015-09-26T14:05:40Z</time>
      </trkpt>
      <trkpt lat="44.42957" lon="1.01466">
        <ele>227.49</ele>
        <time>2015-09-26T14:05:41Z</time>
      </trkpt>
      <trkpt lat="44.42956" lon="1.01464">
        <ele>227.49</ele>
        <time>2015-09-26T14:05:42Z</time>
      </trkpt>
      <trkpt lat="44.42956" lon="1.01461">
        <ele>227.49</ele>
        <time>2015-09-26T14:05:43Z</time>
      </trkpt>
      <trkpt lat="44.42956" lon="1.01458">
        <ele>227.49</ele>
        <time>2015-09-26T14:05:44Z</time>
      </trkpt>
      <trkpt lat="44.42956" lon="1.01456">
        <ele>227.49</ele>
        <time>2015-09-26T14:05:45Z</time>
      </trkpt>
      <trkpt lat="44.42955" lon="1.01454">
        <ele>227.49</ele>
        <time>2015-09-26T14:05:46Z</time>
      </trkpt>
      <trkpt lat="44.42953" lon="1.01452">
        <ele>227.49</ele>
        <time>2015-09-26T14:05:47Z</time>
      </trkpt>
      <trkpt lat="44.42952" lon="1.01451">
        <ele>227.49</ele>
        <time>2015-09-26T14:05:48Z</time>
      </trkpt>
      <trkpt lat="44.42951" lon="1.01449">
        <ele>227.97</ele>
        <time>2015-09-26T14:05:49Z</time>
      </trkpt>
      <trkpt lat="44.42951" lon="1.01447">
        <ele>227.97</ele>
        <time>2015-09-26T14:05:50Z</time>
      </trkpt>
      <trkpt lat="44.4295" lon="1.01446">
        <ele>227.97</ele>
        <time>2015-09-26T14:05:51Z</time>
      </trkpt>
      <trkpt lat="44.4295" lon="1.01444">
        <ele>227.97</ele>
        <time>2015-09-26T14:05:52Z</time>
      </trkpt>
      <trkpt lat="44.42949" lon="1.01442">
        <ele>227.97</ele>
        <time>2015-09-26T14:05:53Z</time>
      </trkpt>
      <trkpt lat="44.42947" lon="1.0144">
        <ele>227.97</ele>
        <time>2015-09-26T14:05:56Z</time>
      </trkpt>
      <trkpt lat="44.42946" lon="1.01439">
        <ele>227.97</ele>
        <time>2015-09-26T14:05:57Z</time>
      </trkpt>
      <trkpt lat="44.42945" lon="1.01438">
        <ele>227.97</ele>
        <time>2015-09-26T14:05:58Z</time>
      </trkpt>
      <trkpt lat="44.42946" lon="1.01436">
        <ele>227.97</ele>
        <time>2015-09-26T14:05:59Z</time>
      </trkpt>
      <trkpt lat="44.42946" lon="1.01435">
        <ele>227.97</ele>
        <time>2015-09-26T14:06:00Z</time>
      </trkpt>
      <trkpt lat="44.42947" lon="1.01436">
        <ele>227.49</ele>
        <time>2015-09-26T14:06:01Z</time>
      </trkpt>
      <trkpt lat="44.42948" lon="1.01437">
        <ele>227.49</ele>
        <time>2015-09-26T14:06:02Z</time>
      </trkpt>
      <trkpt lat="44.42948" lon="1.01439">
        <ele>227.49</ele>
        <time>2015-09-26T14:06:03Z</time>
      </trkpt>
      <trkpt lat="44.42948" lon="1.0144">
        <ele>227.49</ele>
        <time>2015-09-26T14:06:04Z</time>
      </trkpt>
      <trkpt lat="44.42946" lon="1.01441">
        <ele>227.49</ele>
        <time>2015-09-26T14:06:06Z</time>
      </trkpt>
      <trkpt lat="44.42945" lon="1.0144">
        <ele>227.49</ele>
        <time>2015-09-26T14:06:07Z</time>
      </trkpt>
      <trkpt lat="44.42945" lon="1.01437">
        <ele>227.49</ele>
        <time>2015-09-26T14:06:08Z</time>
      </trkpt>
      <trkpt lat="44.42946" lon="1.01436">
        <ele>227.49</ele>
        <time>2015-09-26T14:06:09Z</time>
      </trkpt>
      <trkpt lat="44.42947" lon="1.01435">
        <ele>227.49</ele>
        <time>2015-09-26T14:06:10Z</time>
      </trkpt>
      <trkpt lat="44.42948" lon="1.01432">
        <ele>227.49</ele>
        <time>2015-09-26T14:06:11Z</time>
      </trkpt>
      <trkpt lat="44.42948" lon="1.0143">
        <ele>227.49</ele>
        <time>2015-09-26T14:06:12Z</time>
      </trkpt>
      <trkpt lat="44.42949" lon="1.01427">
        <ele>227.49</ele>
        <time>2015-09-26T14:06:13Z</time>
      </trkpt>
      <trkpt lat="44.42949" lon="1.01424">
        <ele>227.49</ele>
        <time>2015-09-26T14:06:14Z</time>
      </trkpt>
      <trkpt lat="44.4295" lon="1.0142">
        <ele>227.49</ele>
        <time>2015-09-26T14:06:15Z</time>
      </trkpt>
      <trkpt lat="44.4295" lon="1.01417">
        <ele>227.97</ele>
        <time>2015-09-26T14:06:16Z</time>
      </trkpt>
      <trkpt lat="44.42951" lon="1.01414">
        <ele>227.97</ele>
        <time>2015-09-26T14:06:17Z</time>
      </trkpt>
      <trkpt lat="44.42951" lon="1.0141">
        <ele>227.97</ele>
        <time>2015-09-26T14:06:18Z</time>
      </trkpt>
      <trkpt lat="44.42953" lon="1.0137">
        <ele>228.45</ele>
        <time>2015-09-26T14:06:29Z</time>
      </trkpt>
      <trkpt lat="44.42956" lon="1.01354">
        <ele>228.45</ele>
        <time>2015-09-26T14:06:34Z</time>
      </trkpt>
      <trkpt lat="44.42959" lon="1.01352">
        <ele>228.45</ele>
        <time>2015-09-26T14:06:35Z</time>
      </trkpt>
      <trkpt lat="44.42961" lon="1.01351">
        <ele>228.45</ele>
        <time>2015-09-26T14:06:36Z</time>
      </trkpt>
      <trkpt lat="44.42964" lon="1.0135">
        <ele>228.45</ele>
        <time>2015-09-26T14:06:37Z</time>
      </trkpt>
      <trkpt lat="44.42967" lon="1.01349">
        <ele>228.45</ele>
        <time>2015-09-26T14:06:38Z</time>
      </trkpt>
      <trkpt lat="44.43001" lon="1.01322">
        <ele>227.97</ele>
        <time>2015-09-26T14:06:50Z</time>
      </trkpt>
      <trkpt lat="44.43014" lon="1.01297">
        <ele>227.49</ele>
        <time>2015-09-26T14:06:56Z</time>
      </trkpt>
      <trkpt lat="44.43021" lon="1.01255">
        <ele>227.01</ele>
        <time>2015-09-26T14:07:02Z</time>
      </trkpt>
      <trkpt lat="44.43026" lon="1.01152">
        <ele>224.12</ele>
        <time>2015-09-26T14:07:15Z</time>
      </trkpt>
      <trkpt lat="44.43028" lon="1.01144">
        <ele>224.12</ele>
        <time>2015-09-26T14:07:16Z</time>
      </trkpt>
      <trkpt lat="44.43031" lon="1.01137">
        <ele>223.64</ele>
        <time>2015-09-26T14:07:17Z</time>
      </trkpt>
      <trkpt lat="44.43035" lon="1.0113">
        <ele>223.16</ele>
        <time>2015-09-26T14:07:18Z</time>
      </trkpt>
      <trkpt lat="44.43039" lon="1.01123">
        <ele>223.16</ele>
        <time>2015-09-26T14:07:19Z</time>
      </trkpt>
      <trkpt lat="44.43043" lon="1.01116">
        <ele>222.68</ele>
        <time>2015-09-26T14:07:20Z</time>
      </trkpt>
      <trkpt lat="44.43071" lon="1.01076">
        <ele>221.24</ele>
        <time>2015-09-26T14:07:26Z</time>
      </trkpt>
      <trkpt lat="44.43077" lon="1.01071">
        <ele>220.76</ele>
        <time>2015-09-26T14:07:27Z</time>
      </trkpt>
      <trkpt lat="44.43084" lon="1.01067">
        <ele>220.28</ele>
        <time>2015-09-26T14:07:28Z</time>
      </trkpt>
      <trkpt lat="44.43091" lon="1.01064">
        <ele>220.28</ele>
        <time>2015-09-26T14:07:29Z</time>
      </trkpt>
      <trkpt lat="44.43098" lon="1.01059">
        <ele>219.8</ele>
        <time>2015-09-26T14:07:30Z</time>
      </trkpt>
      <trkpt lat="44.43104" lon="1.01053">
        <ele>219.32</ele>
        <time>2015-09-26T14:07:31Z</time>
      </trkpt>
      <trkpt lat="44.43109" lon="1.01045">
        <ele>218.84</ele>
        <time>2015-09-26T14:07:32Z</time>
      </trkpt>
      <trkpt lat="44.43113" lon="1.01037">
        <ele>218.36</ele>
        <time>2015-09-26T14:07:33Z</time>
      </trkpt>
      <trkpt lat="44.43127" lon="1.01012">
        <ele>217.88</ele>
        <time>2015-09-26T14:07:36Z</time>
      </trkpt>
      <trkpt lat="44.4313" lon="1.01003">
        <ele>217.88</ele>
        <time>2015-09-26T14:07:37Z</time>
      </trkpt>
      <trkpt lat="44.43132" lon="1.00993">
        <ele>217.4</ele>
        <time>2015-09-26T14:07:38Z</time>
      </trkpt>
      <trkpt lat="44.43137" lon="1.00975">
        <ele>217.4</ele>
        <time>2015-09-26T14:07:40Z</time>
      </trkpt>
      <trkpt lat="44.4314" lon="1.00967">
        <ele>217.4</ele>
        <time>2015-09-26T14:07:41Z</time>
      </trkpt>
      <trkpt lat="44.43145" lon="1.00959">
        <ele>217.4</ele>
        <time>2015-09-26T14:07:42Z</time>
      </trkpt>
      <trkpt lat="44.43149" lon="1.00951">
        <ele>216.91</ele>
        <time>2015-09-26T14:07:43Z</time>
      </trkpt>
      <trkpt lat="44.43155" lon="1.00943">
        <ele>216.91</ele>
        <time>2015-09-26T14:07:44Z</time>
      </trkpt>
      <trkpt lat="44.43212" lon="1.00854">
        <ele>214.51</ele>
        <time>2015-09-26T14:07:56Z</time>
      </trkpt>
      <trkpt lat="44.43229" lon="1.00826">
        <ele>213.07</ele>
        <time>2015-09-26T14:08:00Z</time>
      </trkpt>
      <trkpt lat="44.43238" lon="1.00811">
        <ele>212.11</ele>
        <time>2015-09-26T14:08:04Z</time>
      </trkpt>
      <trkpt lat="44.43238" lon="1.00809">
        <ele>212.59</ele>
        <time>2015-09-26T14:08:12Z</time>
      </trkpt>
      <trkpt lat="44.43221" lon="1.00777">
        <ele>208.74</ele>
        <time>2015-09-26T14:08:20Z</time>
      </trkpt>
      <trkpt lat="44.4319" lon="1.00763">
        <ele>202.49</ele>
        <time>2015-09-26T14:08:27Z</time>
      </trkpt>
      <trkpt lat="44.43168" lon="1.00771">
        <ele>199.61</ele>
        <time>2015-09-26T14:08:31Z</time>
      </trkpt>
      <trkpt lat="44.43128" lon="1.00777">
        <ele>195.77</ele>
        <time>2015-09-26T14:08:37Z</time>
      </trkpt>
      <trkpt lat="44.431" lon="1.00773">
        <ele>193.84</ele>
        <time>2015-09-26T14:08:41Z</time>
      </trkpt>
      <trkpt lat="44.4307" lon="1.00755">
        <ele>190.48</ele>
        <time>2015-09-26T14:08:46Z</time>
      </trkpt>
      <trkpt lat="44.43049" lon="1.0072">
        <ele>190.96</ele>
        <time>2015-09-26T14:08:53Z</time>
      </trkpt>
      <trkpt lat="44.43048" lon="1.00715">
        <ele>193.36</ele>
        <time>2015-09-26T14:09:04Z</time>
      </trkpt>
      <trkpt lat="44.43048" lon="1.00715">
        <ele>193.36</ele>
        <time>2015-09-26T14:09:05Z</time>
      </trkpt>
      <trkpt lat="44.43078" lon="1.00691">
        <ele>191.44</ele>
        <time>2015-09-26T14:09:14Z</time>
      </trkpt>
      <trkpt lat="44.43085" lon="1.00687">
        <ele>190.96</ele>
        <time>2015-09-26T14:09:15Z</time>
      </trkpt>
      <trkpt lat="44.43104" lon="1.00675">
        <ele>190</ele>
        <time>2015-09-26T14:09:18Z</time>
      </trkpt>
      <trkpt lat="44.43193" lon="1.00629">
        <ele>184.71</ele>
        <time>2015-09-26T14:09:31Z</time>
      </trkpt>
      <trkpt lat="44.43199" lon="1.00625">
        <ele>184.23</ele>
        <time>2015-09-26T14:09:32Z</time>
      </trkpt>
      <trkpt lat="44.43248" lon="1.00601">
        <ele>181.83</ele>
        <time>2015-09-26T14:09:40Z</time>
      </trkpt>
      <trkpt lat="44.4327" lon="1.00581">
        <ele>180.87</ele>
        <time>2015-09-26T14:09:44Z</time>
      </trkpt>
      <trkpt lat="44.43285" lon="1.00564">
        <ele>179.9</ele>
        <time>2015-09-26T14:09:47Z</time>
      </trkpt>
      <trkpt lat="44.43305" lon="1.00526">
        <ele>177.5</ele>
        <time>2015-09-26T14:09:52Z</time>
      </trkpt>
      <trkpt lat="44.43319" lon="1.0046">
        <ele>175.1</ele>
        <time>2015-09-26T14:09:59Z</time>
      </trkpt>
      <trkpt lat="44.43321" lon="1.0041">
        <ele>173.66</ele>
        <time>2015-09-26T14:10:04Z</time>
      </trkpt>
      <trkpt lat="44.43332" lon="1.00374">
        <ele>170.77</ele>
        <time>2015-09-26T14:10:08Z</time>
      </trkpt>
      <trkpt lat="44.43377" lon="1.00308">
        <ele>165</ele>
        <time>2015-09-26T14:10:17Z</time>
      </trkpt>
      <trkpt lat="44.43394" lon="1.00291">
        <ele>163.56</ele>
        <time>2015-09-26T14:10:20Z</time>
      </trkpt>
      <trkpt lat="44.43419" lon="1.00273">
        <ele>160.2</ele>
        <time>2015-09-26T14:10:24Z</time>
      </trkpt>
      <trkpt lat="44.43496" lon="1.00224">
        <ele>152.51</ele>
        <time>2015-09-26T14:10:36Z</time>
      </trkpt>
      <trkpt lat="44.43516" lon="1.00214">
        <ele>151.54</ele>
        <time>2015-09-26T14:10:39Z</time>
      </trkpt>
      <trkpt lat="44.4356" lon="1.0019">
        <ele>147.7</ele>
        <time>2015-09-26T14:10:45Z</time>
      </trkpt>
      <trkpt lat="44.43627" lon="1.00164">
        <ele>142.89</ele>
        <time>2015-09-26T14:10:54Z</time>
      </trkpt>
      <trkpt lat="44.43673" lon="1.00158">
        <ele>138.57</ele>
        <time>2015-09-26T14:11:01Z</time>
      </trkpt>
      <trkpt lat="44.43693" lon="1.00163">
        <ele>137.13</ele>
        <time>2015-09-26T14:11:04Z</time>
      </trkpt>
      <trkpt lat="44.43718" lon="1.00161">
        <ele>136.16</ele>
        <time>2015-09-26T14:11:09Z</time>
      </trkpt>
      <trkpt lat="44.43721" lon="1.00163">
        <ele>136.16</ele>
        <time>2015-09-26T14:11:10Z</time>
      </trkpt>
      <trkpt lat="44.43723" lon="1.00165">
        <ele>136.16</ele>
        <time>2015-09-26T14:11:11Z</time>
      </trkpt>
      <trkpt lat="44.43726" lon="1.00166">
        <ele>135.68</ele>
        <time>2015-09-26T14:11:12Z</time>
      </trkpt>
      <trkpt lat="44.43728" lon="1.00168">
        <ele>135.68</ele>
        <time>2015-09-26T14:11:13Z</time>
      </trkpt>
      <trkpt lat="44.43736" lon="1.00172">
        <ele>135.68</ele>
        <time>2015-09-26T14:11:22Z</time>
      </trkpt>
      <trkpt lat="44.43757" lon="1.00163">
        <ele>135.68</ele>
        <time>2015-09-26T14:11:29Z</time>
      </trkpt>
      <trkpt lat="44.43759" lon="1.00164">
        <ele>135.68</ele>
        <time>2015-09-26T14:11:30Z</time>
      </trkpt>
      <trkpt lat="44.43761" lon="1.00171">
        <ele>136.16</ele>
        <time>2015-09-26T14:11:32Z</time>
      </trkpt>
      <trkpt lat="44.4376" lon="1.00174">
        <ele>136.16</ele>
        <time>2015-09-26T14:11:33Z</time>
      </trkpt>
      <trkpt lat="44.43758" lon="1.00176">
        <ele>136.64</ele>
        <time>2015-09-26T14:11:34Z</time>
      </trkpt>
      <trkpt lat="44.43756" lon="1.00178">
        <ele>137.13</ele>
        <time>2015-09-26T14:11:35Z</time>
      </trkpt>
      <trkpt lat="44.43739" lon="1.00211">
        <ele>138.09</ele>
        <time>2015-09-26T14:11:45Z</time>
      </trkpt>
      <trkpt lat="44.43714" lon="1.0027">
        <ele>139.53</ele>
        <time>2015-09-26T14:11:58Z</time>
      </trkpt>
      <trkpt lat="44.43695" lon="1.00322">
        <ele>140.01</ele>
        <time>2015-09-26T14:12:10Z</time>
      </trkpt>
      <trkpt lat="44.43686" lon="1.00373">
        <ele>140.01</ele>
        <time>2015-09-26T14:12:20Z</time>
      </trkpt>
      <trkpt lat="44.43689" lon="1.00439">
        <ele>139.53</ele>
        <time>2015-09-26T14:12:33Z</time>
      </trkpt>
      <trkpt lat="44.43698" lon="1.00476">
        <ele>138.57</ele>
        <time>2015-09-26T14:12:43Z</time>
      </trkpt>
      <trkpt lat="44.43714" lon="1.00516">
        <ele>135.2</ele>
        <time>2015-09-26T14:12:54Z</time>
      </trkpt>
      <trkpt lat="44.43736" lon="1.00566">
        <ele>138.57</ele>
        <time>2015-09-26T14:13:08Z</time>
      </trkpt>
      <trkpt lat="44.43749" lon="1.00577">
        <ele>141.93</ele>
        <time>2015-09-26T14:13:18Z</time>
      </trkpt>
      <trkpt lat="44.43757" lon="1.00626">
        <ele>143.85</ele>
        <time>2015-09-26T14:13:29Z</time>
      </trkpt>
      <trkpt lat="44.43753" lon="1.00684">
        <ele>145.3</ele>
        <time>2015-09-26T14:13:40Z</time>
      </trkpt>
      <trkpt lat="44.4375" lon="1.00702">
        <ele>145.78</ele>
        <time>2015-09-26T14:13:43Z</time>
      </trkpt>
      <trkpt lat="44.43744" lon="1.00731">
        <ele>146.26</ele>
        <time>2015-09-26T14:13:48Z</time>
      </trkpt>
      <trkpt lat="44.43752" lon="1.0081">
        <ele>148.66</ele>
        <time>2015-09-26T14:14:02Z</time>
      </trkpt>
      <trkpt lat="44.43768" lon="1.00861">
        <ele>151.06</ele>
        <time>2015-09-26T14:14:15Z</time>
      </trkpt>
      <trkpt lat="44.4377" lon="1.00862">
        <ele>152.03</ele>
        <time>2015-09-26T14:14:28Z</time>
      </trkpt>
      <trkpt lat="44.43771" lon="1.00863">
        <ele>152.51</ele>
        <time>2015-09-26T14:14:47Z</time>
      </trkpt>
      <trkpt lat="44.43772" lon="1.00864">
        <ele>152.51</ele>
        <time>2015-09-26T14:15:05Z</time>
      </trkpt>
      <trkpt lat="44.43773" lon="1.00862">
        <ele>152.03</ele>
        <time>2015-09-26T14:15:17Z</time>
      </trkpt>
      <trkpt lat="44.43773" lon="1.00862">
        <ele>149.14</ele>
        <time>2015-09-26T14:15:44Z</time>
      </trkpt>
      <trkpt lat="44.43774" lon="1.0086">
        <ele>149.14</ele>
        <time>2015-09-26T14:15:57Z</time>
      </trkpt>
      <trkpt lat="44.43776" lon="1.00862">
        <ele>150.58</ele>
        <time>2015-09-26T14:16:14Z</time>
      </trkpt>
      <trkpt lat="44.43776" lon="1.00862">
        <ele>150.58</ele>
        <time>2015-09-26T14:16:17Z</time>
      </trkpt>
      <trkpt lat="44.43779" lon="1.00864">
        <ele>151.54</ele>
        <time>2015-09-26T14:16:23Z</time>
      </trkpt>
      <trkpt lat="44.4378" lon="1.00866">
        <ele>152.03</ele>
        <time>2015-09-26T14:16:25Z</time>
      </trkpt>
      <trkpt lat="44.43786" lon="1.00878">
        <ele>154.91</ele>
        <time>2015-09-26T14:16:36Z</time>
      </trkpt>
      <trkpt lat="44.43794" lon="1.00891">
        <ele>155.87</ele>
        <time>2015-09-26T14:16:48Z</time>
      </trkpt>
      <trkpt lat="44.43811" lon="1.00914">
        <ele>158.75</ele>
        <time>2015-09-26T14:17:07Z</time>
      </trkpt>
      <trkpt lat="44.4381" lon="1.00906">
        <ele>159.72</ele>
        <time>2015-09-26T14:17:12Z</time>
      </trkpt>
      <trkpt lat="44.43805" lon="1.00866">
        <ele>161.64</ele>
        <time>2015-09-26T14:17:26Z</time>
      </trkpt>
      <trkpt lat="44.43803" lon="1.00822">
        <ele>165</ele>
        <time>2015-09-26T14:17:40Z</time>
      </trkpt>
      <trkpt lat="44.43806" lon="1.00788">
        <ele>167.89</ele>
        <time>2015-09-26T14:17:54Z</time>
      </trkpt>
      <trkpt lat="44.43807" lon="1.0078">
        <ele>168.37</ele>
        <time>2015-09-26T14:17:59Z</time>
      </trkpt>
      <trkpt lat="44.43811" lon="1.00783">
        <ele>168.85</ele>
        <time>2015-09-26T14:18:06Z</time>
      </trkpt>
      <trkpt lat="44.43813" lon="1.00795">
        <ele>170.29</ele>
        <time>2015-09-26T14:18:14Z</time>
      </trkpt>
      <trkpt lat="44.43819" lon="1.00813">
        <ele>172.69</ele>
        <time>2015-09-26T14:18:27Z</time>
      </trkpt>
      <trkpt lat="44.43823" lon="1.00813">
        <ele>173.66</ele>
        <time>2015-09-26T14:18:32Z</time>
      </trkpt>
      <trkpt lat="44.43825" lon="1.00798">
        <ele>174.62</ele>
        <time>2015-09-26T14:18:43Z</time>
      </trkpt>
      <trkpt lat="44.43827" lon="1.00784">
        <ele>176.06</ele>
        <time>2015-09-26T14:18:55Z</time>
      </trkpt>
      <trkpt lat="44.43833" lon="1.0074">
        <ele>178.46</ele>
        <time>2015-09-26T14:19:07Z</time>
      </trkpt>
      <trkpt lat="44.43838" lon="1.00704">
        <ele>181.35</ele>
        <time>2015-09-26T14:19:18Z</time>
      </trkpt>
      <trkpt lat="44.43842" lon="1.00675">
        <ele>184.23</ele>
        <time>2015-09-26T14:19:30Z</time>
      </trkpt>
      <trkpt lat="44.43843" lon="1.00671">
        <ele>184.71</ele>
        <time>2015-09-26T14:19:32Z</time>
      </trkpt>
      <trkpt lat="44.43844" lon="1.00664">
        <ele>185.19</ele>
        <time>2015-09-26T14:19:35Z</time>
      </trkpt>
      <trkpt lat="44.43844" lon="1.00661">
        <ele>185.67</ele>
        <time>2015-09-26T14:19:37Z</time>
      </trkpt>
      <trkpt lat="44.43844" lon="1.00653">
        <ele>185.67</ele>
        <time>2015-09-26T14:19:50Z</time>
      </trkpt>
      <trkpt lat="44.43845" lon="1.00653">
        <ele>185.67</ele>
        <time>2015-09-26T14:19:59Z</time>
      </trkpt>
      <trkpt lat="44.43846" lon="1.00619">
        <ele>187.59</ele>
        <time>2015-09-26T14:20:09Z</time>
      </trkpt>
      <trkpt lat="44.43843" lon="1.00579">
        <ele>190.96</ele>
        <time>2015-09-26T14:20:21Z</time>
      </trkpt>
      <trkpt lat="44.43841" lon="1.00551">
        <ele>193.36</ele>
        <time>2015-09-26T14:20:29Z</time>
      </trkpt>
      <trkpt lat="44.43847" lon="1.00538">
        <ele>197.69</ele>
        <time>2015-09-26T14:20:39Z</time>
      </trkpt>
      <trkpt lat="44.43849" lon="1.00536">
        <ele>198.17</ele>
        <time>2015-09-26T14:20:41Z</time>
      </trkpt>
      <trkpt lat="44.43855" lon="1.00522">
        <ele>200.09</ele>
        <time>2015-09-26T14:20:52Z</time>
      </trkpt>
      <trkpt lat="44.43859" lon="1.00516">
        <ele>201.05</ele>
        <time>2015-09-26T14:20:57Z</time>
      </trkpt>
      <trkpt lat="44.4387" lon="1.00504">
        <ele>201.53</ele>
        <time>2015-09-26T14:21:11Z</time>
      </trkpt>
      <trkpt lat="44.43872" lon="1.00503">
        <ele>202.01</ele>
        <time>2015-09-26T14:21:25Z</time>
      </trkpt>
      <trkpt lat="44.43871" lon="1.00502">
        <ele>201.53</ele>
        <time>2015-09-26T14:21:36Z</time>
      </trkpt>
      <trkpt lat="44.4387" lon="1.00503">
        <ele>201.53</ele>
        <time>2015-09-26T14:21:38Z</time>
      </trkpt>
      <trkpt lat="44.43876" lon="1.00511">
        <ele>202.01</ele>
        <time>2015-09-26T14:21:52Z</time>
      </trkpt>
      <trkpt lat="44.43878" lon="1.00511">
        <ele>202.49</ele>
        <time>2015-09-26T14:22:12Z</time>
      </trkpt>
      <trkpt lat="44.43881" lon="1.00518">
        <ele>203.94</ele>
        <time>2015-09-26T14:22:24Z</time>
      </trkpt>
      <trkpt lat="44.4389" lon="1.00532">
        <ele>204.9</ele>
        <time>2015-09-26T14:22:34Z</time>
      </trkpt>
      <trkpt lat="44.4391" lon="1.00585">
        <ele>208.74</ele>
        <time>2015-09-26T14:22:49Z</time>
      </trkpt>
      <trkpt lat="44.43916" lon="1.00597">
        <ele>210.19</ele>
        <time>2015-09-26T14:22:53Z</time>
      </trkpt>
      <trkpt lat="44.43927" lon="1.00605">
        <ele>212.11</ele>
        <time>2015-09-26T14:22:59Z</time>
      </trkpt>
      <trkpt lat="44.4393" lon="1.0061">
        <ele>212.59</ele>
        <time>2015-09-26T14:23:01Z</time>
      </trkpt>
      <trkpt lat="44.43931" lon="1.00613">
        <ele>212.59</ele>
        <time>2015-09-26T14:23:02Z</time>
      </trkpt>
      <trkpt lat="44.43932" lon="1.00616">
        <ele>213.07</ele>
        <time>2015-09-26T14:23:03Z</time>
      </trkpt>
      <trkpt lat="44.43933" lon="1.00619">
        <ele>213.07</ele>
        <time>2015-09-26T14:23:04Z</time>
      </trkpt>
      <trkpt lat="44.43934" lon="1.00622">
        <ele>213.07</ele>
        <time>2015-09-26T14:23:05Z</time>
      </trkpt>
      <trkpt lat="44.43934" lon="1.00625">
        <ele>213.07</ele>
        <time>2015-09-26T14:23:06Z</time>
      </trkpt>
      <trkpt lat="44.43934" lon="1.00628">
        <ele>213.55</ele>
        <time>2015-09-26T14:23:07Z</time>
      </trkpt>
      <trkpt lat="44.4394" lon="1.00663">
        <ele>215.95</ele>
        <time>2015-09-26T14:23:18Z</time>
      </trkpt>
      <trkpt lat="44.43943" lon="1.0068">
        <ele>215.95</ele>
        <time>2015-09-26T14:23:24Z</time>
      </trkpt>
      <trkpt lat="44.43942" lon="1.00682">
        <ele>215.95</ele>
        <time>2015-09-26T14:23:25Z</time>
      </trkpt>
      <trkpt lat="44.43937" lon="1.00686">
        <ele>215.47</ele>
        <time>2015-09-26T14:23:28Z</time>
      </trkpt>
      <trkpt lat="44.4393" lon="1.00688">
        <ele>214.99</ele>
        <time>2015-09-26T14:23:30Z</time>
      </trkpt>
      <trkpt lat="44.43915" lon="1.00698">
        <ele>212.11</ele>
        <time>2015-09-26T14:23:34Z</time>
      </trkpt>
      <trkpt lat="44.43903" lon="1.00733">
        <ele>206.34</ele>
        <time>2015-09-26T14:23:40Z</time>
      </trkpt>
      <trkpt lat="44.43914" lon="1.00812">
        <ele>207.3</ele>
        <time>2015-09-26T14:23:54Z</time>
      </trkpt>
      <trkpt lat="44.43923" lon="1.00887">
        <ele>207.3</ele>
        <time>2015-09-26T14:24:08Z</time>
      </trkpt>
      <trkpt lat="44.43933" lon="1.00964">
        <ele>206.82</ele>
        <time>2015-09-26T14:24:23Z</time>
      </trkpt>
      <trkpt lat="44.43942" lon="1.01033">
        <ele>208.26</ele>
        <time>2015-09-26T14:24:36Z</time>
      </trkpt>
      <trkpt lat="44.43944" lon="1.01051">
        <ele>207.3</ele>
        <time>2015-09-26T14:24:39Z</time>
      </trkpt>
      <trkpt lat="44.43966" lon="1.01075">
        <ele>209.7</ele>
        <time>2015-09-26T14:24:46Z</time>
      </trkpt>
      <trkpt lat="44.43969" lon="1.01074">
        <ele>210.19</ele>
        <time>2015-09-26T14:24:47Z</time>
      </trkpt>
      <trkpt lat="44.43995" lon="1.01067">
        <ele>216.91</ele>
        <time>2015-09-26T14:24:59Z</time>
      </trkpt>
      <trkpt lat="44.44021" lon="1.01063">
        <ele>219.8</ele>
        <time>2015-09-26T14:25:10Z</time>
      </trkpt>
      <trkpt lat="44.44043" lon="1.01066">
        <ele>222.2</ele>
        <time>2015-09-26T14:25:20Z</time>
      </trkpt>
      <trkpt lat="44.44047" lon="1.01068">
        <ele>222.68</ele>
        <time>2015-09-26T14:25:22Z</time>
      </trkpt>
      <trkpt lat="44.44049" lon="1.0107">
        <ele>222.68</ele>
        <time>2015-09-26T14:25:23Z</time>
      </trkpt>
      <trkpt lat="44.4405" lon="1.01072">
        <ele>222.68</ele>
        <time>2015-09-26T14:25:24Z</time>
      </trkpt>
      <trkpt lat="44.44051" lon="1.01074">
        <ele>222.68</ele>
        <time>2015-09-26T14:25:25Z</time>
      </trkpt>
      <trkpt lat="44.44053" lon="1.01076">
        <ele>222.68</ele>
        <time>2015-09-26T14:25:26Z</time>
      </trkpt>
      <trkpt lat="44.44054" lon="1.01079">
        <ele>222.68</ele>
        <time>2015-09-26T14:25:27Z</time>
      </trkpt>
      <trkpt lat="44.44055" lon="1.01081">
        <ele>223.16</ele>
        <time>2015-09-26T14:25:28Z</time>
      </trkpt>
      <trkpt lat="44.44064" lon="1.01107">
        <ele>223.16</ele>
        <time>2015-09-26T14:25:41Z</time>
      </trkpt>
      <trkpt lat="44.44065" lon="1.01107">
        <ele>223.16</ele>
        <time>2015-09-26T14:25:59Z</time>
      </trkpt>
      <trkpt lat="44.44065" lon="1.01107">
        <ele>223.64</ele>
        <time>2015-09-26T14:26:21Z</time>
      </trkpt>
      <trkpt lat="44.44065" lon="1.01107">
        <ele>223.64</ele>
        <time>2015-09-26T14:26:39Z</time>
      </trkpt>
      <trkpt lat="44.44065" lon="1.01106">
        <ele>223.16</ele>
        <time>2015-09-26T14:26:59Z</time>
      </trkpt>
      <trkpt lat="44.44065" lon="1.01106">
        <ele>223.16</ele>
        <time>2015-09-26T14:27:17Z</time>
      </trkpt>
      <trkpt lat="44.44064" lon="1.01106">
        <ele>222.2</ele>
        <time>2015-09-26T14:27:37Z</time>
      </trkpt>
      <trkpt lat="44.44069" lon="1.01128">
        <ele>223.16</ele>
        <time>2015-09-26T14:27:47Z</time>
      </trkpt>
      <trkpt lat="44.44077" lon="1.01205">
        <ele>221.72</ele>
        <time>2015-09-26T14:28:00Z</time>
      </trkpt>
      <trkpt lat="44.44083" lon="1.01231">
        <ele>220.76</ele>
        <time>2015-09-26T14:28:05Z</time>
      </trkpt>
      <trkpt lat="44.44087" lon="1.01233">
        <ele>220.76</ele>
        <time>2015-09-26T14:28:06Z</time>
      </trkpt>
      <trkpt lat="44.4409" lon="1.01232">
        <ele>220.76</ele>
        <time>2015-09-26T14:28:07Z</time>
      </trkpt>
      <trkpt lat="44.44094" lon="1.0123">
        <ele>221.24</ele>
        <time>2015-09-26T14:28:08Z</time>
      </trkpt>
      <trkpt lat="44.44097" lon="1.01229">
        <ele>221.24</ele>
        <time>2015-09-26T14:28:09Z</time>
      </trkpt>
      <trkpt lat="44.44135" lon="1.0122">
        <ele>224.12</ele>
        <time>2015-09-26T14:28:21Z</time>
      </trkpt>
      <trkpt lat="44.44167" lon="1.01233">
        <ele>222.68</ele>
        <time>2015-09-26T14:28:32Z</time>
      </trkpt>
      <trkpt lat="44.44191" lon="1.0125">
        <ele>221.24</ele>
        <time>2015-09-26T14:28:41Z</time>
      </trkpt>
      <trkpt lat="44.44194" lon="1.01249">
        <ele>221.24</ele>
        <time>2015-09-26T14:28:43Z</time>
      </trkpt>
      <trkpt lat="44.44218" lon="1.01213">
        <ele>222.68</ele>
        <time>2015-09-26T14:28:54Z</time>
      </trkpt>
      <trkpt lat="44.4424" lon="1.0117">
        <ele>226.05</ele>
        <time>2015-09-26T14:29:05Z</time>
      </trkpt>
      <trkpt lat="44.44265" lon="1.01135">
        <ele>227.49</ele>
        <time>2015-09-26T14:29:15Z</time>
      </trkpt>
      <trkpt lat="44.44265" lon="1.01119">
        <ele>227.97</ele>
        <time>2015-09-26T14:29:19Z</time>
      </trkpt>
      <trkpt lat="44.44252" lon="1.01097">
        <ele>229.41</ele>
        <time>2015-09-26T14:29:27Z</time>
      </trkpt>
      <trkpt lat="44.44254" lon="1.01091">
        <ele>229.41</ele>
        <time>2015-09-26T14:29:29Z</time>
      </trkpt>
      <trkpt lat="44.44256" lon="1.01089">
        <ele>229.89</ele>
        <time>2015-09-26T14:29:30Z</time>
      </trkpt>
      <trkpt lat="44.44258" lon="1.01087">
        <ele>229.89</ele>
        <time>2015-09-26T14:29:31Z</time>
      </trkpt>
      <trkpt lat="44.4426" lon="1.01085">
        <ele>230.37</ele>
        <time>2015-09-26T14:29:32Z</time>
      </trkpt>
      <trkpt lat="44.44263" lon="1.01084">
        <ele>229.89</ele>
        <time>2015-09-26T14:29:33Z</time>
      </trkpt>
      <trkpt lat="44.44266" lon="1.01082">
        <ele>229.89</ele>
        <time>2015-09-26T14:29:34Z</time>
      </trkpt>
      <trkpt lat="44.44269" lon="1.01079">
        <ele>229.89</ele>
        <time>2015-09-26T14:29:35Z</time>
      </trkpt>
      <trkpt lat="44.44272" lon="1.01076">
        <ele>229.41</ele>
        <time>2015-09-26T14:29:36Z</time>
      </trkpt>
      <trkpt lat="44.44275" lon="1.01073">
        <ele>229.41</ele>
        <time>2015-09-26T14:29:37Z</time>
      </trkpt>
      <trkpt lat="44.44278" lon="1.0107">
        <ele>228.93</ele>
        <time>2015-09-26T14:29:38Z</time>
      </trkpt>
      <trkpt lat="44.44281" lon="1.01067">
        <ele>228.93</ele>
        <time>2015-09-26T14:29:39Z</time>
      </trkpt>
      <trkpt lat="44.44299" lon="1.01045">
        <ele>227.49</ele>
        <time>2015-09-26T14:29:46Z</time>
      </trkpt>
      <trkpt lat="44.44303" lon="1.01043">
        <ele>227.01</ele>
        <time>2015-09-26T14:29:47Z</time>
      </trkpt>
      <trkpt lat="44.44322" lon="1.01034">
        <ele>226.53</ele>
        <time>2015-09-26T14:29:53Z</time>
      </trkpt>
      <trkpt lat="44.44323" lon="1.01032">
        <ele>226.53</ele>
        <time>2015-09-26T14:29:54Z</time>
      </trkpt>
      <trkpt lat="44.44324" lon="1.0103">
        <ele>225.57</ele>
        <time>2015-09-26T14:30:04Z</time>
      </trkpt>
      <trkpt lat="44.44342" lon="1.00997">
        <ele>223.16</ele>
        <time>2015-09-26T14:30:13Z</time>
      </trkpt>
      <trkpt lat="44.44351" lon="1.00973">
        <ele>222.68</ele>
        <time>2015-09-26T14:30:17Z</time>
      </trkpt>
      <trkpt lat="44.44353" lon="1.00967">
        <ele>222.2</ele>
        <time>2015-09-26T14:30:18Z</time>
      </trkpt>
      <trkpt lat="44.44356" lon="1.00961">
        <ele>221.72</ele>
        <time>2015-09-26T14:30:19Z</time>
      </trkpt>
      <trkpt lat="44.44358" lon="1.00954">
        <ele>221.72</ele>
        <time>2015-09-26T14:30:20Z</time>
      </trkpt>
      <trkpt lat="44.44361" lon="1.00948">
        <ele>221.24</ele>
        <time>2015-09-26T14:30:21Z</time>
      </trkpt>
      <trkpt lat="44.44376" lon="1.00907">
        <ele>219.32</ele>
        <time>2015-09-26T14:30:27Z</time>
      </trkpt>
      <trkpt lat="44.4438" lon="1.00902">
        <ele>219.32</ele>
        <time>2015-09-26T14:30:28Z</time>
      </trkpt>
      <trkpt lat="44.44384" lon="1.00897">
        <ele>218.84</ele>
        <time>2015-09-26T14:30:29Z</time>
      </trkpt>
      <trkpt lat="44.4439" lon="1.00893">
        <ele>218.36</ele>
        <time>2015-09-26T14:30:30Z</time>
      </trkpt>
      <trkpt lat="44.44396" lon="1.0089">
        <ele>217.88</ele>
        <time>2015-09-26T14:30:31Z</time>
      </trkpt>
      <trkpt lat="44.44408" lon="1.00882">
        <ele>216.43</ele>
        <time>2015-09-26T14:30:33Z</time>
      </trkpt>
      <trkpt lat="44.44457" lon="1.00813">
        <ele>214.51</ele>
        <time>2015-09-26T14:30:45Z</time>
      </trkpt>
      <trkpt lat="44.4447" lon="1.00793">
        <ele>214.51</ele>
        <time>2015-09-26T14:30:49Z</time>
      </trkpt>
      <trkpt lat="44.44478" lon="1.00768">
        <ele>214.99</ele>
        <time>2015-09-26T14:30:53Z</time>
      </trkpt>
      <trkpt lat="44.44478" lon="1.00735">
        <ele>215.47</ele>
        <time>2015-09-26T14:30:58Z</time>
      </trkpt>
      <trkpt lat="44.44474" lon="1.00718">
        <ele>215.47</ele>
        <time>2015-09-26T14:31:01Z</time>
      </trkpt>
      <trkpt lat="44.44475" lon="1.00682">
        <ele>215.95</ele>
        <time>2015-09-26T14:31:09Z</time>
      </trkpt>
      <trkpt lat="44.44499" lon="1.0066">
        <ele>217.88</ele>
        <time>2015-09-26T14:31:20Z</time>
      </trkpt>
      <trkpt lat="44.44538" lon="1.00625">
        <ele>216.43</ele>
        <time>2015-09-26T14:31:32Z</time>
      </trkpt>
      <trkpt lat="44.4457" lon="1.00596">
        <ele>214.03</ele>
        <time>2015-09-26T14:31:40Z</time>
      </trkpt>
      <trkpt lat="44.44593" lon="1.00612">
        <ele>210.19</ele>
        <time>2015-09-26T14:31:47Z</time>
      </trkpt>
      <trkpt lat="44.44596" lon="1.00616">
        <ele>209.7</ele>
        <time>2015-09-26T14:31:48Z</time>
      </trkpt>
      <trkpt lat="44.44607" lon="1.0063">
        <ele>208.26</ele>
        <time>2015-09-26T14:31:51Z</time>
      </trkpt>
      <trkpt lat="44.44625" lon="1.00651">
        <ele>208.74</ele>
        <time>2015-09-26T14:32:00Z</time>
      </trkpt>
      <trkpt lat="44.44625" lon="1.00651">
        <ele>209.22</ele>
        <time>2015-09-26T14:32:25Z</time>
      </trkpt>
      <trkpt lat="44.44625" lon="1.00651">
        <ele>209.7</ele>
        <time>2015-09-26T14:32:35Z</time>
      </trkpt>
      <trkpt lat="44.44637" lon="1.00636">
        <ele>207.78</ele>
        <time>2015-09-26T14:32:41Z</time>
      </trkpt>
      <trkpt lat="44.44694" lon="1.00562">
        <ele>198.17</ele>
        <time>2015-09-26T14:32:52Z</time>
      </trkpt>
      <trkpt lat="44.44728" lon="1.00521">
        <ele>192.88</ele>
        <time>2015-09-26T14:32:57Z</time>
      </trkpt>
      <trkpt lat="44.44739" lon="1.00504">
        <ele>190.48</ele>
        <time>2015-09-26T14:32:59Z</time>
      </trkpt>
      <trkpt lat="44.44754" lon="1.00469">
        <ele>186.63</ele>
        <time>2015-09-26T14:33:03Z</time>
      </trkpt>
      <trkpt lat="44.44764" lon="1.00443">
        <ele>183.27</ele>
        <time>2015-09-26T14:33:06Z</time>
      </trkpt>
      <trkpt lat="44.44781" lon="1.00412">
        <ele>179.42</ele>
        <time>2015-09-26T14:33:10Z</time>
      </trkpt>
      <trkpt lat="44.44789" lon="1.00397">
        <ele>177.98</ele>
        <time>2015-09-26T14:33:12Z</time>
      </trkpt>
      <trkpt lat="44.44812" lon="1.00327">
        <ele>170.29</ele>
        <time>2015-09-26T14:33:20Z</time>
      </trkpt>
      <trkpt lat="44.44842" lon="1.00234">
        <ele>161.64</ele>
        <time>2015-09-26T14:33:30Z</time>
      </trkpt>
      <trkpt lat="44.44867" lon="1.00185">
        <ele>158.27</ele>
        <time>2015-09-26T14:33:36Z</time>
      </trkpt>
      <trkpt lat="44.44929" lon="1.00073">
        <ele>146.26</ele>
        <time>2015-09-26T14:33:48Z</time>
      </trkpt>
      <trkpt lat="44.44952" lon="1.00025">
        <ele>141.93</ele>
        <time>2015-09-26T14:33:53Z</time>
      </trkpt>
      <trkpt lat="44.44969" lon="0.99993">
        <ele>138.09</ele>
        <time>2015-09-26T14:33:57Z</time>
      </trkpt>
      <trkpt lat="44.44992" lon="0.99959">
        <ele>132.32</ele>
        <time>2015-09-26T14:34:02Z</time>
      </trkpt>
      <trkpt lat="44.45006" lon="0.99942">
        <ele>129.43</ele>
        <time>2015-09-26T14:34:11Z</time>
      </trkpt>
      <trkpt lat="44.45007" lon="0.99942">
        <ele>129.43</ele>
        <time>2015-09-26T14:34:14Z</time>
      </trkpt>
      <trkpt lat="44.45025" lon="0.9997">
        <ele>128.95</ele>
        <time>2015-09-26T14:34:25Z</time>
      </trkpt>
      <trkpt lat="44.45031" lon="0.9998">
        <ele>128.95</ele>
        <time>2015-09-26T14:34:27Z</time>
      </trkpt>
      <trkpt lat="44.45034" lon="0.99986">
        <ele>128.95</ele>
        <time>2015-09-26T14:34:28Z</time>
      </trkpt>
      <trkpt lat="44.45037" lon="0.99992">
        <ele>128.47</ele>
        <time>2015-09-26T14:34:29Z</time>
      </trkpt>
      <trkpt lat="44.4504" lon="0.99999">
        <ele>128.47</ele>
        <time>2015-09-26T14:34:30Z</time>
      </trkpt>
      <trkpt lat="44.45043" lon="1.00005">
        <ele>127.99</ele>
        <time>2015-09-26T14:34:31Z</time>
      </trkpt>
      <trkpt lat="44.45061" lon="1.00042">
        <ele>127.99</ele>
        <time>2015-09-26T14:34:37Z</time>
      </trkpt>
      <trkpt lat="44.45063" lon="1.00048">
        <ele>127.99</ele>
        <time>2015-09-26T14:34:38Z</time>
      </trkpt>
      <trkpt lat="44.45092" lon="1.00124">
        <ele>126.07</ele>
        <time>2015-09-26T14:34:50Z</time>
      </trkpt>
      <trkpt lat="44.45093" lon="1.0013">
        <ele>126.07</ele>
        <time>2015-09-26T14:34:51Z</time>
      </trkpt>
      <trkpt lat="44.45095" lon="1.00136">
        <ele>126.07</ele>
        <time>2015-09-26T14:34:52Z</time>
      </trkpt>
      <trkpt lat="44.45116" lon="1.00203">
        <ele>126.55</ele>
        <time>2015-09-26T14:35:03Z</time>
      </trkpt>
      <trkpt lat="44.45118" lon="1.00208">
        <ele>126.55</ele>
        <time>2015-09-26T14:35:04Z</time>
      </trkpt>
      <trkpt lat="44.45142" lon="1.00289">
        <ele>129.92</ele>
        <time>2015-09-26T14:35:18Z</time>
      </trkpt>
      <trkpt lat="44.45161" lon="1.00356">
        <ele>131.36</ele>
        <time>2015-09-26T14:35:32Z</time>
      </trkpt>
      <trkpt lat="44.45172" lon="1.00395">
        <ele>131.36</ele>
        <time>2015-09-26T14:35:40Z</time>
      </trkpt>
      <trkpt lat="44.45187" lon="1.00439">
        <ele>131.36</ele>
        <time>2015-09-26T14:35:48Z</time>
      </trkpt>
      <trkpt lat="44.45193" lon="1.00451">
        <ele>131.36</ele>
        <time>2015-09-26T14:35:50Z</time>
      </trkpt>
      <trkpt lat="44.45196" lon="1.00456">
        <ele>131.36</ele>
        <time>2015-09-26T14:35:51Z</time>
      </trkpt>
      <trkpt lat="44.452" lon="1.0046">
        <ele>131.36</ele>
        <time>2015-09-26T14:35:52Z</time>
      </trkpt>
      <trkpt lat="44.45204" lon="1.00463">
        <ele>131.36</ele>
        <time>2015-09-26T14:35:53Z</time>
      </trkpt>
      <trkpt lat="44.45208" lon="1.00465">
        <ele>131.36</ele>
        <time>2015-09-26T14:35:54Z</time>
      </trkpt>
      <trkpt lat="44.45213" lon="1.00468">
        <ele>131.36</ele>
        <time>2015-09-26T14:35:55Z</time>
      </trkpt>
      <trkpt lat="44.45228" lon="1.00477">
        <ele>130.4</ele>
        <time>2015-09-26T14:35:58Z</time>
      </trkpt>
      <trkpt lat="44.45233" lon="1.00481">
        <ele>130.4</ele>
        <time>2015-09-26T14:35:59Z</time>
      </trkpt>
      <trkpt lat="44.45237" lon="1.00487">
        <ele>130.4</ele>
        <time>2015-09-26T14:36:00Z</time>
      </trkpt>
      <trkpt lat="44.45241" lon="1.00493">
        <ele>130.4</ele>
        <time>2015-09-26T14:36:01Z</time>
      </trkpt>
      <trkpt lat="44.45245" lon="1.005">
        <ele>130.4</ele>
        <time>2015-09-26T14:36:02Z</time>
      </trkpt>
      <trkpt lat="44.45248" lon="1.00506">
        <ele>130.4</ele>
        <time>2015-09-26T14:36:03Z</time>
      </trkpt>
      <trkpt lat="44.4525" lon="1.00512">
        <ele>130.4</ele>
        <time>2015-09-26T14:36:04Z</time>
      </trkpt>
      <trkpt lat="44.45256" lon="1.0053">
        <ele>130.88</ele>
        <time>2015-09-26T14:36:07Z</time>
      </trkpt>
      <trkpt lat="44.45275" lon="1.00602">
        <ele>133.76</ele>
        <time>2015-09-26T14:36:23Z</time>
      </trkpt>
      <trkpt lat="44.45276" lon="1.00605">
        <ele>133.76</ele>
        <time>2015-09-26T14:36:24Z</time>
      </trkpt>
      <trkpt lat="44.45278" lon="1.00606">
        <ele>133.76</ele>
        <time>2015-09-26T14:36:25Z</time>
      </trkpt>
      <trkpt lat="44.4528" lon="1.00605">
        <ele>133.76</ele>
        <time>2015-09-26T14:36:26Z</time>
      </trkpt>
      <trkpt lat="44.45283" lon="1.00604">
        <ele>133.76</ele>
        <time>2015-09-26T14:36:27Z</time>
      </trkpt>
      <trkpt lat="44.45286" lon="1.00604">
        <ele>133.76</ele>
        <time>2015-09-26T14:36:28Z</time>
      </trkpt>
      <trkpt lat="44.45288" lon="1.00603">
        <ele>134.24</ele>
        <time>2015-09-26T14:36:29Z</time>
      </trkpt>
      <trkpt lat="44.45319" lon="1.00594">
        <ele>134.24</ele>
        <time>2015-09-26T14:36:42Z</time>
      </trkpt>
      <trkpt lat="44.45354" lon="1.00572">
        <ele>136.64</ele>
        <time>2015-09-26T14:36:56Z</time>
      </trkpt>
      <trkpt lat="44.45391" lon="1.00538">
        <ele>139.05</ele>
        <time>2015-09-26T14:37:10Z</time>
      </trkpt>
      <trkpt lat="44.45428" lon="1.00508">
        <ele>141.93</ele>
        <time>2015-09-26T14:37:24Z</time>
      </trkpt>
      <trkpt lat="44.45452" lon="1.00484">
        <ele>143.85</ele>
        <time>2015-09-26T14:37:35Z</time>
      </trkpt>
      <trkpt lat="44.45487" lon="1.00456">
        <ele>144.82</ele>
        <time>2015-09-26T14:37:48Z</time>
      </trkpt>
      <trkpt lat="44.45532" lon="1.00433">
        <ele>145.3</ele>
        <time>2015-09-26T14:38:03Z</time>
      </trkpt>
      <trkpt lat="44.4559" lon="1.00411">
        <ele>147.22</ele>
        <time>2015-09-26T14:38:20Z</time>
      </trkpt>
      <trkpt lat="44.45635" lon="1.0041">
        <ele>148.66</ele>
        <time>2015-09-26T14:38:33Z</time>
      </trkpt>
      <trkpt lat="44.45669" lon="1.0038">
        <ele>149.62</ele>
        <time>2015-09-26T14:38:45Z</time>
      </trkpt>
      <trkpt lat="44.45698" lon="1.00352">
        <ele>151.06</ele>
        <time>2015-09-26T14:38:57Z</time>
      </trkpt>
      <trkpt lat="44.45739" lon="1.00321">
        <ele>152.51</ele>
        <time>2015-09-26T14:39:11Z</time>
      </trkpt>
      <trkpt lat="44.4578" lon="1.00294">
        <ele>155.87</ele>
        <time>2015-09-26T14:39:24Z</time>
      </trkpt>
      <trkpt lat="44.45798" lon="1.00286">
        <ele>155.87</ele>
        <time>2015-09-26T14:39:29Z</time>
      </trkpt>
      <trkpt lat="44.45802" lon="1.00284">
        <ele>155.87</ele>
        <time>2015-09-26T14:39:30Z</time>
      </trkpt>
      <trkpt lat="44.45856" lon="1.00256">
        <ele>156.83</ele>
        <time>2015-09-26T14:39:44Z</time>
      </trkpt>
      <trkpt lat="44.45872" lon="1.00248">
        <ele>156.83</ele>
        <time>2015-09-26T14:39:48Z</time>
      </trkpt>
      <trkpt lat="44.45927" lon="1.0023">
        <ele>160.2</ele>
        <time>2015-09-26T14:40:03Z</time>
      </trkpt>
      <trkpt lat="44.45931" lon="1.00228">
        <ele>160.68</ele>
        <time>2015-09-26T14:40:04Z</time>
      </trkpt>
      <trkpt lat="44.45981" lon="1.00224">
        <ele>162.6</ele>
        <time>2015-09-26T14:40:17Z</time>
      </trkpt>
      <trkpt lat="44.46026" lon="1.00234">
        <ele>166.93</ele>
        <time>2015-09-26T14:40:31Z</time>
      </trkpt>
      <trkpt lat="44.46077" lon="1.00243">
        <ele>167.89</ele>
        <time>2015-09-26T14:40:47Z</time>
      </trkpt>
      <trkpt lat="44.46122" lon="1.00232">
        <ele>169.81</ele>
        <time>2015-09-26T14:41:03Z</time>
      </trkpt>
      <trkpt lat="44.46171" lon="1.00227">
        <ele>171.25</ele>
        <time>2015-09-26T14:41:19Z</time>
      </trkpt>
      <trkpt lat="44.46212" lon="1.00237">
        <ele>174.14</ele>
        <time>2015-09-26T14:41:32Z</time>
      </trkpt>
      <trkpt lat="44.4626" lon="1.00232">
        <ele>175.58</ele>
        <time>2015-09-26T14:41:47Z</time>
      </trkpt>
      <trkpt lat="44.46291" lon="1.00192">
        <ele>177.5</ele>
        <time>2015-09-26T14:42:00Z</time>
      </trkpt>
      <trkpt lat="44.46319" lon="1.00152">
        <ele>178.94</ele>
        <time>2015-09-26T14:42:13Z</time>
      </trkpt>
      <trkpt lat="44.46355" lon="1.00114">
        <ele>184.23</ele>
        <time>2015-09-26T14:42:28Z</time>
      </trkpt>
      <trkpt lat="44.46374" lon="1.00094">
        <ele>189.04</ele>
        <time>2015-09-26T14:42:38Z</time>
      </trkpt>
      <trkpt lat="44.46373" lon="1.00092">
        <ele>189.04</ele>
        <time>2015-09-26T14:42:39Z</time>
      </trkpt>
      <trkpt lat="44.46371" lon="1.0009">
        <ele>189.04</ele>
        <time>2015-09-26T14:42:40Z</time>
      </trkpt>
      <trkpt lat="44.4637" lon="1.00089">
        <ele>189.04</ele>
        <time>2015-09-26T14:42:41Z</time>
      </trkpt>
      <trkpt lat="44.46369" lon="1.00087">
        <ele>189.04</ele>
        <time>2015-09-26T14:42:42Z</time>
      </trkpt>
      <trkpt lat="44.46368" lon="1.00086">
        <ele>188.56</ele>
        <time>2015-09-26T14:42:43Z</time>
      </trkpt>
      <trkpt lat="44.46368" lon="1.00084">
        <ele>188.56</ele>
        <time>2015-09-26T14:42:53Z</time>
      </trkpt>
      <trkpt lat="44.46368" lon="1.00084">
        <ele>188.08</ele>
        <time>2015-09-26T14:43:13Z</time>
      </trkpt>
      <trkpt lat="44.46368" lon="1.00084">
        <ele>187.11</ele>
        <time>2015-09-26T14:43:28Z</time>
      </trkpt>
      <trkpt lat="44.46368" lon="1.00084">
        <ele>187.59</ele>
        <time>2015-09-26T14:43:41Z</time>
      </trkpt>
      <trkpt lat="44.46368" lon="1.00084">
        <ele>188.56</ele>
        <time>2015-09-26T14:43:56Z</time>
      </trkpt>
      <trkpt lat="44.46368" lon="1.00084">
        <ele>189.04</ele>
        <time>2015-09-26T14:44:15Z</time>
      </trkpt>
      <trkpt lat="44.46368" lon="1.00083">
        <ele>190</ele>
        <time>2015-09-26T14:44:40Z</time>
      </trkpt>
      <trkpt lat="44.46368" lon="1.00083">
        <ele>189.52</ele>
        <time>2015-09-26T14:45:03Z</time>
      </trkpt>
      <trkpt lat="44.46368" lon="1.00084">
        <ele>190</ele>
        <time>2015-09-26T14:45:25Z</time>
      </trkpt>
      <trkpt lat="44.46368" lon="1.00084">
        <ele>189.52</ele>
        <time>2015-09-26T14:45:42Z</time>
      </trkpt>
      <trkpt lat="44.46368" lon="1.00084">
        <ele>189.52</ele>
        <time>2015-09-26T14:45:44Z</time>
      </trkpt>
      <trkpt lat="44.46368" lon="1.00083">
        <ele>189.52</ele>
        <time>2015-09-26T14:45:45Z</time>
      </trkpt>
      <trkpt lat="44.46368" lon="1.00081">
        <ele>189.52</ele>
        <time>2015-09-26T14:45:46Z</time>
      </trkpt>
      <trkpt lat="44.46367" lon="1.00078">
        <ele>189.52</ele>
        <time>2015-09-26T14:45:47Z</time>
      </trkpt>
      <trkpt lat="44.46367" lon="1.00076">
        <ele>189.52</ele>
        <time>2015-09-26T14:45:48Z</time>
      </trkpt>
      <trkpt lat="44.46366" lon="1.00073">
        <ele>189.52</ele>
        <time>2015-09-26T14:45:49Z</time>
      </trkpt>
      <trkpt lat="44.46364" lon="1.00071">
        <ele>189.52</ele>
        <time>2015-09-26T14:45:50Z</time>
      </trkpt>
      <trkpt lat="44.46363" lon="1.00068">
        <ele>189.52</ele>
        <time>2015-09-26T14:45:51Z</time>
      </trkpt>
      <trkpt lat="44.46343" lon="1.00016">
        <ele>190</ele>
        <time>2015-09-26T14:46:04Z</time>
      </trkpt>
      <trkpt lat="44.46324" lon="0.99953">
        <ele>193.36</ele>
        <time>2015-09-26T14:46:19Z</time>
      </trkpt>
      <trkpt lat="44.4631" lon="0.99907">
        <ele>196.73</ele>
        <time>2015-09-26T14:46:31Z</time>
      </trkpt>
      <trkpt lat="44.46292" lon="0.99856">
        <ele>198.17</ele>
        <time>2015-09-26T14:46:43Z</time>
      </trkpt>
      <trkpt lat="44.46274" lon="0.99815">
        <ele>198.65</ele>
        <time>2015-09-26T14:46:54Z</time>
      </trkpt>
      <trkpt lat="44.46245" lon="0.99749">
        <ele>196.25</ele>
        <time>2015-09-26T14:47:07Z</time>
      </trkpt>
      <trkpt lat="44.46225" lon="0.99704">
        <ele>193.36</ele>
        <time>2015-09-26T14:47:13Z</time>
      </trkpt>
      <trkpt lat="44.46222" lon="0.99696">
        <ele>192.88</ele>
        <time>2015-09-26T14:47:14Z</time>
      </trkpt>
      <trkpt lat="44.46174" lon="0.99558">
        <ele>186.15</ele>
        <time>2015-09-26T14:47:28Z</time>
      </trkpt>
      <trkpt lat="44.46137" lon="0.99465">
        <ele>185.67</ele>
        <time>2015-09-26T14:47:39Z</time>
      </trkpt>
      <trkpt lat="44.46095" lon="0.9941">
        <ele>184.23</ele>
        <time>2015-09-26T14:47:48Z</time>
      </trkpt>
      <trkpt lat="44.46034" lon="0.9935">
        <ele>183.75</ele>
        <time>2015-09-26T14:48:01Z</time>
      </trkpt>
      <trkpt lat="44.4603" lon="0.99346">
        <ele>183.75</ele>
        <time>2015-09-26T14:48:02Z</time>
      </trkpt>
      <trkpt lat="44.45957" lon="0.9928">
        <ele>184.71</ele>
        <time>2015-09-26T14:48:19Z</time>
      </trkpt>
      <trkpt lat="44.45953" lon="0.99276">
        <ele>184.71</ele>
        <time>2015-09-26T14:48:20Z</time>
      </trkpt>
      <trkpt lat="44.45892" lon="0.9923">
        <ele>186.15</ele>
        <time>2015-09-26T14:48:34Z</time>
      </trkpt>
      <trkpt lat="44.45853" lon="0.99197">
        <ele>186.15</ele>
        <time>2015-09-26T14:48:43Z</time>
      </trkpt>
      <trkpt lat="44.4585" lon="0.99191">
        <ele>186.15</ele>
        <time>2015-09-26T14:48:44Z</time>
      </trkpt>
      <trkpt lat="44.45847" lon="0.99186">
        <ele>186.15</ele>
        <time>2015-09-26T14:48:45Z</time>
      </trkpt>
      <trkpt lat="44.45845" lon="0.99179">
        <ele>186.63</ele>
        <time>2015-09-26T14:48:46Z</time>
      </trkpt>
      <trkpt lat="44.45844" lon="0.99172">
        <ele>186.63</ele>
        <time>2015-09-26T14:48:47Z</time>
      </trkpt>
      <trkpt lat="44.45843" lon="0.99165">
        <ele>186.63</ele>
        <time>2015-09-26T14:48:48Z</time>
      </trkpt>
      <trkpt lat="44.45842" lon="0.99158">
        <ele>186.63</ele>
        <time>2015-09-26T14:48:49Z</time>
      </trkpt>
      <trkpt lat="44.45842" lon="0.99144">
        <ele>187.11</ele>
        <time>2015-09-26T14:48:51Z</time>
      </trkpt>
      <trkpt lat="44.45843" lon="0.99137">
        <ele>187.11</ele>
        <time>2015-09-26T14:48:52Z</time>
      </trkpt>
      <trkpt lat="44.45843" lon="0.99131">
        <ele>187.11</ele>
        <time>2015-09-26T14:48:53Z</time>
      </trkpt>
      <trkpt lat="44.45846" lon="0.99111">
        <ele>188.08</ele>
        <time>2015-09-26T14:48:56Z</time>
      </trkpt>
      <trkpt lat="44.45848" lon="0.99084">
        <ele>188.08</ele>
        <time>2015-09-26T14:49:00Z</time>
      </trkpt>
      <trkpt lat="44.45849" lon="0.99077">
        <ele>188.08</ele>
        <time>2015-09-26T14:49:01Z</time>
      </trkpt>
      <trkpt lat="44.45853" lon="0.99024">
        <ele>188.08</ele>
        <time>2015-09-26T14:49:09Z</time>
      </trkpt>
      <trkpt lat="44.45854" lon="0.99011">
        <ele>188.08</ele>
        <time>2015-09-26T14:49:11Z</time>
      </trkpt>
      <trkpt lat="44.45854" lon="0.98998">
        <ele>187.11</ele>
        <time>2015-09-26T14:49:13Z</time>
      </trkpt>
      <trkpt lat="44.45855" lon="0.98984">
        <ele>186.63</ele>
        <time>2015-09-26T14:49:15Z</time>
      </trkpt>
      <trkpt lat="44.45855" lon="0.98976">
        <ele>186.63</ele>
        <time>2015-09-26T14:49:16Z</time>
      </trkpt>
      <trkpt lat="44.45858" lon="0.98937">
        <ele>185.19</ele>
        <time>2015-09-26T14:49:21Z</time>
      </trkpt>
      <trkpt lat="44.45867" lon="0.98897">
        <ele>184.23</ele>
        <time>2015-09-26T14:49:26Z</time>
      </trkpt>
      <trkpt lat="44.45883" lon="0.98861">
        <ele>183.27</ele>
        <time>2015-09-26T14:49:31Z</time>
      </trkpt>
      <trkpt lat="44.45892" lon="0.98849">
        <ele>182.79</ele>
        <time>2015-09-26T14:49:33Z</time>
      </trkpt>
      <trkpt lat="44.45958" lon="0.98767">
        <ele>178.94</ele>
        <time>2015-09-26T14:49:47Z</time>
      </trkpt>
      <trkpt lat="44.45962" lon="0.98759">
        <ele>178.46</ele>
        <time>2015-09-26T14:49:48Z</time>
      </trkpt>
      <trkpt lat="44.45974" lon="0.9873">
        <ele>177.02</ele>
        <time>2015-09-26T14:49:56Z</time>
      </trkpt>
      <trkpt lat="44.45979" lon="0.98717">
        <ele>176.06</ele>
        <time>2015-09-26T14:50:10Z</time>
      </trkpt>
      <trkpt lat="44.45981" lon="0.98711">
        <ele>175.58</ele>
        <time>2015-09-26T14:50:11Z</time>
      </trkpt>
      <trkpt lat="44.45984" lon="0.98705">
        <ele>175.58</ele>
        <time>2015-09-26T14:50:12Z</time>
      </trkpt>
      <trkpt lat="44.45987" lon="0.98699">
        <ele>175.1</ele>
        <time>2015-09-26T14:50:13Z</time>
      </trkpt>
      <trkpt lat="44.4599" lon="0.98693">
        <ele>175.1</ele>
        <time>2015-09-26T14:50:14Z</time>
      </trkpt>
      <trkpt lat="44.45998" lon="0.9868">
        <ele>174.14</ele>
        <time>2015-09-26T14:50:16Z</time>
      </trkpt>
      <trkpt lat="44.46001" lon="0.98673">
        <ele>173.66</ele>
        <time>2015-09-26T14:50:17Z</time>
      </trkpt>
      <trkpt lat="44.46004" lon="0.98666">
        <ele>173.17</ele>
        <time>2015-09-26T14:50:18Z</time>
      </trkpt>
      <trkpt lat="44.46021" lon="0.98629">
        <ele>171.25</ele>
        <time>2015-09-26T14:50:23Z</time>
      </trkpt>
      <trkpt lat="44.46079" lon="0.98536">
        <ele>171.25</ele>
        <time>2015-09-26T14:50:38Z</time>
      </trkpt>
      <trkpt lat="44.46097" lon="0.98505">
        <ele>170.29</ele>
        <time>2015-09-26T14:50:43Z</time>
      </trkpt>
      <trkpt lat="44.46101" lon="0.98499">
        <ele>170.29</ele>
        <time>2015-09-26T14:50:44Z</time>
      </trkpt>
      <trkpt lat="44.46183" lon="0.98399">
        <ele>162.12</ele>
        <time>2015-09-26T14:50:59Z</time>
      </trkpt>
      <trkpt lat="44.46207" lon="0.98374">
        <ele>159.72</ele>
        <time>2015-09-26T14:51:03Z</time>
      </trkpt>
      <trkpt lat="44.46213" lon="0.98371">
        <ele>159.24</ele>
        <time>2015-09-26T14:51:04Z</time>
      </trkpt>
      <trkpt lat="44.46218" lon="0.98369">
        <ele>158.75</ele>
        <time>2015-09-26T14:51:05Z</time>
      </trkpt>
      <trkpt lat="44.46224" lon="0.98371">
        <ele>157.79</ele>
        <time>2015-09-26T14:51:06Z</time>
      </trkpt>
      <trkpt lat="44.4623" lon="0.98375">
        <ele>157.79</ele>
        <time>2015-09-26T14:51:07Z</time>
      </trkpt>
      <trkpt lat="44.46236" lon="0.9838">
        <ele>157.31</ele>
        <time>2015-09-26T14:51:08Z</time>
      </trkpt>
      <trkpt lat="44.46241" lon="0.98386">
        <ele>156.83</ele>
        <time>2015-09-26T14:51:09Z</time>
      </trkpt>
      <trkpt lat="44.46253" lon="0.98397">
        <ele>155.87</ele>
        <time>2015-09-26T14:51:11Z</time>
      </trkpt>
      <trkpt lat="44.4626" lon="0.984">
        <ele>154.91</ele>
        <time>2015-09-26T14:51:12Z</time>
      </trkpt>
      <trkpt lat="44.46267" lon="0.984">
        <ele>154.43</ele>
        <time>2015-09-26T14:51:13Z</time>
      </trkpt>
      <trkpt lat="44.46275" lon="0.984">
        <ele>153.95</ele>
        <time>2015-09-26T14:51:14Z</time>
      </trkpt>
      <trkpt lat="44.46282" lon="0.98397">
        <ele>152.99</ele>
        <time>2015-09-26T14:51:15Z</time>
      </trkpt>
      <trkpt lat="44.46289" lon="0.98392">
        <ele>152.51</ele>
        <time>2015-09-26T14:51:16Z</time>
      </trkpt>
      <trkpt lat="44.46297" lon="0.98387">
        <ele>151.54</ele>
        <time>2015-09-26T14:51:17Z</time>
      </trkpt>
      <trkpt lat="44.4631" lon="0.98378">
        <ele>150.1</ele>
        <time>2015-09-26T14:51:19Z</time>
      </trkpt>
      <trkpt lat="44.46317" lon="0.98376">
        <ele>149.62</ele>
        <time>2015-09-26T14:51:20Z</time>
      </trkpt>
      <trkpt lat="44.46324" lon="0.98375">
        <ele>149.14</ele>
        <time>2015-09-26T14:51:21Z</time>
      </trkpt>
      <trkpt lat="44.46337" lon="0.98372">
        <ele>148.18</ele>
        <time>2015-09-26T14:51:23Z</time>
      </trkpt>
      <trkpt lat="44.46344" lon="0.98368">
        <ele>147.7</ele>
        <time>2015-09-26T14:51:24Z</time>
      </trkpt>
      <trkpt lat="44.4635" lon="0.98363">
        <ele>147.22</ele>
        <time>2015-09-26T14:51:25Z</time>
      </trkpt>
      <trkpt lat="44.46355" lon="0.98357">
        <ele>146.74</ele>
        <time>2015-09-26T14:51:26Z</time>
      </trkpt>
      <trkpt lat="44.46359" lon="0.9835">
        <ele>146.26</ele>
        <time>2015-09-26T14:51:27Z</time>
      </trkpt>
      <trkpt lat="44.46363" lon="0.98343">
        <ele>146.26</ele>
        <time>2015-09-26T14:51:28Z</time>
      </trkpt>
      <trkpt lat="44.46393" lon="0.98295">
        <ele>144.82</ele>
        <time>2015-09-26T14:51:35Z</time>
      </trkpt>
      <trkpt lat="44.46449" lon="0.9819">
        <ele>143.37</ele>
        <time>2015-09-26T14:51:50Z</time>
      </trkpt>
      <trkpt lat="44.46479" lon="0.98127">
        <ele>142.89</ele>
        <time>2015-09-26T14:52:03Z</time>
      </trkpt>
      <trkpt lat="44.4648" lon="0.98125">
        <ele>142.89</ele>
        <time>2015-09-26T14:52:14Z</time>
      </trkpt>
      <trkpt lat="44.46481" lon="0.98123">
        <ele>142.89</ele>
        <time>2015-09-26T14:52:15Z</time>
      </trkpt>
      <trkpt lat="44.46481" lon="0.9812">
        <ele>142.89</ele>
        <time>2015-09-26T14:52:16Z</time>
      </trkpt>
      <trkpt lat="44.46481" lon="0.98117">
        <ele>142.89</ele>
        <time>2015-09-26T14:52:17Z</time>
      </trkpt>
      <trkpt lat="44.46481" lon="0.98116">
        <ele>142.41</ele>
        <time>2015-09-26T14:52:27Z</time>
      </trkpt>
      <trkpt lat="44.46481" lon="0.98117">
        <ele>142.41</ele>
        <time>2015-09-26T14:52:39Z</time>
      </trkpt>
      <trkpt lat="44.46479" lon="0.98116">
        <ele>142.41</ele>
        <time>2015-09-26T14:52:40Z</time>
      </trkpt>
      <trkpt lat="44.46474" lon="0.98113">
        <ele>141.93</ele>
        <time>2015-09-26T14:52:42Z</time>
      </trkpt>
      <trkpt lat="44.46466" lon="0.98105">
        <ele>140.97</ele>
        <time>2015-09-26T14:52:45Z</time>
      </trkpt>
      <trkpt lat="44.46406" lon="0.98055">
        <ele>128.95</ele>
        <time>2015-09-26T14:52:56Z</time>
      </trkpt>
      <trkpt lat="44.46398" lon="0.98049">
        <ele>127.51</ele>
        <time>2015-09-26T14:52:57Z</time>
      </trkpt>
      <trkpt lat="44.46357" lon="0.98006">
        <ele>125.59</ele>
        <time>2015-09-26T14:53:03Z</time>
      </trkpt>
      <trkpt lat="44.46277" lon="0.97979">
        <ele>123.19</ele>
        <time>2015-09-26T14:53:14Z</time>
      </trkpt>
      <trkpt lat="44.46245" lon="0.97979">
        <ele>123.19</ele>
        <time>2015-09-26T14:53:19Z</time>
      </trkpt>
      <trkpt lat="44.4624" lon="0.97977">
        <ele>123.19</ele>
        <time>2015-09-26T14:53:20Z</time>
      </trkpt>
      <trkpt lat="44.46235" lon="0.97973">
        <ele>123.19</ele>
        <time>2015-09-26T14:53:21Z</time>
      </trkpt>
      <trkpt lat="44.46231" lon="0.97968">
        <ele>123.19</ele>
        <time>2015-09-26T14:53:22Z</time>
      </trkpt>
      <trkpt lat="44.46227" lon="0.97963">
        <ele>123.19</ele>
        <time>2015-09-26T14:53:23Z</time>
      </trkpt>
      <trkpt lat="44.46223" lon="0.97958">
        <ele>122.71</ele>
        <time>2015-09-26T14:53:24Z</time>
      </trkpt>
      <trkpt lat="44.4622" lon="0.97952">
        <ele>122.71</ele>
        <time>2015-09-26T14:53:25Z</time>
      </trkpt>
      <trkpt lat="44.46218" lon="0.97946">
        <ele>122.71</ele>
        <time>2015-09-26T14:53:26Z</time>
      </trkpt>
      <trkpt lat="44.46216" lon="0.97939">
        <ele>122.71</ele>
        <time>2015-09-26T14:53:27Z</time>
      </trkpt>
      <trkpt lat="44.46214" lon="0.97933">
        <ele>123.19</ele>
        <time>2015-09-26T14:53:28Z</time>
      </trkpt>
      <trkpt lat="44.4621" lon="0.97915">
        <ele>123.19</ele>
        <time>2015-09-26T14:53:31Z</time>
      </trkpt>
      <trkpt lat="44.4621" lon="0.97909">
        <ele>123.67</ele>
        <time>2015-09-26T14:53:32Z</time>
      </trkpt>
      <trkpt lat="44.4621" lon="0.97903">
        <ele>123.67</ele>
        <time>2015-09-26T14:53:33Z</time>
      </trkpt>
      <trkpt lat="44.46209" lon="0.97897">
        <ele>124.15</ele>
        <time>2015-09-26T14:53:34Z</time>
      </trkpt>
      <trkpt lat="44.46209" lon="0.97892">
        <ele>124.63</ele>
        <time>2015-09-26T14:53:35Z</time>
      </trkpt>
      <trkpt lat="44.46205" lon="0.97863">
        <ele>128.47</ele>
        <time>2015-09-26T14:53:46Z</time>
      </trkpt>
      <trkpt lat="44.46205" lon="0.97863">
        <ele>128.47</ele>
        <time>2015-09-26T14:53:54Z</time>
      </trkpt>
      <trkpt lat="44.46203" lon="0.97854">
        <ele>129.92</ele>
        <time>2015-09-26T14:53:58Z</time>
      </trkpt>
      <trkpt lat="44.46203" lon="0.97851">
        <ele>129.92</ele>
        <time>2015-09-26T14:53:59Z</time>
      </trkpt>
      <trkpt lat="44.46203" lon="0.97848">
        <ele>130.4</ele>
        <time>2015-09-26T14:54:00Z</time>
      </trkpt>
      <trkpt lat="44.46203" lon="0.97845">
        <ele>130.88</ele>
        <time>2015-09-26T14:54:01Z</time>
      </trkpt>
      <trkpt lat="44.46203" lon="0.97842">
        <ele>131.36</ele>
        <time>2015-09-26T14:54:02Z</time>
      </trkpt>
      <trkpt lat="44.46202" lon="0.97839">
        <ele>131.84</ele>
        <time>2015-09-26T14:54:03Z</time>
      </trkpt>
      <trkpt lat="44.46202" lon="0.97835">
        <ele>131.84</ele>
        <time>2015-09-26T14:54:04Z</time>
      </trkpt>
      <trkpt lat="44.46202" lon="0.97832">
        <ele>132.32</ele>
        <time>2015-09-26T14:54:05Z</time>
      </trkpt>
      <trkpt lat="44.46201" lon="0.97829">
        <ele>132.8</ele>
        <time>2015-09-26T14:54:06Z</time>
      </trkpt>
      <trkpt lat="44.46201" lon="0.97826">
        <ele>133.28</ele>
        <time>2015-09-26T14:54:07Z</time>
      </trkpt>
      <trkpt lat="44.46196" lon="0.97792">
        <ele>137.13</ele>
        <time>2015-09-26T14:54:18Z</time>
      </trkpt>
      <trkpt lat="44.46189" lon="0.97764">
        <ele>138.09</ele>
        <time>2015-09-26T14:54:31Z</time>
      </trkpt>
      <trkpt lat="44.46171" lon="0.9773">
        <ele>137.13</ele>
        <time>2015-09-26T14:54:42Z</time>
      </trkpt>
      <trkpt lat="44.46168" lon="0.97726">
        <ele>137.13</ele>
        <time>2015-09-26T14:54:43Z</time>
      </trkpt>
      <trkpt lat="44.46162" lon="0.97719">
        <ele>137.13</ele>
        <time>2015-09-26T14:54:45Z</time>
      </trkpt>
      <trkpt lat="44.46137" lon="0.97668">
        <ele>139.53</ele>
        <time>2015-09-26T14:54:58Z</time>
      </trkpt>
      <trkpt lat="44.46128" lon="0.97621">
        <ele>144.82</ele>
        <time>2015-09-26T14:55:11Z</time>
      </trkpt>
      <trkpt lat="44.46126" lon="0.97594">
        <ele>147.22</ele>
        <time>2015-09-26T14:55:20Z</time>
      </trkpt>
      <trkpt lat="44.46115" lon="0.9756">
        <ele>149.14</ele>
        <time>2015-09-26T14:55:31Z</time>
      </trkpt>
      <trkpt lat="44.46109" lon="0.97544">
        <ele>150.58</ele>
        <time>2015-09-26T14:55:42Z</time>
      </trkpt>
      <trkpt lat="44.46109" lon="0.97543">
        <ele>150.58</ele>
        <time>2015-09-26T14:56:04Z</time>
      </trkpt>
      <trkpt lat="44.46109" lon="0.97543">
        <ele>150.1</ele>
        <time>2015-09-26T14:56:25Z</time>
      </trkpt>
      <trkpt lat="44.46108" lon="0.97543">
        <ele>150.1</ele>
        <time>2015-09-26T14:56:45Z</time>
      </trkpt>
      <trkpt lat="44.46107" lon="0.97543">
        <ele>150.58</ele>
        <time>2015-09-26T14:56:50Z</time>
      </trkpt>
      <trkpt lat="44.46106" lon="0.97541">
        <ele>150.58</ele>
        <time>2015-09-26T14:56:51Z</time>
      </trkpt>
      <trkpt lat="44.46105" lon="0.97539">
        <ele>150.58</ele>
        <time>2015-09-26T14:56:52Z</time>
      </trkpt>
      <trkpt lat="44.4607" lon="0.9749">
        <ele>147.22</ele>
        <time>2015-09-26T14:57:03Z</time>
      </trkpt>
      <trkpt lat="44.46059" lon="0.97476">
        <ele>146.74</ele>
        <time>2015-09-26T14:57:05Z</time>
      </trkpt>
      <trkpt lat="44.46033" lon="0.9744">
        <ele>146.74</ele>
        <time>2015-09-26T14:57:11Z</time>
      </trkpt>
      <trkpt lat="44.46006" lon="0.97411">
        <ele>150.1</ele>
        <time>2015-09-26T14:57:18Z</time>
      </trkpt>
      <trkpt lat="44.45997" lon="0.97405">
        <ele>150.58</ele>
        <time>2015-09-26T14:57:20Z</time>
      </trkpt>
      <trkpt lat="44.45919" lon="0.97363">
        <ele>146.74</ele>
        <time>2015-09-26T14:57:33Z</time>
      </trkpt>
      <trkpt lat="44.45832" lon="0.97311">
        <ele>144.82</ele>
        <time>2015-09-26T14:57:45Z</time>
      </trkpt>
      <trkpt lat="44.45798" lon="0.97286">
        <ele>147.7</ele>
        <time>2015-09-26T14:57:53Z</time>
      </trkpt>
      <trkpt lat="44.45798" lon="0.97283">
        <ele>147.7</ele>
        <time>2015-09-26T14:57:54Z</time>
      </trkpt>
      <trkpt lat="44.45799" lon="0.97279">
        <ele>148.18</ele>
        <time>2015-09-26T14:57:55Z</time>
      </trkpt>
      <trkpt lat="44.45801" lon="0.97276">
        <ele>148.18</ele>
        <time>2015-09-26T14:57:56Z</time>
      </trkpt>
      <trkpt lat="44.45803" lon="0.97272">
        <ele>148.18</ele>
        <time>2015-09-26T14:57:57Z</time>
      </trkpt>
      <trkpt lat="44.45806" lon="0.97267">
        <ele>148.18</ele>
        <time>2015-09-26T14:57:58Z</time>
      </trkpt>
      <trkpt lat="44.45809" lon="0.97262">
        <ele>148.18</ele>
        <time>2015-09-26T14:57:59Z</time>
      </trkpt>
      <trkpt lat="44.45812" lon="0.97257">
        <ele>148.18</ele>
        <time>2015-09-26T14:58:00Z</time>
      </trkpt>
      <trkpt lat="44.45821" lon="0.97242">
        <ele>147.7</ele>
        <time>2015-09-26T14:58:03Z</time>
      </trkpt>
      <trkpt lat="44.45841" lon="0.97201">
        <ele>148.18</ele>
        <time>2015-09-26T14:58:10Z</time>
      </trkpt>
      <trkpt lat="44.45843" lon="0.97196">
        <ele>147.7</ele>
        <time>2015-09-26T14:58:11Z</time>
      </trkpt>
      <trkpt lat="44.45847" lon="0.97184">
        <ele>147.7</ele>
        <time>2015-09-26T14:58:13Z</time>
      </trkpt>
      <trkpt lat="44.45853" lon="0.97166">
        <ele>147.7</ele>
        <time>2015-09-26T14:58:16Z</time>
      </trkpt>
      <trkpt lat="44.45856" lon="0.9716">
        <ele>147.7</ele>
        <time>2015-09-26T14:58:17Z</time>
      </trkpt>
      <trkpt lat="44.45858" lon="0.97155">
        <ele>148.18</ele>
        <time>2015-09-26T14:58:18Z</time>
      </trkpt>
      <trkpt lat="44.45861" lon="0.9715">
        <ele>148.18</ele>
        <time>2015-09-26T14:58:19Z</time>
      </trkpt>
      <trkpt lat="44.45864" lon="0.97144">
        <ele>148.66</ele>
        <time>2015-09-26T14:58:20Z</time>
      </trkpt>
      <trkpt lat="44.45887" lon="0.97091">
        <ele>147.7</ele>
        <time>2015-09-26T14:58:28Z</time>
      </trkpt>
      <trkpt lat="44.4592" lon="0.9704">
        <ele>144.34</ele>
        <time>2015-09-26T14:58:37Z</time>
      </trkpt>
      <trkpt lat="44.45963" lon="0.96995">
        <ele>140.49</ele>
        <time>2015-09-26T14:58:49Z</time>
      </trkpt>
      <trkpt lat="44.45973" lon="0.96988">
        <ele>142.41</ele>
        <time>2015-09-26T14:59:07Z</time>
      </trkpt>
      <trkpt lat="44.45997" lon="0.96973">
        <ele>144.34</ele>
        <time>2015-09-26T14:59:15Z</time>
      </trkpt>
      <trkpt lat="44.46033" lon="0.96951">
        <ele>143.85</ele>
        <time>2015-09-26T14:59:23Z</time>
      </trkpt>
      <trkpt lat="44.46046" lon="0.96942">
        <ele>143.85</ele>
        <time>2015-09-26T14:59:32Z</time>
      </trkpt>
      <trkpt lat="44.4605" lon="0.96939">
        <ele>145.78</ele>
        <time>2015-09-26T14:59:49Z</time>
      </trkpt>
      <trkpt lat="44.46057" lon="0.96935">
        <ele>145.78</ele>
        <time>2015-09-26T15:00:01Z</time>
      </trkpt>
      <trkpt lat="44.46062" lon="0.96931">
        <ele>147.22</ele>
        <time>2015-09-26T15:00:15Z</time>
      </trkpt>
      <trkpt lat="44.46089" lon="0.96919">
        <ele>148.18</ele>
        <time>2015-09-26T15:00:25Z</time>
      </trkpt>
      <trkpt lat="44.46116" lon="0.96906">
        <ele>147.7</ele>
        <time>2015-09-26T15:00:31Z</time>
      </trkpt>
      <trkpt lat="44.46127" lon="0.96896">
        <ele>147.22</ele>
        <time>2015-09-26T15:00:34Z</time>
      </trkpt>
      <trkpt lat="44.46144" lon="0.9687">
        <ele>146.26</ele>
        <time>2015-09-26T15:00:39Z</time>
      </trkpt>
      <trkpt lat="44.4616" lon="0.96843">
        <ele>145.3</ele>
        <time>2015-09-26T15:00:44Z</time>
      </trkpt>
      <trkpt lat="44.46187" lon="0.96798">
        <ele>143.85</ele>
        <time>2015-09-26T15:00:54Z</time>
      </trkpt>
      <trkpt lat="44.4619" lon="0.96792">
        <ele>144.34</ele>
        <time>2015-09-26T15:00:56Z</time>
      </trkpt>
      <trkpt lat="44.46207" lon="0.96756">
        <ele>147.7</ele>
        <time>2015-09-26T15:01:07Z</time>
      </trkpt>
      <trkpt lat="44.46228" lon="0.96747">
        <ele>147.7</ele>
        <time>2015-09-26T15:01:15Z</time>
      </trkpt>
      <trkpt lat="44.4626" lon="0.96721">
        <ele>146.74</ele>
        <time>2015-09-26T15:01:28Z</time>
      </trkpt>
      <trkpt lat="44.4627" lon="0.96679">
        <ele>146.26</ele>
        <time>2015-09-26T15:01:38Z</time>
      </trkpt>
      <trkpt lat="44.46273" lon="0.96674">
        <ele>145.3</ele>
        <time>2015-09-26T15:01:50Z</time>
      </trkpt>
      <trkpt lat="44.46272" lon="0.96672">
        <ele>144.82</ele>
        <time>2015-09-26T15:02:16Z</time>
      </trkpt>
      <trkpt lat="44.46274" lon="0.9666">
        <ele>146.26</ele>
        <time>2015-09-26T15:02:21Z</time>
      </trkpt>
      <trkpt lat="44.46287" lon="0.96636">
        <ele>146.74</ele>
        <time>2015-09-26T15:02:26Z</time>
      </trkpt>
      <trkpt lat="44.46325" lon="0.96584">
        <ele>145.78</ele>
        <time>2015-09-26T15:02:34Z</time>
      </trkpt>
      <trkpt lat="44.46355" lon="0.96545">
        <ele>141.45</ele>
        <time>2015-09-26T15:02:40Z</time>
      </trkpt>
      <trkpt lat="44.46378" lon="0.96543">
        <ele>137.13</ele>
        <time>2015-09-26T15:02:48Z</time>
      </trkpt>
      <trkpt lat="44.46409" lon="0.96553">
        <ele>134.24</ele>
        <time>2015-09-26T15:03:00Z</time>
      </trkpt>
      <trkpt lat="44.46448" lon="0.96575">
        <ele>134.24</ele>
        <time>2015-09-26T15:03:12Z</time>
      </trkpt>
      <trkpt lat="44.46463" lon="0.96578">
        <ele>133.76</ele>
        <time>2015-09-26T15:03:17Z</time>
      </trkpt>
      <trkpt lat="44.46469" lon="0.96571">
        <ele>131.84</ele>
        <time>2015-09-26T15:03:22Z</time>
      </trkpt>
      <trkpt lat="44.46488" lon="0.96543">
        <ele>128.95</ele>
        <time>2015-09-26T15:03:31Z</time>
      </trkpt>
      <trkpt lat="44.46499" lon="0.96531">
        <ele>128.47</ele>
        <time>2015-09-26T15:03:34Z</time>
      </trkpt>
      <trkpt lat="44.46538" lon="0.96469">
        <ele>126.07</ele>
        <time>2015-09-26T15:03:45Z</time>
      </trkpt>
      <trkpt lat="44.46542" lon="0.96463">
        <ele>126.07</ele>
        <time>2015-09-26T15:03:46Z</time>
      </trkpt>
      <trkpt lat="44.46575" lon="0.9639">
        <ele>123.67</ele>
        <time>2015-09-26T15:03:56Z</time>
      </trkpt>
      <trkpt lat="44.46588" lon="0.96366">
        <ele>121.26</ele>
        <time>2015-09-26T15:04:05Z</time>
      </trkpt>
      <trkpt lat="44.46589" lon="0.96364">
        <ele>118.38</ele>
        <time>2015-09-26T15:04:21Z</time>
      </trkpt>
      <trkpt lat="44.46589" lon="0.96363">
        <ele>118.38</ele>
        <time>2015-09-26T15:04:26Z</time>
      </trkpt>
      <trkpt lat="44.4659" lon="0.96355">
        <ele>118.38</ele>
        <time>2015-09-26T15:04:29Z</time>
      </trkpt>
      <trkpt lat="44.46593" lon="0.96346">
        <ele>118.38</ele>
        <time>2015-09-26T15:04:31Z</time>
      </trkpt>
      <trkpt lat="44.46596" lon="0.96342">
        <ele>118.86</ele>
        <time>2015-09-26T15:04:32Z</time>
      </trkpt>
      <trkpt lat="44.46615" lon="0.96282">
        <ele>116.46</ele>
        <time>2015-09-26T15:04:44Z</time>
      </trkpt>
      <trkpt lat="44.46614" lon="0.96277">
        <ele>115.98</ele>
        <time>2015-09-26T15:04:45Z</time>
      </trkpt>
      <trkpt lat="44.46607" lon="0.96254">
        <ele>114.53</ele>
        <time>2015-09-26T15:04:49Z</time>
      </trkpt>
      <trkpt lat="44.46605" lon="0.96249">
        <ele>114.53</ele>
        <time>2015-09-26T15:04:50Z</time>
      </trkpt>
      <trkpt lat="44.46602" lon="0.96243">
        <ele>114.53</ele>
        <time>2015-09-26T15:04:51Z</time>
      </trkpt>
      <trkpt lat="44.46599" lon="0.96238">
        <ele>114.53</ele>
        <time>2015-09-26T15:04:52Z</time>
      </trkpt>
      <trkpt lat="44.46597" lon="0.96233">
        <ele>114.53</ele>
        <time>2015-09-26T15:04:53Z</time>
      </trkpt>
      <trkpt lat="44.46572" lon="0.96189">
        <ele>113.09</ele>
        <time>2015-09-26T15:05:02Z</time>
      </trkpt>
      <trkpt lat="44.46565" lon="0.96166">
        <ele>111.65</ele>
        <time>2015-09-26T15:05:10Z</time>
      </trkpt>
      <trkpt lat="44.46565" lon="0.96164">
        <ele>111.17</ele>
        <time>2015-09-26T15:05:12Z</time>
      </trkpt>
      <trkpt lat="44.46567" lon="0.96162">
        <ele>111.17</ele>
        <time>2015-09-26T15:05:13Z</time>
      </trkpt>
      <trkpt lat="44.46592" lon="0.96139">
        <ele>110.21</ele>
        <time>2015-09-26T15:05:20Z</time>
      </trkpt>
      <trkpt lat="44.466" lon="0.9613">
        <ele>109.73</ele>
        <time>2015-09-26T15:05:22Z</time>
      </trkpt>
      <trkpt lat="44.46653" lon="0.96077">
        <ele>107.32</ele>
        <time>2015-09-26T15:05:33Z</time>
      </trkpt>
      <trkpt lat="44.46713" lon="0.95998">
        <ele>104.92</ele>
        <time>2015-09-26T15:05:45Z</time>
      </trkpt>
      <trkpt lat="44.46771" lon="0.95918">
        <ele>103.48</ele>
        <time>2015-09-26T15:05:58Z</time>
      </trkpt>
      <trkpt lat="44.46773" lon="0.95913">
        <ele>103</ele>
        <time>2015-09-26T15:05:59Z</time>
      </trkpt>
      <trkpt lat="44.46772" lon="0.95908">
        <ele>103</ele>
        <time>2015-09-26T15:06:00Z</time>
      </trkpt>
      <trkpt lat="44.4677" lon="0.95903">
        <ele>103</ele>
        <time>2015-09-26T15:06:01Z</time>
      </trkpt>
      <trkpt lat="44.46766" lon="0.95899">
        <ele>103.48</ele>
        <time>2015-09-26T15:06:02Z</time>
      </trkpt>
      <trkpt lat="44.46763" lon="0.95895">
        <ele>103.48</ele>
        <time>2015-09-26T15:06:03Z</time>
      </trkpt>
      <trkpt lat="44.46759" lon="0.95892">
        <ele>103.96</ele>
        <time>2015-09-26T15:06:04Z</time>
      </trkpt>
      <trkpt lat="44.46755" lon="0.95888">
        <ele>104.44</ele>
        <time>2015-09-26T15:06:05Z</time>
      </trkpt>
      <trkpt lat="44.46752" lon="0.95884">
        <ele>104.44</ele>
        <time>2015-09-26T15:06:06Z</time>
      </trkpt>
      <trkpt lat="44.46688" lon="0.95815">
        <ele>105.4</ele>
        <time>2015-09-26T15:06:24Z</time>
      </trkpt>
      <trkpt lat="44.46672" lon="0.95798">
        <ele>105.88</ele>
        <time>2015-09-26T15:06:29Z</time>
      </trkpt>
      <trkpt lat="44.46633" lon="0.95762">
        <ele>106.36</ele>
        <time>2015-09-26T15:06:43Z</time>
      </trkpt>
      <trkpt lat="44.46633" lon="0.95759">
        <ele>105.88</ele>
        <time>2015-09-26T15:06:47Z</time>
      </trkpt>
      <trkpt lat="44.46655" lon="0.95716">
        <ele>103.96</ele>
        <time>2015-09-26T15:06:58Z</time>
      </trkpt>
      <trkpt lat="44.46703" lon="0.95634">
        <ele>102.52</ele>
        <time>2015-09-26T15:07:16Z</time>
      </trkpt>
      <trkpt lat="44.4672" lon="0.95618">
        <ele>102.04</ele>
        <time>2015-09-26T15:07:21Z</time>
      </trkpt>
      <trkpt lat="44.46744" lon="0.95611">
        <ele>101.08</ele>
        <time>2015-09-26T15:07:27Z</time>
      </trkpt>
      <trkpt lat="44.46779" lon="0.95602">
        <ele>100.11</ele>
        <time>2015-09-26T15:07:36Z</time>
      </trkpt>
      <trkpt lat="44.46782" lon="0.95591">
        <ele>99.63</ele>
        <time>2015-09-26T15:07:42Z</time>
      </trkpt>
      <trkpt lat="44.46781" lon="0.95587">
        <ele>99.63</ele>
        <time>2015-09-26T15:07:43Z</time>
      </trkpt>
      <trkpt lat="44.46781" lon="0.95582">
        <ele>99.63</ele>
        <time>2015-09-26T15:07:44Z</time>
      </trkpt>
      <trkpt lat="44.46775" lon="0.95507">
        <ele>100.6</ele>
        <time>2015-09-26T15:07:57Z</time>
      </trkpt>
      <trkpt lat="44.46766" lon="0.9541">
        <ele>100.6</ele>
        <time>2015-09-26T15:08:11Z</time>
      </trkpt>
      <trkpt lat="44.46754" lon="0.95338">
        <ele>99.63</ele>
        <time>2015-09-26T15:08:21Z</time>
      </trkpt>
      <trkpt lat="44.46728" lon="0.95219">
        <ele>94.83</ele>
        <time>2015-09-26T15:08:35Z</time>
      </trkpt>
      <trkpt lat="44.46698" lon="0.95086">
        <ele>86.18</ele>
        <time>2015-09-26T15:08:47Z</time>
      </trkpt>
      <trkpt lat="44.46695" lon="0.95062">
        <ele>85.21</ele>
        <time>2015-09-26T15:08:54Z</time>
      </trkpt>
      <trkpt lat="44.46695" lon="0.95062">
        <ele>84.73</ele>
        <time>2015-09-26T15:09:17Z</time>
      </trkpt>
      <trkpt lat="44.46695" lon="0.95061">
        <ele>84.73</ele>
        <time>2015-09-26T15:09:43Z</time>
      </trkpt>
      <trkpt lat="44.46695" lon="0.95059">
        <ele>85.21</ele>
        <time>2015-09-26T15:10:11Z</time>
      </trkpt>
      <trkpt lat="44.46695" lon="0.95056">
        <ele>85.21</ele>
        <time>2015-09-26T15:10:12Z</time>
      </trkpt>
      <trkpt lat="44.46696" lon="0.95053">
        <ele>85.21</ele>
        <time>2015-09-26T15:10:13Z</time>
      </trkpt>
      <trkpt lat="44.46739" lon="0.95033">
        <ele>85.69</ele>
        <time>2015-09-26T15:10:25Z</time>
      </trkpt>
      <trkpt lat="44.46815" lon="0.95001">
        <ele>85.21</ele>
        <time>2015-09-26T15:10:42Z</time>
      </trkpt>
      <trkpt lat="44.46819" lon="0.94999">
        <ele>85.21</ele>
        <time>2015-09-26T15:10:43Z</time>
      </trkpt>
      <trkpt lat="44.46838" lon="0.9498">
        <ele>84.25</ele>
        <time>2015-09-26T15:10:50Z</time>
      </trkpt>
      <trkpt lat="44.46876" lon="0.94911">
        <ele>80.89</ele>
        <time>2015-09-26T15:11:01Z</time>
      </trkpt>
      <trkpt lat="44.46879" lon="0.94903">
        <ele>80.41</ele>
        <time>2015-09-26T15:11:02Z</time>
      </trkpt>
      <trkpt lat="44.46882" lon="0.94895">
        <ele>80.41</ele>
        <time>2015-09-26T15:11:03Z</time>
      </trkpt>
      <trkpt lat="44.46885" lon="0.94886">
        <ele>79.93</ele>
        <time>2015-09-26T15:11:04Z</time>
      </trkpt>
      <trkpt lat="44.46887" lon="0.94877">
        <ele>79.45</ele>
        <time>2015-09-26T15:11:05Z</time>
      </trkpt>
      <trkpt lat="44.46888" lon="0.94867">
        <ele>79.45</ele>
        <time>2015-09-26T15:11:06Z</time>
      </trkpt>
      <trkpt lat="44.46889" lon="0.94857">
        <ele>78.97</ele>
        <time>2015-09-26T15:11:07Z</time>
      </trkpt>
      <trkpt lat="44.46892" lon="0.94832">
        <ele>78.48</ele>
        <time>2015-09-26T15:11:10Z</time>
      </trkpt>
      <trkpt lat="44.46893" lon="0.94826">
        <ele>78.48</ele>
        <time>2015-09-26T15:11:11Z</time>
      </trkpt>
      <trkpt lat="44.46895" lon="0.94821">
        <ele>78</ele>
        <time>2015-09-26T15:11:12Z</time>
      </trkpt>
      <trkpt lat="44.469" lon="0.94812">
        <ele>78.48</ele>
        <time>2015-09-26T15:11:14Z</time>
      </trkpt>
      <trkpt lat="44.46933" lon="0.94743">
        <ele>76.08</ele>
        <time>2015-09-26T15:11:25Z</time>
      </trkpt>
      <trkpt lat="44.46988" lon="0.94651">
        <ele>74.16</ele>
        <time>2015-09-26T15:11:40Z</time>
      </trkpt>
      <trkpt lat="44.47022" lon="0.94538">
        <ele>73.68</ele>
        <time>2015-09-26T15:11:55Z</time>
      </trkpt>
      <trkpt lat="44.47026" lon="0.94532">
        <ele>73.2</ele>
        <time>2015-09-26T15:11:56Z</time>
      </trkpt>
      <trkpt lat="44.47037" lon="0.94514">
        <ele>73.2</ele>
        <time>2015-09-26T15:11:59Z</time>
      </trkpt>
      <trkpt lat="44.47086" lon="0.94463">
        <ele>73.2</ele>
        <time>2015-09-26T15:12:10Z</time>
      </trkpt>
      <trkpt lat="44.47165" lon="0.94392">
        <ele>72.72</ele>
        <time>2015-09-26T15:12:26Z</time>
      </trkpt>
      <trkpt lat="44.47248" lon="0.9432">
        <ele>71.76</ele>
        <time>2015-09-26T15:12:43Z</time>
      </trkpt>
      <trkpt lat="44.47331" lon="0.94249">
        <ele>69.35</ele>
        <time>2015-09-26T15:13:00Z</time>
      </trkpt>
      <trkpt lat="44.47362" lon="0.94223">
        <ele>68.87</ele>
        <time>2015-09-26T15:13:06Z</time>
      </trkpt>
      <trkpt lat="44.47367" lon="0.9422">
        <ele>68.87</ele>
        <time>2015-09-26T15:13:07Z</time>
      </trkpt>
      <trkpt lat="44.47437" lon="0.94193">
        <ele>66.95</ele>
        <time>2015-09-26T15:13:20Z</time>
      </trkpt>
      <trkpt lat="44.47439" lon="0.94192">
        <ele>66.95</ele>
        <time>2015-09-26T15:13:21Z</time>
      </trkpt>
      <trkpt lat="44.4744" lon="0.9419">
        <ele>66.47</ele>
        <time>2015-09-26T15:13:22Z</time>
      </trkpt>
      <trkpt lat="44.4744" lon="0.9419">
        <ele>66.47</ele>
        <time>2015-09-26T15:13:34Z</time>
      </trkpt>
      <trkpt lat="44.47441" lon="0.94189">
        <ele>66.47</ele>
        <time>2015-09-26T15:13:48Z</time>
      </trkpt>
      <trkpt lat="44.47441" lon="0.94187">
        <ele>66.47</ele>
        <time>2015-09-26T15:13:49Z</time>
      </trkpt>
      <trkpt lat="44.4744" lon="0.94183">
        <ele>66.47</ele>
        <time>2015-09-26T15:13:50Z</time>
      </trkpt>
      <trkpt lat="44.47439" lon="0.94178">
        <ele>66.47</ele>
        <time>2015-09-26T15:13:51Z</time>
      </trkpt>
      <trkpt lat="44.47437" lon="0.94173">
        <ele>66.47</ele>
        <time>2015-09-26T15:13:52Z</time>
      </trkpt>
      <trkpt lat="44.47434" lon="0.94168">
        <ele>65.99</ele>
        <time>2015-09-26T15:13:53Z</time>
      </trkpt>
      <trkpt lat="44.4743" lon="0.94162">
        <ele>65.99</ele>
        <time>2015-09-26T15:13:54Z</time>
      </trkpt>
      <trkpt lat="44.47427" lon="0.94156">
        <ele>65.99</ele>
        <time>2015-09-26T15:13:55Z</time>
      </trkpt>
      <trkpt lat="44.47424" lon="0.9415">
        <ele>65.99</ele>
        <time>2015-09-26T15:13:56Z</time>
      </trkpt>
      <trkpt lat="44.47367" lon="0.94055">
        <ele>68.39</ele>
        <time>2015-09-26T15:14:13Z</time>
      </trkpt>
      <trkpt lat="44.47333" lon="0.93993">
        <ele>73.2</ele>
        <time>2015-09-26T15:14:25Z</time>
      </trkpt>
      <trkpt lat="44.47293" lon="0.93918">
        <ele>75.12</ele>
        <time>2015-09-26T15:14:39Z</time>
      </trkpt>
      <trkpt lat="44.47255" lon="0.93832">
        <ele>74.16</ele>
        <time>2015-09-26T15:14:55Z</time>
      </trkpt>
      <trkpt lat="44.47256" lon="0.9383">
        <ele>73.68</ele>
        <time>2015-09-26T15:14:56Z</time>
      </trkpt>
      <trkpt lat="44.47258" lon="0.93828">
        <ele>73.68</ele>
        <time>2015-09-26T15:14:57Z</time>
      </trkpt>
      <trkpt lat="44.47261" lon="0.93827">
        <ele>73.2</ele>
        <time>2015-09-26T15:14:58Z</time>
      </trkpt>
      <trkpt lat="44.47262" lon="0.93825">
        <ele>73.2</ele>
        <time>2015-09-26T15:14:59Z</time>
      </trkpt>
      <trkpt lat="44.47263" lon="0.93823">
        <ele>73.2</ele>
        <time>2015-09-26T15:15:00Z</time>
      </trkpt>
      <trkpt lat="44.47263" lon="0.93818">
        <ele>72.72</ele>
        <time>2015-09-26T15:15:01Z</time>
      </trkpt>
      <trkpt lat="44.47262" lon="0.93814">
        <ele>72.72</ele>
        <time>2015-09-26T15:15:02Z</time>
      </trkpt>
      <trkpt lat="44.4726" lon="0.93809">
        <ele>72.72</ele>
        <time>2015-09-26T15:15:03Z</time>
      </trkpt>
      <trkpt lat="44.47243" lon="0.93771">
        <ele>72.72</ele>
        <time>2015-09-26T15:15:09Z</time>
      </trkpt>
      <trkpt lat="44.47239" lon="0.93763">
        <ele>73.2</ele>
        <time>2015-09-26T15:15:10Z</time>
      </trkpt>
      <trkpt lat="44.47231" lon="0.93742">
        <ele>72.72</ele>
        <time>2015-09-26T15:15:13Z</time>
      </trkpt>
      <trkpt lat="44.47229" lon="0.93736">
        <ele>72.72</ele>
        <time>2015-09-26T15:15:14Z</time>
      </trkpt>
      <trkpt lat="44.47218" lon="0.93706">
        <ele>72.24</ele>
        <time>2015-09-26T15:15:19Z</time>
      </trkpt>
      <trkpt lat="44.47196" lon="0.93659">
        <ele>72.72</ele>
        <time>2015-09-26T15:15:27Z</time>
      </trkpt>
      <trkpt lat="44.47194" lon="0.93653">
        <ele>72.72</ele>
        <time>2015-09-26T15:15:28Z</time>
      </trkpt>
      <trkpt lat="44.47192" lon="0.93648">
        <ele>72.72</ele>
        <time>2015-09-26T15:15:29Z</time>
      </trkpt>
      <trkpt lat="44.47185" lon="0.93632">
        <ele>72.24</ele>
        <time>2015-09-26T15:15:32Z</time>
      </trkpt>
      <trkpt lat="44.47183" lon="0.93626">
        <ele>72.24</ele>
        <time>2015-09-26T15:15:33Z</time>
      </trkpt>
      <trkpt lat="44.4718" lon="0.93609">
        <ele>71.76</ele>
        <time>2015-09-26T15:15:36Z</time>
      </trkpt>
      <trkpt lat="44.47181" lon="0.93602">
        <ele>71.76</ele>
        <time>2015-09-26T15:15:37Z</time>
      </trkpt>
      <trkpt lat="44.47183" lon="0.93597">
        <ele>71.27</ele>
        <time>2015-09-26T15:15:38Z</time>
      </trkpt>
      <trkpt lat="44.47186" lon="0.93591">
        <ele>71.76</ele>
        <time>2015-09-26T15:15:39Z</time>
      </trkpt>
      <trkpt lat="44.47189" lon="0.93586">
        <ele>71.27</ele>
        <time>2015-09-26T15:15:40Z</time>
      </trkpt>
      <trkpt lat="44.47214" lon="0.93563">
        <ele>71.76</ele>
        <time>2015-09-26T15:15:46Z</time>
      </trkpt>
      <trkpt lat="44.47218" lon="0.9356">
        <ele>71.76</ele>
        <time>2015-09-26T15:15:47Z</time>
      </trkpt>
      <trkpt lat="44.47226" lon="0.93553">
        <ele>70.79</ele>
        <time>2015-09-26T15:15:49Z</time>
      </trkpt>
      <trkpt lat="44.47228" lon="0.93547">
        <ele>70.79</ele>
        <time>2015-09-26T15:15:50Z</time>
      </trkpt>
      <trkpt lat="44.47228" lon="0.9354">
        <ele>70.79</ele>
        <time>2015-09-26T15:15:51Z</time>
      </trkpt>
      <trkpt lat="44.47223" lon="0.93499">
        <ele>69.83</ele>
        <time>2015-09-26T15:15:57Z</time>
      </trkpt>
      <trkpt lat="44.47207" lon="0.93422">
        <ele>69.83</ele>
        <time>2015-09-26T15:16:10Z</time>
      </trkpt>
      <trkpt lat="44.47206" lon="0.9342">
        <ele>70.31</ele>
        <time>2015-09-26T15:16:11Z</time>
      </trkpt>
      <trkpt lat="44.47204" lon="0.93417">
        <ele>70.31</ele>
        <time>2015-09-26T15:16:20Z</time>
      </trkpt>
      <trkpt lat="44.47204" lon="0.93416">
        <ele>69.83</ele>
        <time>2015-09-26T15:16:40Z</time>
      </trkpt>
    </trkseg>
  </trk>
</gpx>